Darstellungsparameter: Aktuell verwendete Einstellungen:
Skalierung der Graphiken ... ?
xyx+y,   Skalierungsfaktor:      Skalierung: Modus: x, Faktor: 1
Darstellungszeitraum ... ?
Vom - - bis: - -   Zeitraum: 26.09.2020 - 25.10.2020
Min/Max/Avg-Anzeige ... ?
Zeige MMA aktuell
Zeige MMA Monat
Zeige MMA alles
Zeige --A aktuell
Zeige --A Monat
Zeige --A alles
Keine MMA-Anzeige
MMA:
Minimum Maximum Average (ber die Originaldaten)
MMA-Basis: 26.09.2020 - 25.10.2020
Quicknavigation für Darstellung... ?
Tage:      1T, 2T, 3T, 5T -1T -2T -3T -5T +1T +2T +3T +5T
Wochen: 1W, 2W, 3W -1W -2W -3W +1W +2W +3W
Monate: 1M, 3M, 6M -1M -3M -6M +1M +3M +6M
Jahre:    1J, 3J, 5J, 10J -1J -3J -5J -10J +1J +3J +5J +10J
Nutze für die Darstellung ... ?
Originaldaten oder Mittelwerte auf ...
Stundenbasis Tagesbasis Wochenbasis
Monatsbasis Jahresbasis      Datenbasis: Original-Daten
Darstellen als:
Statistik (Auto) Statistik J:M      Darstellung:
Zur Graphik,    zurück zur Übersicht aller Sensoren.
 
Tabellarische Datenbersicht: ?
 
Sensor: Nr:Datum:Temp:Abs-Feuchte:Windchill:Wind:
Aussen-T/F 1 26-09-2020 00:00:00 11.1 C 8.26 g/m*3 11.1 C 17.7 km/h
2 26-09-2020 00:05:00 10.9 C 8.16 g/m*3 9.76 C 9.7 km/h
3 26-09-2020 00:10:00 10.8 C 8.11 g/m*3 8.96 C 14.5 km/h
4 26-09-2020 00:15:00 10.7 C 8.15 g/m*3 9.04 C 12.9 km/h
5 26-09-2020 00:20:00 10.7 C 8.05 g/m*3 8.65 C 16.1 km/h
6 26-09-2020 00:25:00 10.6 C 8.1 g/m*3 8.92 C 12.9 km/h
7 26-09-2020 00:30:00 10.6 C 8.1 g/m*3 9.4 C 9.7 km/h
8 26-09-2020 00:35:00 10.6 C 8 g/m*3 8.71 C 14.5 km/h
9 26-09-2020 00:40:00 10.6 C 8 g/m*3 9.14 C 11.3 km/h
10 26-09-2020 00:45:00 10.6 C 8 g/m*3 8.53 C 16.1 km/h
11 26-09-2020 00:50:00 10.6 C 7.91 g/m*3 8.71 C 14.5 km/h
12 26-09-2020 00:55:00 10.6 C 7.91 g/m*3 8.71 C 14.5 km/h
13 26-09-2020 01:00:00 10.6 C 7.91 g/m*3 8.92 C 12.9 km/h
14 26-09-2020 01:05:00 10.7 C 7.96 g/m*3 9.04 C 12.9 km/h
15 26-09-2020 01:10:00 10.7 C 7.96 g/m*3 9.26 C 11.3 km/h
16 26-09-2020 01:15:00 10.6 C 7.91 g/m*3 9.14 C 11.3 km/h
17 26-09-2020 01:20:00 10.6 C 7.91 g/m*3 9.69 C 8.1 km/h
18 26-09-2020 01:25:00 10.6 C 7.91 g/m*3 8.71 C 14.5 km/h
19 26-09-2020 01:30:00 10.6 C 8 g/m*3 8.92 C 12.9 km/h
20 26-09-2020 01:35:00 10.6 C 7.91 g/m*3 8.92 C 12.9 km/h
21 26-09-2020 01:40:00 10.6 C 7.91 g/m*3 8.71 C 14.5 km/h
22 26-09-2020 01:45:00 10.6 C 8 g/m*3 8.92 C 12.9 km/h
23 26-09-2020 01:50:00 10.6 C 7.91 g/m*3 9.4 C 9.7 km/h
24 26-09-2020 01:55:00 10.6 C 7.91 g/m*3 9.14 C 11.3 km/h
25 26-09-2020 02:00:00 10.6 C 7.91 g/m*3 8.92 C 12.9 km/h
Sensor: Nr:Datum:Temp:Abs-Feuchte:Windchill:Wind:
Aussen-T/F 26 26-09-2020 02:05:00 10.6 C 7.91 g/m*3 8.53 C 16.1 km/h
27 26-09-2020 02:10:00 10.6 C 7.91 g/m*3 8.92 C 12.9 km/h
28 26-09-2020 02:15:00 10.6 C 7.91 g/m*3 9.4 C 9.7 km/h
29 26-09-2020 02:20:00 10.6 C 7.91 g/m*3 9.14 C 11.3 km/h
30 26-09-2020 02:25:00 10.5 C 7.86 g/m*3 9.57 C 8.1 km/h
31 26-09-2020 02:30:00 10.5 C 7.95 g/m*3 9.57 C 8.1 km/h
32 26-09-2020 02:35:00 10.4 C 7.9 g/m*3 8.47 C 14.5 km/h
33 26-09-2020 02:40:00 10.4 C 7.9 g/m*3 8.9 C 11.3 km/h
34 26-09-2020 02:45:00 10.5 C 7.95 g/m*3 9.28 C 9.7 km/h
35 26-09-2020 02:50:00 10.4 C 7.9 g/m*3 10.4 C 3.2 km/h
36 26-09-2020 02:55:00 10.3 C 7.85 g/m*3 8.16 C 16.1 km/h
37 26-09-2020 03:00:00 10.2 C 7.9 g/m*3 8.03 C 16.1 km/h
38 26-09-2020 03:05:00 10.2 C 7.9 g/m*3 8.66 C 11.3 km/h
39 26-09-2020 03:10:00 10.1 C 7.85 g/m*3 8.54 C 11.3 km/h
40 26-09-2020 03:15:00 10.1 C 7.85 g/m*3 8.8 C 9.7 km/h
41 26-09-2020 03:20:00 10.1 C 7.85 g/m*3 8.31 C 12.9 km/h
42 26-09-2020 03:25:00 10.1 C 7.85 g/m*3 7.73 C 17.7 km/h
43 26-09-2020 03:30:00 10.1 C 7.85 g/m*3 7.42 C 20.9 km/h
44 26-09-2020 03:35:00 10.1 C 7.85 g/m*3 8.31 C 12.9 km/h
45 26-09-2020 03:40:00 10 C 7.8 g/m*3 7.15 C 22.5 km/h
46 26-09-2020 03:45:00 9.9 C 7.75 g/m*3 7.16 C 20.9 km/h
47 26-09-2020 03:50:00 9.9 C 7.75 g/m*3 7.16 C 20.9 km/h
48 26-09-2020 03:55:00 9.8 C 7.7 g/m*3 7.04 C 20.9 km/h
49 26-09-2020 04:00:00 9.8 C 7.7 g/m*3 6.76 C 24.1 km/h
50 26-09-2020 04:05:00 9.8 C 7.7 g/m*3 7.36 C 17.7 km/h
Sensor: Nr:Datum:Temp:Abs-Feuchte:Windchill:Wind:
Aussen-T/F 51 26-09-2020 04:10:00 9.8 C 7.61 g/m*3 7.94 C 12.9 km/h
52 26-09-2020 04:15:00 9.8 C 7.61 g/m*3 6.76 C 24.1 km/h
53 26-09-2020 04:20:00 9.8 C 7.61 g/m*3 7.73 C 14.5 km/h
54 26-09-2020 04:25:00 9.8 C 7.61 g/m*3 7.36 C 17.7 km/h
55 26-09-2020 04:30:00 9.8 C 7.61 g/m*3 7.19 C 19.3 km/h
56 26-09-2020 04:35:00 9.9 C 7.56 g/m*3 7.16 C 20.9 km/h
57 26-09-2020 04:40:00 9.9 C 7.56 g/m*3 7.32 C 19.3 km/h
58 26-09-2020 04:45:00 9.8 C 7.52 g/m*3 7.94 C 12.9 km/h
59 26-09-2020 04:50:00 9.8 C 7.52 g/m*3 7.19 C 19.3 km/h
60 26-09-2020 04:55:00 9.8 C 7.52 g/m*3 7.04 C 20.9 km/h
61 26-09-2020 05:00:00 9.8 C 7.42 g/m*3 7.36 C 17.7 km/h
62 26-09-2020 05:05:00 9.8 C 7.42 g/m*3 7.19 C 19.3 km/h
63 26-09-2020 05:10:00 9.8 C 7.42 g/m*3 7.36 C 17.7 km/h
64 26-09-2020 05:15:00 9.8 C 7.42 g/m*3 7.04 C 20.9 km/h
65 26-09-2020 05:20:00 9.7 C 7.38 g/m*3 7.07 C 19.3 km/h
66 26-09-2020 05:25:00 9.7 C 7.38 g/m*3 6.91 C 20.9 km/h
67 26-09-2020 05:30:00 9.7 C 7.38 g/m*3 7.41 C 16.1 km/h
68 26-09-2020 05:35:00 9.7 C 7.38 g/m*3 7.41 C 16.1 km/h
69 26-09-2020 05:40:00 9.7 C 7.38 g/m*3 6.91 C 20.9 km/h
70 26-09-2020 05:45:00 9.7 C 7.38 g/m*3 6.91 C 20.9 km/h
71 26-09-2020 05:50:00 9.7 C 7.38 g/m*3 6.5 C 25.7 km/h
72 26-09-2020 05:55:00 9.7 C 7.38 g/m*3 6.91 C 20.9 km/h
73 26-09-2020 06:00:00 9.7 C 7.38 g/m*3 6.91 C 20.9 km/h
74 26-09-2020 06:05:00 9.7 C 7.38 g/m*3 6.63 C 24.1 km/h
75 26-09-2020 06:10:00 9.7 C 7.47 g/m*3 6.91 C 20.9 km/h
Sensor: Nr:Datum:Temp:Abs-Feuchte:Windchill:Wind:
Aussen-T/F 76 26-09-2020 06:15:00 9.7 C 7.47 g/m*3 7.07 C 19.3 km/h
77 26-09-2020 06:20:00 9.7 C 7.47 g/m*3 7.41 C 16.1 km/h
78 26-09-2020 06:25:00 9.7 C 7.56 g/m*3 6.91 C 20.9 km/h
79 26-09-2020 06:30:00 9.7 C 7.56 g/m*3 7.82 C 12.9 km/h
80 26-09-2020 06:35:00 9.6 C 7.51 g/m*3 6.64 C 22.5 km/h
81 26-09-2020 06:40:00 9.6 C 7.6 g/m*3 6.64 C 22.5 km/h
82 26-09-2020 06:45:00 9.6 C 7.6 g/m*3 7.94 C 11.3 km/h
83 26-09-2020 06:50:00 9.6 C 7.69 g/m*3 6.37 C 25.7 km/h
84 26-09-2020 06:55:00 9.6 C 7.69 g/m*3 6.37 C 25.7 km/h
85 26-09-2020 07:00:00 9.5 C 7.65 g/m*3 7.58 C 12.9 km/h
86 26-09-2020 07:05:00 9.5 C 7.65 g/m*3 6.98 C 17.7 km/h
87 26-09-2020 07:10:00 9.5 C 7.74 g/m*3 7.58 C 12.9 km/h
88 26-09-2020 07:15:00 9.4 C 7.69 g/m*3 7.24 C 14.5 km/h
89 26-09-2020 07:20:00 9.4 C 7.69 g/m*3 6.86 C 17.7 km/h
90 26-09-2020 07:25:00 9.4 C 7.69 g/m*3 7.24 C 14.5 km/h
91 26-09-2020 07:30:00 9.4 C 7.78 g/m*3 7.46 C 12.9 km/h
92 26-09-2020 07:35:00 9.4 C 7.87 g/m*3 7.46 C 12.9 km/h
93 26-09-2020 07:40:00 9.4 C 7.87 g/m*3 7.7 C 11.3 km/h
94 26-09-2020 07:45:00 9.4 C 7.96 g/m*3 8.28 C 8.1 km/h
95 26-09-2020 07:50:00 9.4 C 7.96 g/m*3 7.46 C 12.9 km/h
96 26-09-2020 07:55:00 9.4 C 7.96 g/m*3 7.04 C 16.1 km/h
97 26-09-2020 08:00:00 9.3 C 7.91 g/m*3 7.33 C 12.9 km/h
98 26-09-2020 08:05:00 9.3 C 7.91 g/m*3 7.33 C 12.9 km/h
99 26-09-2020 08:10:00 9.3 C 8 g/m*3 7.12 C 14.5 km/h
100 26-09-2020 08:15:00 9.3 C 8.09 g/m*3 7.58 C 11.3 km/h
Sensor: Nr:Datum:Temp:Abs-Feuchte:Windchill:Wind:
Aussen-T/F 101 26-09-2020 08:20:00 9.3 C 8.09 g/m*3 9.3 C 4.8 km/h
102 26-09-2020 08:25:00 9.3 C 8.18 g/m*3 8.16 C 8.1 km/h
103 26-09-2020 08:30:00 9.3 C 8.18 g/m*3 7.33 C 12.9 km/h
104 26-09-2020 08:35:00 9.3 C 8.18 g/m*3 7.85 C 9.7 km/h
105 26-09-2020 08:40:00 9.3 C 8.27 g/m*3 8.56 C 6.4 km/h
106 26-09-2020 08:45:00 9.3 C 8.27 g/m*3 8.56 C 6.4 km/h
107 26-09-2020 08:50:00 9.4 C 8.32 g/m*3 8.28 C 8.1 km/h
108 26-09-2020 08:55:00 9.4 C 8.32 g/m*3 7.24 C 14.5 km/h
109 26-09-2020 09:00:00 9.4 C 8.32 g/m*3 8.28 C 8.1 km/h
110 26-09-2020 09:05:00 9.4 C 8.32 g/m*3 7.97 C 9.7 km/h
111 26-09-2020 09:10:00 9.5 C 8.37 g/m*3 9.5 C 4.8 km/h
112 26-09-2020 09:15:00 9.7 C 8.48 g/m*3 9.7 C 3.2 km/h
113 26-09-2020 09:20:00 9.8 C 8.54 g/m*3 9.8 C 4.8 km/h
114 26-09-2020 09:25:00 9.9 C 8.59 g/m*3 9.25 C 6.4 km/h
115 26-09-2020 09:30:00 9.9 C 8.59 g/m*3 7.85 C 14.5 km/h
116 26-09-2020 09:35:00 10.1 C 8.7 g/m*3 8.54 C 11.3 km/h
117 26-09-2020 09:40:00 10.2 C 8.66 g/m*3 8.92 C 9.7 km/h
118 26-09-2020 09:45:00 10.2 C 8.66 g/m*3 8.66 C 11.3 km/h
119 26-09-2020 09:50:00 10.3 C 8.71 g/m*3 9.04 C 9.7 km/h
120 26-09-2020 09:55:00 10.4 C 8.77 g/m*3 9.46 C 8.1 km/h
121 26-09-2020 10:00:00 10.6 C 8.78 g/m*3 10.06 C 6.4 km/h
122 26-09-2020 10:05:00 10.7 C 8.84 g/m*3 9.04 C 12.9 km/h
123 26-09-2020 10:10:00 10.7 C 8.74 g/m*3 8.84 C 14.5 km/h
124 26-09-2020 10:15:00 10.8 C 8.9 g/m*3 9.64 C 9.7 km/h
125 26-09-2020 10:20:00 10.8 C 8.9 g/m*3 10.8 C 1.6 km/h
Sensor: Nr:Datum:Temp:Abs-Feuchte:Windchill:Wind:
Aussen-T/F 126 26-09-2020 10:25:00 10.9 C 8.95 g/m*3 9.08 C 14.5 km/h
127 26-09-2020 10:30:00 10.9 C 8.95 g/m*3 10.9 C 4.8 km/h
128 26-09-2020 10:35:00 11 C 9.01 g/m*3 9.88 C 9.7 km/h
129 26-09-2020 10:40:00 11.1 C 8.96 g/m*3 11.1 C 9.7 km/h
130 26-09-2020 10:45:00 11.1 C 8.96 g/m*3 11.1 C 11.3 km/h
131 26-09-2020 10:50:00 11.2 C 8.92 g/m*3 11.2 C 8.1 km/h
132 26-09-2020 10:55:00 11.2 C 8.92 g/m*3 11.2 C 8.1 km/h
133 26-09-2020 11:00:00 11.3 C 8.98 g/m*3 11.3 C 8.1 km/h
134 26-09-2020 11:05:00 11.3 C 9.08 g/m*3 11.3 C 4.8 km/h
135 26-09-2020 11:10:00 11.4 C 9.24 g/m*3 11.4 C 3.2 km/h
136 26-09-2020 11:15:00 11.4 C 9.24 g/m*3 11.4 C 4.8 km/h
137 26-09-2020 11:20:00 11.4 C 9.24 g/m*3 11.4 C 6.4 km/h
138 26-09-2020 11:25:00 11.4 C 9.24 g/m*3 11.4 C 11.3 km/h
139 26-09-2020 11:30:00 11.6 C 9.25 g/m*3 11.6 C 6.4 km/h
140 26-09-2020 11:35:00 11.7 C 9.2 g/m*3 11.7 C 6.4 km/h
141 26-09-2020 11:40:00 11.8 C 9.16 g/m*3 11.8 C 9.7 km/h
142 26-09-2020 11:45:00 11.8 C 8.95 g/m*3 11.8 C 8.1 km/h
143 26-09-2020 11:50:00 11.9 C 9 g/m*3 11.9 C 9.7 km/h
144 26-09-2020 11:55:00 12 C 9.06 g/m*3 12 C 9.7 km/h
145 26-09-2020 12:00:00 12 C 8.95 g/m*3 12 C 9.7 km/h
146 26-09-2020 12:05:00 12 C 8.95 g/m*3 12 C 14.5 km/h
147 26-09-2020 12:10:00 12 C 9.06 g/m*3 12 C 8.1 km/h
148 26-09-2020 12:15:00 12.1 C 9.12 g/m*3 12.1 C 4.8 km/h
149 26-09-2020 12:20:00 12.2 C 9.06 g/m*3 12.2 C 11.3 km/h
150 26-09-2020 12:25:00 12.2 C 8.96 g/m*3 12.2 C 9.7 km/h
Sensor: Nr:Datum:Temp:Abs-Feuchte:Windchill:Wind:
Aussen-T/F 151 26-09-2020 12:30:00 12.3 C 9.12 g/m*3 12.3 C 6.4 km/h
152 26-09-2020 12:35:00 12.2 C 8.96 g/m*3 12.2 C 19.3 km/h
153 26-09-2020 12:40:00 12.2 C 9.06 g/m*3 12.2 C 12.9 km/h
154 26-09-2020 12:45:00 12 C 9.17 g/m*3 12 C 16.1 km/h
155 26-09-2020 12:50:00 11.7 C 9.1 g/m*3 11.7 C 14.5 km/h
156 26-09-2020 12:55:00 11.6 C 9.25 g/m*3 11.6 C 11.3 km/h
157 26-09-2020 13:00:00 11.4 C 9.14 g/m*3 11.4 C 3.2 km/h
158 26-09-2020 13:05:00 11.4 C 9.24 g/m*3 11.4 C 3.2 km/h
159 26-09-2020 13:10:00 11.3 C 9.28 g/m*3 11.3 C 4.8 km/h
160 26-09-2020 13:15:00 11.3 C 9.28 g/m*3 11.3 C 1.6 km/h
161 26-09-2020 13:20:00 11.3 C 9.28 g/m*3 11.3 C 6.4 km/h
162 26-09-2020 13:25:00 11.3 C 9.38 g/m*3 11.3 C 3.2 km/h
163 26-09-2020 13:30:00 11.3 C 9.38 g/m*3 11.3 C 8.1 km/h
164 26-09-2020 13:35:00 11.5 C 9.61 g/m*3 11.5 C 4.8 km/h
165 26-09-2020 13:40:00 11.7 C 9.73 g/m*3 11.7 C 4.8 km/h
166 26-09-2020 13:45:00 11.8 C 9.79 g/m*3 11.8 C 3.2 km/h
167 26-09-2020 13:50:00 11.8 C 9.68 g/m*3 11.8 C 11.3 km/h
168 26-09-2020 13:55:00 11.7 C 9.62 g/m*3 11.7 C 9.7 km/h
169 26-09-2020 14:00:00 11.7 C 9.62 g/m*3 11.7 C 12.9 km/h
170 26-09-2020 14:05:00 11.7 C 9.62 g/m*3 11.7 C 3.2 km/h
171 26-09-2020 14:10:00 11.8 C 9.68 g/m*3 11.8 C 9.7 km/h
172 26-09-2020 14:15:00 11.8 C 9.58 g/m*3 11.8 C 6.4 km/h
173 26-09-2020 14:20:00 11.8 C 9.47 g/m*3 11.8 C 12.9 km/h
174 26-09-2020 14:25:00 11.7 C 9.31 g/m*3 11.7 C 17.7 km/h
175 26-09-2020 14:30:00 11.7 C 9.31 g/m*3 11.7 C 14.5 km/h
Sensor: Nr:Datum:Temp:Abs-Feuchte:Windchill:Wind:
Aussen-T/F 176 26-09-2020 14:35:00 11.7 C 9.41 g/m*3 11.7 C 12.9 km/h
177 26-09-2020 14:40:00 11.6 C 9.35 g/m*3 11.6 C 9.7 km/h
178 26-09-2020 14:45:00 11.6 C 9.35 g/m*3 11.6 C 11.3 km/h
179 26-09-2020 14:50:00 11.6 C 9.46 g/m*3 11.6 C 4.8 km/h
180 26-09-2020 14:55:00 11.6 C 9.46 g/m*3 11.6 C 12.9 km/h
181 26-09-2020 15:00:00 11.5 C 9.3 g/m*3 11.5 C 12.9 km/h
182 26-09-2020 15:05:00 11.6 C 9.46 g/m*3 11.6 C 11.3 km/h
183 26-09-2020 15:10:00 11.6 C 9.46 g/m*3 11.6 C 9.7 km/h
184 26-09-2020 15:15:00 11.6 C 9.46 g/m*3 11.6 C 6.4 km/h
185 26-09-2020 15:20:00 11.6 C 9.46 g/m*3 11.6 C 9.7 km/h
186 26-09-2020 15:25:00 11.4 C 9.34 g/m*3 11.4 C 12.9 km/h
187 26-09-2020 15:30:00 11.3 C 9.28 g/m*3 11.3 C 16.1 km/h
188 26-09-2020 15:35:00 11.3 C 9.28 g/m*3 11.3 C 14.5 km/h
189 26-09-2020 15:40:00 11.2 C 9.22 g/m*3 11.2 C 11.3 km/h
190 26-09-2020 15:45:00 11.2 C 9.22 g/m*3 11.2 C 12.9 km/h
191 26-09-2020 15:50:00 11.1 C 9.17 g/m*3 11.1 C 12.9 km/h
192 26-09-2020 15:55:00 11.1 C 9.17 g/m*3 11.1 C 9.7 km/h
193 26-09-2020 16:00:00 11.1 C 9.17 g/m*3 11.1 C 6.4 km/h
194 26-09-2020 16:05:00 11.1 C 9.17 g/m*3 11.1 C 14.5 km/h
195 26-09-2020 16:10:00 11 C 9.11 g/m*3 9.21 C 14.5 km/h
196 26-09-2020 16:15:00 10.9 C 9.05 g/m*3 9.51 C 11.3 km/h
197 26-09-2020 16:20:00 10.9 C 8.95 g/m*3 9.28 C 12.9 km/h
198 26-09-2020 16:25:00 10.9 C 8.95 g/m*3 9.51 C 11.3 km/h
199 26-09-2020 16:30:00 10.9 C 8.95 g/m*3 8.9 C 16.1 km/h
200 26-09-2020 16:35:00 10.9 C 8.95 g/m*3 9.76 C 9.7 km/h
Sensor: Nr:Datum:Temp:Abs-Feuchte:Windchill:Wind:
Aussen-T/F 201 26-09-2020 16:40:00 10.9 C 8.95 g/m*3 10.04 C 8.1 km/h
202 26-09-2020 16:45:00 10.9 C 8.95 g/m*3 10.9 C 4.8 km/h
203 26-09-2020 16:50:00 10.9 C 8.95 g/m*3 8.73 C 17.7 km/h
204 26-09-2020 16:55:00 10.9 C 8.95 g/m*3 9.28 C 12.9 km/h
205 26-09-2020 17:00:00 10.9 C 8.95 g/m*3 10.41 C 6.4 km/h
206 26-09-2020 17:05:00 10.9 C 8.95 g/m*3 10.04 C 8.1 km/h
207 26-09-2020 17:10:00 10.9 C 9.05 g/m*3 9.76 C 9.7 km/h
208 26-09-2020 17:15:00 10.9 C 8.95 g/m*3 10.04 C 8.1 km/h
209 26-09-2020 17:20:00 10.9 C 8.95 g/m*3 9.76 C 9.7 km/h
210 26-09-2020 17:25:00 10.9 C 8.95 g/m*3 9.51 C 11.3 km/h
211 26-09-2020 17:30:00 10.9 C 8.95 g/m*3 9.76 C 9.7 km/h
212 26-09-2020 17:35:00 10.9 C 8.95 g/m*3 9.76 C 9.7 km/h
213 26-09-2020 17:40:00 10.9 C 8.95 g/m*3 9.28 C 12.9 km/h
214 26-09-2020 17:45:00 10.9 C 8.95 g/m*3 10.04 C 8.1 km/h
215 26-09-2020 17:50:00 10.9 C 8.95 g/m*3 10.04 C 8.1 km/h
216 26-09-2020 17:55:00 10.9 C 9.05 g/m*3 10.04 C 8.1 km/h
217 26-09-2020 18:00:00 10.9 C 9.05 g/m*3 10.9 C 3.2 km/h
218 26-09-2020 18:05:00 10.9 C 9.05 g/m*3 10.9 C 3.2 km/h
219 26-09-2020 18:10:00 10.9 C 9.05 g/m*3 10.41 C 6.4 km/h
220 26-09-2020 18:15:00 10.9 C 9.15 g/m*3 10.41 C 6.4 km/h
221 26-09-2020 18:20:00 10.9 C 9.15 g/m*3 10.9 C 4.8 km/h
222 26-09-2020 18:25:00 10.8 C 9.09 g/m*3 10.8 C 3.2 km/h
223 26-09-2020 18:30:00 10.8 C 9.09 g/m*3 10.8 C 4.8 km/h
224 26-09-2020 18:35:00 10.8 C 9.09 g/m*3 10.8 C 4.8 km/h
225 26-09-2020 18:40:00 10.7 C 9.04 g/m*3 9.52 C 9.7 km/h
Sensor: Nr:Datum:Temp:Abs-Feuchte:Windchill:Wind:
Aussen-T/F 226 26-09-2020 18:45:00 10.7 C 9.04 g/m*3 10.7 C 3.2 km/h
227 26-09-2020 18:50:00 10.8 C 9.09 g/m*3 9.64 C 9.7 km/h
228 26-09-2020 18:55:00 10.7 C 9.04 g/m*3 10.18 C 6.4 km/h
229 26-09-2020 19:00:00 10.7 C 9.04 g/m*3 9.52 C 9.7 km/h
230 26-09-2020 19:05:00 10.7 C 9.04 g/m*3 10.18 C 6.4 km/h
231 26-09-2020 19:10:00 10.7 C 9.04 g/m*3 9.81 C 8.1 km/h
232 26-09-2020 19:15:00 10.7 C 9.04 g/m*3 10.7 C 1.6 km/h
233 26-09-2020 19:20:00 10.7 C 9.04 g/m*3 10.7 C 0 km/h
234 26-09-2020 19:25:00 10.7 C 9.04 g/m*3 10.18 C 6.4 km/h
235 26-09-2020 19:30:00 10.7 C 9.04 g/m*3 10.7 C 1.6 km/h
236 26-09-2020 19:35:00 10.7 C 9.04 g/m*3 10.7 C 3.2 km/h
237 26-09-2020 19:40:00 10.7 C 9.04 g/m*3 10.7 C 3.2 km/h
238 26-09-2020 19:45:00 10.7 C 9.04 g/m*3 9.81 C 8.1 km/h
239 26-09-2020 19:50:00 10.6 C 9.08 g/m*3 10.06 C 6.4 km/h
240 26-09-2020 19:55:00 10.6 C 9.08 g/m*3 10.6 C 4.8 km/h
241 26-09-2020 20:00:00 10.6 C 9.08 g/m*3 10.6 C 4.8 km/h
242 26-09-2020 20:05:00 10.5 C 9.02 g/m*3 9.95 C 6.4 km/h
243 26-09-2020 20:10:00 10.4 C 8.96 g/m*3 9.16 C 9.7 km/h
244 26-09-2020 20:15:00 10.4 C 8.96 g/m*3 10.4 C 1.6 km/h
245 26-09-2020 20:20:00 10.4 C 8.96 g/m*3 10.4 C 3.2 km/h
246 26-09-2020 20:25:00 10.4 C 8.96 g/m*3 10.4 C 4.8 km/h
247 26-09-2020 20:30:00 10.3 C 8.91 g/m*3 10.3 C 0 km/h
248 26-09-2020 20:35:00 10.3 C 9 g/m*3 9.72 C 6.4 km/h
249 26-09-2020 20:40:00 10.3 C 9 g/m*3 9.72 C 6.4 km/h
250 26-09-2020 20:45:00 10.3 C 9 g/m*3 10.3 C 3.2 km/h
Sensor: Nr:Datum:Temp:Abs-Feuchte:Windchill:Wind:
Aussen-T/F 251 26-09-2020 20:50:00 10.3 C 9 g/m*3 10.3 C 3.2 km/h
252 26-09-2020 20:55:00 10.2 C 8.95 g/m*3 10.2 C 4.8 km/h
253 26-09-2020 21:00:00 10.2 C 8.95 g/m*3 10.2 C 3.2 km/h
254 26-09-2020 21:05:00 10.2 C 8.95 g/m*3 10.2 C 3.2 km/h
255 26-09-2020 21:10:00 10.2 C 8.95 g/m*3 10.2 C 1.6 km/h
256 26-09-2020 21:15:00 10.2 C 8.95 g/m*3 10.2 C 4.8 km/h
257 26-09-2020 21:20:00 10.2 C 8.95 g/m*3 10.2 C 4.8 km/h
258 26-09-2020 21:25:00 10.2 C 8.95 g/m*3 10.2 C 0 km/h
259 26-09-2020 21:30:00 10.2 C 9.04 g/m*3 10.2 C 0 km/h
260 26-09-2020 21:35:00 10.2 C 9.04 g/m*3 10.2 C 1.6 km/h
261 26-09-2020 21:40:00 10.2 C 9.04 g/m*3 10.2 C 3.2 km/h
262 26-09-2020 21:45:00 10.2 C 9.04 g/m*3 10.2 C 0 km/h
263 26-09-2020 21:50:00 10.2 C 9.04 g/m*3 10.2 C 3.2 km/h
264 26-09-2020 21:55:00 10.2 C 9.04 g/m*3 10.2 C 1.6 km/h
265 26-09-2020 22:00:00 10.2 C 9.04 g/m*3 10.2 C 1.6 km/h
266 26-09-2020 22:05:00 10.2 C 9.04 g/m*3 10.2 C 0 km/h
267 26-09-2020 22:10:00 10.2 C 9.04 g/m*3 10.2 C 0 km/h
268 26-09-2020 22:15:00 10.2 C 9.04 g/m*3 10.2 C 1.6 km/h
269 26-09-2020 22:20:00 10.2 C 9.04 g/m*3 10.2 C 1.6 km/h
270 26-09-2020 22:25:00 10.1 C 8.98 g/m*3 10.1 C 3.2 km/h
271 26-09-2020 22:30:00 10.1 C 8.98 g/m*3 8.8 C 9.7 km/h
272 26-09-2020 22:35:00 10 C 8.93 g/m*3 10 C 1.6 km/h
273 26-09-2020 22:40:00 10 C 8.93 g/m*3 10 C 3.2 km/h
274 26-09-2020 22:45:00 9.9 C 8.87 g/m*3 9.9 C 3.2 km/h
275 26-09-2020 22:50:00 9.9 C 8.87 g/m*3 9.9 C 0 km/h
Sensor: Nr:Datum:Temp:Abs-Feuchte:Windchill:Wind:
Aussen-T/F 276 26-09-2020 22:55:00 9.9 C 8.87 g/m*3 9.9 C 1.6 km/h
277 26-09-2020 23:00:00 9.9 C 8.87 g/m*3 9.9 C 1.6 km/h
278 26-09-2020 23:05:00 9.9 C 8.87 g/m*3 9.9 C 3.2 km/h
279 26-09-2020 23:10:00 9.9 C 8.87 g/m*3 9.9 C 3.2 km/h
280 26-09-2020 23:15:00 9.9 C 8.87 g/m*3 9.9 C 3.2 km/h
281 26-09-2020 23:20:00 9.9 C 8.87 g/m*3 9.9 C 1.6 km/h
282 26-09-2020 23:25:00 9.9 C 8.87 g/m*3 9.25 C 6.4 km/h
283 26-09-2020 23:30:00 9.9 C 8.87 g/m*3 9.9 C 3.2 km/h
284 26-09-2020 23:35:00 9.9 C 8.87 g/m*3 9.9 C 3.2 km/h
285 26-09-2020 23:40:00 9.8 C 8.81 g/m*3 9.8 C 1.6 km/h
286 26-09-2020 23:45:00 9.8 C 8.81 g/m*3 9.8 C 3.2 km/h
287 26-09-2020 23:50:00 9.7 C 8.76 g/m*3 9.7 C 4.8 km/h
288 26-09-2020 23:55:00 9.7 C 8.76 g/m*3 9.7 C 3.2 km/h
289 27-09-2020 00:00:00 9.6 C 8.7 g/m*3 9.6 C 4.8 km/h
290 27-09-2020 00:05:00 9.6 C 8.7 g/m*3 9.6 C 4.8 km/h
291 27-09-2020 00:10:00 9.5 C 8.65 g/m*3 9.5 C 4.8 km/h
292 27-09-2020 00:15:00 9.4 C 8.59 g/m*3 9.4 C 4.8 km/h
293 27-09-2020 00:20:00 9.4 C 8.59 g/m*3 9.4 C 4.8 km/h
294 27-09-2020 00:25:00 9.4 C 8.59 g/m*3 9.4 C 1.6 km/h
295 27-09-2020 00:30:00 9.3 C 8.54 g/m*3 9.3 C 3.2 km/h
296 27-09-2020 00:35:00 9.3 C 8.54 g/m*3 8.56 C 6.4 km/h
297 27-09-2020 00:40:00 9.3 C 8.54 g/m*3 8.56 C 6.4 km/h
298 27-09-2020 00:45:00 9.3 C 8.54 g/m*3 9.3 C 3.2 km/h
299 27-09-2020 00:50:00 9.2 C 8.48 g/m*3 8.45 C 6.4 km/h
300 27-09-2020 00:55:00 9.2 C 8.48 g/m*3 9.2 C 4.8 km/h
Sensor: Nr:Datum:Temp:Abs-Feuchte:Windchill:Wind:
Aussen-T/F 301 27-09-2020 01:00:00 9.1 C 8.43 g/m*3 9.1 C 4.8 km/h
302 27-09-2020 01:05:00 9.1 C 8.43 g/m*3 9.1 C 4.8 km/h
303 27-09-2020 01:10:00 9 C 8.38 g/m*3 8.21 C 6.4 km/h
304 27-09-2020 01:15:00 8.9 C 8.32 g/m*3 7.37 C 9.7 km/h
305 27-09-2020 01:20:00 8.9 C 8.32 g/m*3 7.09 C 11.3 km/h
306 27-09-2020 01:25:00 8.8 C 8.27 g/m*3 6.97 C 11.3 km/h
307 27-09-2020 01:30:00 8.8 C 8.36 g/m*3 7.58 C 8.1 km/h
308 27-09-2020 01:35:00 8.8 C 8.36 g/m*3 7.58 C 8.1 km/h
309 27-09-2020 01:40:00 8.8 C 8.36 g/m*3 7.25 C 9.7 km/h
310 27-09-2020 01:45:00 8.8 C 8.27 g/m*3 7.98 C 6.4 km/h
311 27-09-2020 01:50:00 8.8 C 8.36 g/m*3 8.8 C 4.8 km/h
312 27-09-2020 01:55:00 8.8 C 8.36 g/m*3 7.98 C 6.4 km/h
313 27-09-2020 02:00:00 8.8 C 8.36 g/m*3 6.72 C 12.9 km/h
314 27-09-2020 02:05:00 8.8 C 8.36 g/m*3 7.58 C 8.1 km/h
315 27-09-2020 02:10:00 8.8 C 8.36 g/m*3 7.98 C 6.4 km/h
316 27-09-2020 02:15:00 8.8 C 8.36 g/m*3 7.25 C 9.7 km/h
317 27-09-2020 02:20:00 8.9 C 8.41 g/m*3 6.62 C 14.5 km/h
318 27-09-2020 02:25:00 8.9 C 8.41 g/m*3 6.62 C 14.5 km/h
319 27-09-2020 02:30:00 8.9 C 8.41 g/m*3 7.09 C 11.3 km/h
320 27-09-2020 02:35:00 8.9 C 8.41 g/m*3 8.9 C 4.8 km/h
321 27-09-2020 02:40:00 9 C 8.46 g/m*3 7.81 C 8.1 km/h
322 27-09-2020 02:45:00 9 C 8.46 g/m*3 9 C 3.2 km/h
323 27-09-2020 02:50:00 9.1 C 8.52 g/m*3 8.33 C 6.4 km/h
324 27-09-2020 02:55:00 9.1 C 8.52 g/m*3 8.33 C 6.4 km/h
325 27-09-2020 03:00:00 9.2 C 8.57 g/m*3 9.2 C 3.2 km/h
Sensor: Nr:Datum:Temp:Abs-Feuchte:Windchill:Wind:
Aussen-T/F 326 27-09-2020 03:05:00 9.2 C 8.57 g/m*3 8.05 C 8.1 km/h
327 27-09-2020 03:10:00 9.2 C 8.57 g/m*3 7.73 C 9.7 km/h
328 27-09-2020 03:15:00 9.3 C 8.63 g/m*3 9.3 C 3.2 km/h
329 27-09-2020 03:20:00 9.3 C 8.63 g/m*3 9.3 C 4.8 km/h
330 27-09-2020 03:25:00 9.3 C 8.63 g/m*3 9.3 C 3.2 km/h
331 27-09-2020 03:30:00 9.3 C 8.63 g/m*3 9.3 C 3.2 km/h
332 27-09-2020 03:35:00 9.4 C 8.68 g/m*3 9.4 C 3.2 km/h
333 27-09-2020 03:40:00 9.4 C 8.68 g/m*3 8.68 C 6.4 km/h
334 27-09-2020 03:45:00 9.4 C 8.68 g/m*3 9.4 C 3.2 km/h
335 27-09-2020 03:50:00 9.4 C 8.68 g/m*3 8.28 C 8.1 km/h
336 27-09-2020 03:55:00 9.5 C 8.74 g/m*3 8.79 C 6.4 km/h
337 27-09-2020 04:00:00 9.5 C 8.74 g/m*3 9.5 C 3.2 km/h
338 27-09-2020 04:05:00 9.5 C 8.74 g/m*3 8.09 C 9.7 km/h
339 27-09-2020 04:10:00 9.5 C 8.74 g/m*3 9.5 C 1.6 km/h
340 27-09-2020 04:15:00 9.5 C 8.74 g/m*3 9.5 C 3.2 km/h
341 27-09-2020 04:20:00 9.5 C 8.74 g/m*3 9.5 C 0 km/h
342 27-09-2020 04:25:00 9.5 C 8.74 g/m*3 9.5 C 0 km/h
343 27-09-2020 04:30:00 9.5 C 8.74 g/m*3 9.5 C 0 km/h
344 27-09-2020 04:35:00 9.5 C 8.74 g/m*3 9.5 C 0 km/h
345 27-09-2020 04:40:00 9.5 C 8.74 g/m*3 9.5 C 0 km/h
346 27-09-2020 04:45:00 9.5 C 8.74 g/m*3 9.5 C 0 km/h
347 27-09-2020 04:50:00 9.5 C 8.74 g/m*3 9.5 C 1.6 km/h
348 27-09-2020 04:55:00 9.6 C 8.79 g/m*3 9.6 C 1.6 km/h
349 27-09-2020 05:00:00 9.6 C 8.79 g/m*3 9.6 C 3.2 km/h
350 27-09-2020 05:05:00 9.6 C 8.79 g/m*3 9.6 C 0 km/h
Sensor: Nr:Datum:Temp:Abs-Feuchte:Windchill:Wind:
Aussen-T/F 351 27-09-2020 05:10:00 9.6 C 8.79 g/m*3 9.6 C 1.6 km/h
352 27-09-2020 05:15:00 9.6 C 8.79 g/m*3 9.6 C 1.6 km/h
353 27-09-2020 05:20:00 9.6 C 8.79 g/m*3 9.6 C 0 km/h
354 27-09-2020 05:25:00 9.6 C 8.79 g/m*3 9.6 C 1.6 km/h
355 27-09-2020 05:30:00 9.6 C 8.79 g/m*3 9.6 C 0 km/h
356 27-09-2020 05:35:00 9.6 C 8.79 g/m*3 9.6 C 1.6 km/h
357 27-09-2020 05:40:00 9.6 C 8.79 g/m*3 9.6 C 0 km/h
358 27-09-2020 05:45:00 9.6 C 8.79 g/m*3 9.6 C 0 km/h
359 27-09-2020 05:50:00 9.6 C 8.79 g/m*3 9.6 C 0 km/h
360 27-09-2020 05:55:00 9.6 C 8.79 g/m*3 9.6 C 0 km/h
361 27-09-2020 06:00:00 9.6 C 8.79 g/m*3 9.6 C 0 km/h
362 27-09-2020 06:05:00 9.6 C 8.79 g/m*3 9.6 C 0 km/h
363 27-09-2020 06:10:00 9.6 C 8.79 g/m*3 9.6 C 0 km/h
364 27-09-2020 06:15:00 9.6 C 8.79 g/m*3 9.6 C 0 km/h
365 27-09-2020 06:20:00 9.6 C 8.79 g/m*3 9.6 C 1.6 km/h
366 27-09-2020 06:25:00 9.6 C 8.79 g/m*3 9.6 C 0 km/h
367 27-09-2020 06:30:00 9.6 C 8.79 g/m*3 9.6 C 0 km/h
368 27-09-2020 06:35:00 9.6 C 8.79 g/m*3 9.6 C 0 km/h
369 27-09-2020 06:40:00 9.6 C 8.79 g/m*3 9.6 C 1.6 km/h
370 27-09-2020 06:45:00 9.6 C 8.79 g/m*3 9.6 C 0 km/h
371 27-09-2020 06:50:00 9.6 C 8.79 g/m*3 9.6 C 0 km/h
372 27-09-2020 06:55:00 9.6 C 8.79 g/m*3 9.6 C 0 km/h
373 27-09-2020 07:00:00 9.6 C 8.79 g/m*3 9.6 C 0 km/h
374 27-09-2020 07:05:00 9.6 C 8.79 g/m*3 9.6 C 0 km/h
375 27-09-2020 07:10:00 9.6 C 8.79 g/m*3 9.6 C 0 km/h
Sensor: Nr:Datum:Temp:Abs-Feuchte:Windchill:Wind:
Aussen-T/F 376 27-09-2020 07:15:00 9.6 C 8.79 g/m*3 9.6 C 0 km/h
377 27-09-2020 07:20:00 9.6 C 8.79 g/m*3 9.6 C 0 km/h
378 27-09-2020 07:25:00 9.6 C 8.79 g/m*3 9.6 C 0 km/h
379 27-09-2020 07:30:00 9.6 C 8.79 g/m*3 9.6 C 3.2 km/h
380 27-09-2020 07:35:00 9.6 C 8.79 g/m*3 9.6 C 0 km/h
381 27-09-2020 07:40:00 9.6 C 8.79 g/m*3 9.6 C 0 km/h
382 27-09-2020 07:45:00 9.6 C 8.79 g/m*3 9.6 C 0 km/h
383 27-09-2020 07:50:00 9.6 C 8.79 g/m*3 9.6 C 0 km/h
384 27-09-2020 07:55:00 9.6 C 8.79 g/m*3 9.6 C 0 km/h
385 27-09-2020 08:00:00 9.6 C 8.79 g/m*3 9.6 C 0 km/h
386 27-09-2020 08:05:00 9.6 C 8.79 g/m*3 9.6 C 1.6 km/h
387 27-09-2020 08:10:00 9.7 C 8.85 g/m*3 9.7 C 3.2 km/h
388 27-09-2020 08:15:00 9.7 C 8.94 g/m*3 9.7 C 1.6 km/h
389 27-09-2020 08:20:00 9.7 C 8.94 g/m*3 9.02 C 6.4 km/h
390 27-09-2020 08:25:00 9.7 C 8.94 g/m*3 9.7 C 0 km/h
391 27-09-2020 08:30:00 9.8 C 9 g/m*3 9.8 C 0 km/h
392 27-09-2020 08:35:00 9.8 C 9 g/m*3 9.8 C 0 km/h
393 27-09-2020 08:40:00 9.8 C 8.91 g/m*3 9.8 C 0 km/h
394 27-09-2020 08:45:00 9.9 C 8.96 g/m*3 9.9 C 0 km/h
395 27-09-2020 08:50:00 10.1 C 9.17 g/m*3 10.1 C 4.8 km/h
396 27-09-2020 08:55:00 10.2 C 9.23 g/m*3 10.2 C 0 km/h
397 27-09-2020 09:00:00 10.3 C 9.29 g/m*3 10.3 C 1.6 km/h
398 27-09-2020 09:05:00 10.4 C 9.35 g/m*3 10.4 C 1.6 km/h
399 27-09-2020 09:10:00 10.4 C 9.35 g/m*3 10.4 C 0 km/h
400 27-09-2020 09:15:00 10.4 C 9.35 g/m*3 10.4 C 0 km/h
Sensor: Nr:Datum:Temp:Abs-Feuchte:Windchill:Wind:
Aussen-T/F 401 27-09-2020 09:20:00 10.6 C 9.47 g/m*3 10.6 C 0 km/h
402 27-09-2020 09:25:00 10.6 C 9.37 g/m*3 10.6 C 3.2 km/h
403 27-09-2020 09:30:00 10.6 C 9.37 g/m*3 10.6 C 4.8 km/h
404 27-09-2020 09:35:00 10.7 C 9.43 g/m*3 10.7 C 4.8 km/h
405 27-09-2020 09:40:00 10.7 C 9.53 g/m*3 10.7 C 1.6 km/h
406 27-09-2020 09:45:00 10.8 C 9.59 g/m*3 10.8 C 1.6 km/h
407 27-09-2020 09:50:00 10.8 C 9.59 g/m*3 10.8 C 4.8 km/h
408 27-09-2020 09:55:00 10.8 C 9.49 g/m*3 10.8 C 1.6 km/h
409 27-09-2020 10:00:00 10.9 C 9.55 g/m*3 10.9 C 0 km/h
410 27-09-2020 10:05:00 10.9 C 9.55 g/m*3 10.9 C 1.6 km/h
411 27-09-2020 10:10:00 10.9 C 9.55 g/m*3 10.9 C 0 km/h
412 27-09-2020 10:15:00 11 C 9.61 g/m*3 11 C 1.6 km/h
413 27-09-2020 10:20:00 11.1 C 9.67 g/m*3 11.1 C 1.6 km/h
414 27-09-2020 10:25:00 11.2 C 9.73 g/m*3 11.2 C 0 km/h
415 27-09-2020 10:30:00 11.3 C 9.79 g/m*3 11.3 C 1.6 km/h
416 27-09-2020 10:35:00 11.3 C 9.79 g/m*3 11.3 C 3.2 km/h
417 27-09-2020 10:40:00 11.4 C 9.85 g/m*3 11.4 C 1.6 km/h
418 27-09-2020 10:45:00 11.6 C 9.98 g/m*3 11.6 C 1.6 km/h
419 27-09-2020 10:50:00 11.7 C 10.04 g/m*3 11.7 C 6.4 km/h
420 27-09-2020 10:55:00 11.6 C 9.87 g/m*3 11.6 C 4.8 km/h
421 27-09-2020 11:00:00 11.7 C 9.94 g/m*3 11.7 C 4.8 km/h
422 27-09-2020 11:05:00 11.7 C 9.94 g/m*3 11.7 C 3.2 km/h
423 27-09-2020 11:10:00 11.8 C 10 g/m*3 11.8 C 1.6 km/h
424 27-09-2020 11:15:00 11.9 C 9.96 g/m*3 11.9 C 3.2 km/h
425 27-09-2020 11:20:00 12 C 10.02 g/m*3 12 C 4.8 km/h
Sensor: Nr:Datum:Temp:Abs-Feuchte:Windchill:Wind:
Aussen-T/F 426 27-09-2020 11:25:00 12 C 9.91 g/m*3 12 C 6.4 km/h
427 27-09-2020 11:30:00 12.1 C 9.87 g/m*3 12.1 C 4.8 km/h
428 27-09-2020 11:35:00 12.2 C 9.93 g/m*3 12.2 C 4.8 km/h
429 27-09-2020 11:40:00 12.2 C 9.93 g/m*3 12.2 C 6.4 km/h
430 27-09-2020 11:45:00 12.2 C 9.82 g/m*3 12.2 C 6.4 km/h
431 27-09-2020 11:50:00 12.2 C 9.71 g/m*3 12.2 C 4.8 km/h
432 27-09-2020 11:55:00 12.3 C 9.66 g/m*3 12.3 C 9.7 km/h
433 27-09-2020 12:00:00 12.4 C 9.72 g/m*3 12.4 C 1.6 km/h
434 27-09-2020 12:05:00 12.5 C 9.89 g/m*3 12.5 C 6.4 km/h
435 27-09-2020 12:10:00 12.7 C 9.91 g/m*3 12.7 C 6.4 km/h
436 27-09-2020 12:15:00 12.7 C 9.8 g/m*3 12.7 C 6.4 km/h
437 27-09-2020 12:20:00 12.7 C 9.8 g/m*3 12.7 C 3.2 km/h
438 27-09-2020 12:25:00 12.7 C 9.68 g/m*3 12.7 C 3.2 km/h
439 27-09-2020 12:30:00 12.7 C 9.8 g/m*3 12.7 C 11.3 km/h
440 27-09-2020 12:35:00 12.6 C 9.74 g/m*3 12.6 C 9.7 km/h
441 27-09-2020 12:40:00 12.5 C 9.89 g/m*3 12.5 C 3.2 km/h
442 27-09-2020 12:45:00 12.6 C 9.96 g/m*3 12.6 C 4.8 km/h
443 27-09-2020 12:50:00 12.6 C 9.96 g/m*3 12.6 C 4.8 km/h
444 27-09-2020 12:55:00 12.7 C 10.02 g/m*3 12.7 C 4.8 km/h
445 27-09-2020 13:00:00 12.8 C 10.08 g/m*3 12.8 C 4.8 km/h
446 27-09-2020 13:05:00 12.9 C 10.03 g/m*3 12.9 C 1.6 km/h
447 27-09-2020 13:10:00 13.1 C 10.04 g/m*3 13.1 C 9.7 km/h
448 27-09-2020 13:15:00 13.2 C 10.1 g/m*3 13.2 C 12.9 km/h
449 27-09-2020 13:20:00 13.2 C 9.87 g/m*3 13.2 C 8.1 km/h
450 27-09-2020 13:25:00 13.3 C 9.94 g/m*3 13.3 C 8.1 km/h
Sensor: Nr:Datum:Temp:Abs-Feuchte:Windchill:Wind:
Aussen-T/F 451 27-09-2020 13:30:00 13.3 C 9.94 g/m*3 13.3 C 6.4 km/h
452 27-09-2020 13:35:00 13.4 C 9.88 g/m*3 13.4 C 4.8 km/h
453 27-09-2020 13:40:00 13.6 C 10 g/m*3 13.6 C 8.1 km/h
454 27-09-2020 13:45:00 13.7 C 10.07 g/m*3 13.7 C 6.4 km/h
455 27-09-2020 13:50:00 13.6 C 10 g/m*3 13.6 C 8.1 km/h
456 27-09-2020 13:55:00 13.6 C 10 g/m*3 13.6 C 1.6 km/h
457 27-09-2020 14:00:00 13.5 C 9.71 g/m*3 13.5 C 6.4 km/h
458 27-09-2020 14:05:00 13.5 C 9.71 g/m*3 13.5 C 4.8 km/h
459 27-09-2020 14:10:00 13.6 C 9.77 g/m*3 13.6 C 6.4 km/h
460 27-09-2020 14:15:00 13.6 C 9.53 g/m*3 13.6 C 12.9 km/h
461 27-09-2020 14:20:00 13.6 C 9.65 g/m*3 13.6 C 4.8 km/h
462 27-09-2020 14:25:00 13.7 C 9.59 g/m*3 13.7 C 6.4 km/h
463 27-09-2020 14:30:00 13.8 C 9.65 g/m*3 13.8 C 3.2 km/h
464 27-09-2020 14:35:00 13.8 C 9.41 g/m*3 13.8 C 6.4 km/h
465 27-09-2020 14:40:00 13.8 C 9.41 g/m*3 13.8 C 3.2 km/h
466 27-09-2020 14:45:00 13.8 C 9.53 g/m*3 13.8 C 6.4 km/h
467 27-09-2020 14:50:00 13.8 C 9.65 g/m*3 13.8 C 9.7 km/h
468 27-09-2020 14:55:00 13.8 C 9.41 g/m*3 13.8 C 6.4 km/h
469 27-09-2020 15:00:00 13.8 C 9.41 g/m*3 13.8 C 4.8 km/h
470 27-09-2020 15:05:00 13.8 C 9.53 g/m*3 13.8 C 6.4 km/h
471 27-09-2020 15:10:00 13.7 C 9.47 g/m*3 13.7 C 4.8 km/h
472 27-09-2020 15:15:00 13.6 C 9.3 g/m*3 13.6 C 0 km/h
473 27-09-2020 15:20:00 13.5 C 9.36 g/m*3 13.5 C 4.8 km/h
474 27-09-2020 15:25:00 13.4 C 9.3 g/m*3 13.4 C 4.8 km/h
475 27-09-2020 15:30:00 13.3 C 9.24 g/m*3 13.3 C 4.8 km/h
Sensor: Nr:Datum:Temp:Abs-Feuchte:Windchill:Wind:
Aussen-T/F 476 27-09-2020 15:35:00 13.2 C 9.3 g/m*3 13.2 C 0 km/h
477 27-09-2020 15:40:00 13.1 C 9.36 g/m*3 13.1 C 3.2 km/h
478 27-09-2020 15:45:00 13.1 C 9.36 g/m*3 13.1 C 0 km/h
479 27-09-2020 15:50:00 13.1 C 9.24 g/m*3 13.1 C 3.2 km/h
480 27-09-2020 15:55:00 13.1 C 9.36 g/m*3 13.1 C 1.6 km/h
481 27-09-2020 16:00:00 13.1 C 9.47 g/m*3 13.1 C 1.6 km/h
482 27-09-2020 16:05:00 13.1 C 9.36 g/m*3 13.1 C 1.6 km/h
483 27-09-2020 16:10:00 13.1 C 9.36 g/m*3 13.1 C 1.6 km/h
484 27-09-2020 16:15:00 13.2 C 9.53 g/m*3 13.2 C 1.6 km/h
485 27-09-2020 16:20:00 13.2 C 9.53 g/m*3 13.2 C 1.6 km/h
486 27-09-2020 16:25:00 13.2 C 9.53 g/m*3 13.2 C 1.6 km/h
487 27-09-2020 16:30:00 13.1 C 9.36 g/m*3 13.1 C 4.8 km/h
488 27-09-2020 16:35:00 13.2 C 9.64 g/m*3 13.2 C 0 km/h
489 27-09-2020 16:40:00 13.1 C 9.59 g/m*3 13.1 C 0 km/h
490 27-09-2020 16:45:00 13.1 C 9.59 g/m*3 13.1 C 0 km/h
491 27-09-2020 16:50:00 13.1 C 9.47 g/m*3 13.1 C 3.2 km/h
492 27-09-2020 16:55:00 13.1 C 9.59 g/m*3 13.1 C 1.6 km/h
493 27-09-2020 17:00:00 13.1 C 9.47 g/m*3 13.1 C 0 km/h
494 27-09-2020 17:05:00 13.1 C 9.59 g/m*3 13.1 C 0 km/h
495 27-09-2020 17:10:00 13.1 C 9.59 g/m*3 13.1 C 0 km/h
496 27-09-2020 17:15:00 13.1 C 9.59 g/m*3 13.1 C 0 km/h
497 27-09-2020 17:20:00 13.1 C 9.81 g/m*3 13.1 C 0 km/h
498 27-09-2020 17:25:00 13.2 C 9.99 g/m*3 13.2 C 0 km/h
499 27-09-2020 17:30:00 13.2 C 9.99 g/m*3 13.2 C 0 km/h
500 27-09-2020 17:35:00 13.2 C 9.99 g/m*3 13.2 C 0 km/h
Sensor: Nr:Datum:Temp:Abs-Feuchte:Windchill:Wind:
Aussen-T/F 501 27-09-2020 17:40:00 13.1 C 9.93 g/m*3 13.1 C 0 km/h
502 27-09-2020 17:45:00 13.1 C 9.93 g/m*3 13.1 C 0 km/h
503 27-09-2020 17:50:00 13 C 9.87 g/m*3 13 C 0 km/h
504 27-09-2020 17:55:00 12.9 C 9.92 g/m*3 12.9 C 0 km/h
505 27-09-2020 18:00:00 12.8 C 9.86 g/m*3 12.8 C 0 km/h
506 27-09-2020 18:05:00 12.8 C 9.86 g/m*3 12.8 C 0 km/h
507 27-09-2020 18:10:00 12.7 C 9.91 g/m*3 12.7 C 0 km/h
508 27-09-2020 18:15:00 12.7 C 9.91 g/m*3 12.7 C 0 km/h
509 27-09-2020 18:20:00 12.6 C 9.85 g/m*3 12.6 C 0 km/h
510 27-09-2020 18:25:00 12.5 C 9.78 g/m*3 12.5 C 1.6 km/h
511 27-09-2020 18:30:00 12.4 C 9.72 g/m*3 12.4 C 1.6 km/h
512 27-09-2020 18:35:00 12.3 C 9.66 g/m*3 12.3 C 3.2 km/h
513 27-09-2020 18:40:00 12.2 C 9.6 g/m*3 12.2 C 4.8 km/h
514 27-09-2020 18:45:00 12 C 9.48 g/m*3 12 C 4.8 km/h
515 27-09-2020 18:50:00 11.9 C 9.43 g/m*3 11.9 C 4.8 km/h
516 27-09-2020 18:55:00 11.8 C 9.37 g/m*3 11.8 C 4.8 km/h
517 27-09-2020 19:00:00 11.7 C 9.31 g/m*3 11.7 C 1.6 km/h
518 27-09-2020 19:05:00 11.6 C 9.35 g/m*3 11.6 C 1.6 km/h
519 27-09-2020 19:10:00 11.6 C 9.35 g/m*3 11.6 C 1.6 km/h
520 27-09-2020 19:15:00 11.4 C 9.24 g/m*3 11.4 C 1.6 km/h
521 27-09-2020 19:20:00 11.4 C 9.24 g/m*3 11.4 C 3.2 km/h
522 27-09-2020 19:25:00 11.3 C 9.18 g/m*3 11.3 C 3.2 km/h
523 27-09-2020 19:30:00 11.2 C 9.12 g/m*3 11.2 C 3.2 km/h
524 27-09-2020 19:35:00 11.2 C 9.12 g/m*3 11.2 C 1.6 km/h
525 27-09-2020 19:40:00 11.2 C 9.22 g/m*3 11.2 C 1.6 km/h
Sensor: Nr:Datum:Temp:Abs-Feuchte:Windchill:Wind:
Aussen-T/F 526 27-09-2020 19:45:00 11.2 C 9.22 g/m*3 11.2 C 3.2 km/h
527 27-09-2020 19:50:00 11.1 C 9.17 g/m*3 11.1 C 3.2 km/h
528 27-09-2020 19:55:00 11.1 C 9.17 g/m*3 11.1 C 3.2 km/h
529 27-09-2020 20:00:00 11.1 C 9.17 g/m*3 11.1 C 3.2 km/h
530 27-09-2020 20:05:00 11 C 9.11 g/m*3 11 C 1.6 km/h
531 27-09-2020 20:10:00 11 C 9.11 g/m*3 11 C 0 km/h
532 27-09-2020 20:15:00 10.9 C 9.15 g/m*3 10.9 C 1.6 km/h
533 27-09-2020 20:20:00 10.9 C 9.15 g/m*3 10.9 C 1.6 km/h
534 27-09-2020 20:25:00 10.9 C 9.15 g/m*3 10.9 C 3.2 km/h
535 27-09-2020 20:30:00 10.9 C 9.15 g/m*3 10.9 C 3.2 km/h
536 27-09-2020 20:35:00 10.8 C 9.09 g/m*3 10.8 C 1.6 km/h
537 27-09-2020 20:40:00 10.8 C 9.09 g/m*3 10.8 C 3.2 km/h
538 27-09-2020 20:45:00 10.8 C 9.09 g/m*3 10.8 C 1.6 km/h
539 27-09-2020 20:50:00 10.8 C 9.09 g/m*3 10.8 C 1.6 km/h
540 27-09-2020 20:55:00 10.8 C 9.09 g/m*3 10.8 C 1.6 km/h
541 27-09-2020 21:00:00 10.8 C 9.09 g/m*3 10.8 C 0 km/h
542 27-09-2020 21:05:00 10.8 C 9.09 g/m*3 10.8 C 0 km/h
543 27-09-2020 21:10:00 10.8 C 9.19 g/m*3 10.8 C 0 km/h
544 27-09-2020 21:15:00 10.8 C 9.19 g/m*3 10.8 C 3.2 km/h
545 27-09-2020 21:20:00 10.8 C 9.19 g/m*3 10.8 C 3.2 km/h
546 27-09-2020 21:25:00 10.7 C 9.13 g/m*3 10.7 C 3.2 km/h
547 27-09-2020 21:30:00 10.7 C 9.13 g/m*3 10.7 C 1.6 km/h
548 27-09-2020 21:35:00 10.7 C 9.13 g/m*3 10.7 C 0 km/h
549 27-09-2020 21:40:00 10.7 C 9.13 g/m*3 10.7 C 0 km/h
550 27-09-2020 21:45:00 10.7 C 9.13 g/m*3 10.7 C 0 km/h
Sensor: Nr:Datum:Temp:Abs-Feuchte:Windchill:Wind:
Aussen-T/F 551 27-09-2020 21:50:00 10.7 C 9.13 g/m*3 10.7 C 3.2 km/h
552 27-09-2020 21:55:00 10.7 C 9.13 g/m*3 10.7 C 3.2 km/h
553 27-09-2020 22:00:00 10.7 C 9.13 g/m*3 10.7 C 1.6 km/h
554 27-09-2020 22:05:00 10.7 C 9.13 g/m*3 10.7 C 0 km/h
555 27-09-2020 22:10:00 10.7 C 9.13 g/m*3 10.7 C 0 km/h
556 27-09-2020 22:15:00 10.7 C 9.13 g/m*3 10.7 C 0 km/h
557 27-09-2020 22:20:00 10.7 C 9.13 g/m*3 10.7 C 0 km/h
558 27-09-2020 22:25:00 10.7 C 9.13 g/m*3 10.7 C 0 km/h
559 27-09-2020 22:30:00 10.7 C 9.13 g/m*3 10.7 C 0 km/h
560 27-09-2020 22:35:00 10.6 C 9.08 g/m*3 10.6 C 0 km/h
561 27-09-2020 22:40:00 10.6 C 9.08 g/m*3 10.6 C 1.6 km/h
562 27-09-2020 22:45:00 10.6 C 9.08 g/m*3 10.6 C 0 km/h
563 27-09-2020 22:50:00 10.6 C 9.08 g/m*3 10.6 C 0 km/h
564 27-09-2020 22:55:00 10.6 C 9.08 g/m*3 10.6 C 0 km/h
565 27-09-2020 23:00:00 10.6 C 9.08 g/m*3 10.6 C 1.6 km/h
566 27-09-2020 23:05:00 10.5 C 9.02 g/m*3 10.5 C 3.2 km/h
567 27-09-2020 23:10:00 10.5 C 9.02 g/m*3 10.5 C 0 km/h
568 27-09-2020 23:15:00 10.5 C 9.12 g/m*3 10.5 C 1.6 km/h
569 27-09-2020 23:20:00 10.4 C 9.06 g/m*3 10.4 C 3.2 km/h
570 27-09-2020 23:25:00 10.4 C 9.06 g/m*3 10.4 C 1.6 km/h
571 27-09-2020 23:30:00 10.4 C 9.06 g/m*3 10.4 C 1.6 km/h
572 27-09-2020 23:35:00 10.4 C 9.06 g/m*3 10.4 C 0 km/h
573 27-09-2020 23:40:00 10.4 C 9.06 g/m*3 10.4 C 1.6 km/h
574 27-09-2020 23:45:00 10.4 C 9.06 g/m*3 10.4 C 0 km/h
575 27-09-2020 23:50:00 10.4 C 9.06 g/m*3 10.4 C 0 km/h
Sensor: Nr:Datum:Temp:Abs-Feuchte:Windchill:Wind:
Aussen-T/F 576 27-09-2020 23:55:00 10.4 C 9.06 g/m*3 10.4 C 3.2 km/h
577 28-09-2020 00:00:00 10.4 C 9.06 g/m*3 10.4 C 3.2 km/h
578 28-09-2020 00:05:00 10.4 C 9.06 g/m*3 10.4 C 3.2 km/h
579 28-09-2020 00:10:00 10.4 C 9.06 g/m*3 10.4 C 4.8 km/h
580 28-09-2020 00:15:00 10.4 C 9.06 g/m*3 10.4 C 1.6 km/h
581 28-09-2020 00:20:00 10.4 C 9.06 g/m*3 10.4 C 0 km/h
582 28-09-2020 00:25:00 10.4 C 9.06 g/m*3 10.4 C 0 km/h
583 28-09-2020 00:30:00 10.4 C 9.06 g/m*3 10.4 C 0 km/h
584 28-09-2020 00:35:00 10.4 C 9.06 g/m*3 10.4 C 0 km/h
585 28-09-2020 00:40:00 10.4 C 9.06 g/m*3 10.4 C 0 km/h
586 28-09-2020 00:45:00 10.4 C 9.06 g/m*3 10.4 C 1.6 km/h
587 28-09-2020 00:50:00 10.4 C 9.06 g/m*3 10.4 C 1.6 km/h
588 28-09-2020 00:55:00 10.5 C 9.12 g/m*3 10.5 C 0 km/h
589 28-09-2020 01:00:00 10.5 C 9.12 g/m*3 10.5 C 0 km/h
590 28-09-2020 01:05:00 10.5 C 9.12 g/m*3 10.5 C 0 km/h
591 28-09-2020 01:10:00 10.5 C 9.12 g/m*3 10.5 C 0 km/h
592 28-09-2020 01:15:00 10.5 C 9.12 g/m*3 10.5 C 0 km/h
593 28-09-2020 01:20:00 10.5 C 9.12 g/m*3 10.5 C 0 km/h
594 28-09-2020 01:25:00 10.5 C 9.12 g/m*3 10.5 C 3.2 km/h
595 28-09-2020 01:30:00 10.5 C 9.12 g/m*3 10.5 C 0 km/h
596 28-09-2020 01:35:00 10.5 C 9.12 g/m*3 10.5 C 0 km/h
597 28-09-2020 01:40:00 10.5 C 9.12 g/m*3 10.5 C 0 km/h
598 28-09-2020 01:45:00 10.5 C 9.12 g/m*3 10.5 C 1.6 km/h
599 28-09-2020 01:50:00 10.5 C 9.12 g/m*3 10.5 C 1.6 km/h
600 28-09-2020 01:55:00 10.5 C 9.12 g/m*3 10.5 C 1.6 km/h
Sensor: Nr:Datum:Temp:Abs-Feuchte:Windchill:Wind:
Aussen-T/F 601 28-09-2020 02:00:00 10.5 C 9.12 g/m*3 10.5 C 1.6 km/h
602 28-09-2020 02:05:00 10.5 C 9.12 g/m*3 10.5 C 0 km/h
603 28-09-2020 02:10:00 10.4 C 9.06 g/m*3 10.4 C 3.2 km/h
604 28-09-2020 02:15:00 10.4 C 9.06 g/m*3 10.4 C 0 km/h
605 28-09-2020 02:20:00 10.4 C 9.06 g/m*3 10.4 C 0 km/h
606 28-09-2020 02:25:00 10.4 C 9.06 g/m*3 10.4 C 3.2 km/h
607 28-09-2020 02:30:00 10.4 C 9.06 g/m*3 10.4 C 3.2 km/h
608 28-09-2020 02:35:00 10.4 C 9.06 g/m*3 10.4 C 3.2 km/h
609 28-09-2020 02:40:00 10.4 C 9.06 g/m*3 10.4 C 0 km/h
610 28-09-2020 02:45:00 10.3 C 9 g/m*3 10.3 C 0 km/h
611 28-09-2020 02:50:00 10.3 C 9 g/m*3 10.3 C 0 km/h
612 28-09-2020 02:55:00 10.3 C 9 g/m*3 10.3 C 1.6 km/h
613 28-09-2020 03:00:00 10.3 C 9 g/m*3 10.3 C 0 km/h
614 28-09-2020 03:05:00 10.2 C 8.95 g/m*3 10.2 C 0 km/h
615 28-09-2020 03:10:00 10.2 C 8.95 g/m*3 10.2 C 0 km/h
616 28-09-2020 03:15:00 10.2 C 8.95 g/m*3 10.2 C 0 km/h
617 28-09-2020 03:20:00 10.2 C 8.95 g/m*3 10.2 C 0 km/h
618 28-09-2020 03:25:00 10.2 C 8.95 g/m*3 10.2 C 0 km/h
619 28-09-2020 03:30:00 10.2 C 8.95 g/m*3 10.2 C 0 km/h
620 28-09-2020 03:35:00 10.2 C 8.95 g/m*3 10.2 C 0 km/h
621 28-09-2020 03:40:00 10.2 C 8.95 g/m*3 10.2 C 0 km/h
622 28-09-2020 03:45:00 10.2 C 8.95 g/m*3 10.2 C 0 km/h
623 28-09-2020 03:50:00 10.2 C 9.04 g/m*3 10.2 C 0 km/h
624 28-09-2020 03:55:00 10.2 C 9.04 g/m*3 10.2 C 0 km/h
625 28-09-2020 04:00:00 10.2 C 9.04 g/m*3 10.2 C 0 km/h
Sensor: Nr:Datum:Temp:Abs-Feuchte:Windchill:Wind:
Aussen-T/F 626 28-09-2020 04:05:00 10.2 C 9.04 g/m*3 10.2 C 0 km/h
627 28-09-2020 04:10:00 10.2 C 9.04 g/m*3 10.2 C 0 km/h
628 28-09-2020 04:15:00 10.2 C 8.95 g/m*3 10.2 C 0 km/h
629 28-09-2020 04:20:00 10.2 C 8.95 g/m*3 10.2 C 0 km/h
630 28-09-2020 04:25:00 10.1 C 8.89 g/m*3 10.1 C 0 km/h
631 28-09-2020 04:30:00 10.1 C 8.89 g/m*3 10.1 C 3.2 km/h
632 28-09-2020 04:35:00 10.1 C 8.89 g/m*3 10.1 C 1.6 km/h
633 28-09-2020 04:40:00 10.1 C 8.98 g/m*3 10.1 C 0 km/h
634 28-09-2020 04:45:00 10.1 C 8.98 g/m*3 10.1 C 0 km/h
635 28-09-2020 04:50:00 10.2 C 9.04 g/m*3 10.2 C 0 km/h
636 28-09-2020 04:55:00 10.2 C 9.04 g/m*3 10.2 C 0 km/h
637 28-09-2020 05:00:00 10.2 C 9.04 g/m*3 10.2 C 0 km/h
638 28-09-2020 05:05:00 10.2 C 9.04 g/m*3 10.2 C 0 km/h
639 28-09-2020 05:10:00 10.1 C 8.98 g/m*3 10.1 C 0 km/h
640 28-09-2020 05:15:00 10.1 C 8.98 g/m*3 10.1 C 0 km/h
641 28-09-2020 05:20:00 10.1 C 8.98 g/m*3 10.1 C 0 km/h
642 28-09-2020 05:25:00 10.1 C 8.89 g/m*3 10.1 C 3.2 km/h
643 28-09-2020 05:30:00 10.1 C 8.89 g/m*3 10.1 C 1.6 km/h
644 28-09-2020 05:35:00 10.1 C 8.89 g/m*3 10.1 C 0 km/h
645 28-09-2020 05:40:00 10.1 C 8.89 g/m*3 10.1 C 0 km/h
646 28-09-2020 05:45:00 10.1 C 8.89 g/m*3 10.1 C 0 km/h
647 28-09-2020 05:50:00 10.1 C 8.89 g/m*3 10.1 C 0 km/h
648 28-09-2020 05:55:00 10.1 C 8.89 g/m*3 10.1 C 0 km/h
649 28-09-2020 06:00:00 10.1 C 8.89 g/m*3 10.1 C 0 km/h
650 28-09-2020 06:05:00 10.1 C 8.89 g/m*3 10.1 C 0 km/h
Sensor: Nr:Datum:Temp:Abs-Feuchte:Windchill:Wind:
Aussen-T/F 651 28-09-2020 06:10:00 10.2 C 8.95 g/m*3 10.2 C 0 km/h
652 28-09-2020 06:15:00 10.1 C 8.89 g/m*3 10.1 C 0 km/h
653 28-09-2020 06:20:00 10.2 C 9.04 g/m*3 10.2 C 1.6 km/h
654 28-09-2020 06:25:00 10.2 C 9.04 g/m*3 10.2 C 0 km/h
655 28-09-2020 06:30:00 10.1 C 8.98 g/m*3 10.1 C 1.6 km/h
656 28-09-2020 06:35:00 10.1 C 8.98 g/m*3 10.1 C 1.6 km/h
657 28-09-2020 06:40:00 10.1 C 8.89 g/m*3 10.1 C 3.2 km/h
658 28-09-2020 06:45:00 10.1 C 8.89 g/m*3 10.1 C 0 km/h
659 28-09-2020 06:50:00 10.1 C 8.89 g/m*3 10.1 C 0 km/h
660 28-09-2020 06:55:00 10.1 C 8.89 g/m*3 10.1 C 0 km/h
661 28-09-2020 07:00:00 10.1 C 8.89 g/m*3 10.1 C 0 km/h
662 28-09-2020 07:05:00 10.1 C 8.89 g/m*3 10.1 C 1.6 km/h
663 28-09-2020 07:10:00 10.1 C 8.89 g/m*3 10.1 C 0 km/h
664 28-09-2020 07:15:00 10.1 C 8.89 g/m*3 10.1 C 0 km/h
665 28-09-2020 07:20:00 10 C 8.83 g/m*3 10 C 0 km/h
666 28-09-2020 07:25:00 10 C 8.83 g/m*3 10 C 0 km/h
667 28-09-2020 07:30:00 10 C 8.83 g/m*3 10 C 0 km/h
668 28-09-2020 07:35:00 10.1 C 8.89 g/m*3 10.1 C 0 km/h
669 28-09-2020 07:40:00 10.1 C 8.79 g/m*3 10.1 C 0 km/h
670 28-09-2020 07:45:00 10.1 C 8.79 g/m*3 10.1 C 0 km/h
671 28-09-2020 07:50:00 10.1 C 8.89 g/m*3 10.1 C 0 km/h
672 28-09-2020 07:55:00 10.1 C 8.89 g/m*3 10.1 C 1.6 km/h
673 28-09-2020 08:00:00 10.2 C 8.95 g/m*3 10.2 C 0 km/h
674 28-09-2020 08:05:00 10.2 C 8.95 g/m*3 10.2 C 0 km/h
675 28-09-2020 08:10:00 10.2 C 8.95 g/m*3 10.2 C 0 km/h
Sensor: Nr:Datum:Temp:Abs-Feuchte:Windchill:Wind:
Aussen-T/F 676 28-09-2020 08:15:00 10.2 C 8.95 g/m*3 10.2 C 0 km/h
677 28-09-2020 08:20:00 10.2 C 8.95 g/m*3 10.2 C 0 km/h
678 28-09-2020 08:25:00 10.3 C 9 g/m*3 10.3 C 0 km/h
679 28-09-2020 08:30:00 10.3 C 9 g/m*3 10.3 C 0 km/h
680 28-09-2020 08:35:00 10.3 C 9 g/m*3 10.3 C 0 km/h
681 28-09-2020 08:40:00 10.3 C 9 g/m*3 10.3 C 0 km/h
682 28-09-2020 08:45:00 10.4 C 9.06 g/m*3 10.4 C 0 km/h
683 28-09-2020 08:50:00 10.4 C 9.06 g/m*3 10.4 C 0 km/h
684 28-09-2020 08:55:00 10.5 C 9.12 g/m*3 10.5 C 0 km/h
685 28-09-2020 09:00:00 10.6 C 9.17 g/m*3 10.6 C 0 km/h
686 28-09-2020 09:05:00 10.6 C 9.17 g/m*3 10.6 C 0 km/h
687 28-09-2020 09:10:00 10.6 C 9.08 g/m*3 10.6 C 0 km/h
688 28-09-2020 09:15:00 10.6 C 9.08 g/m*3 10.6 C 0 km/h
689 28-09-2020 09:20:00 10.7 C 9.04 g/m*3 10.7 C 1.6 km/h
690 28-09-2020 09:25:00 10.7 C 9.04 g/m*3 10.7 C 1.6 km/h
691 28-09-2020 09:30:00 10.8 C 8.99 g/m*3 10.8 C 0 km/h
692 28-09-2020 09:35:00 10.8 C 9.09 g/m*3 10.8 C 0 km/h
693 28-09-2020 09:40:00 10.9 C 9.05 g/m*3 10.9 C 1.6 km/h
694 28-09-2020 09:45:00 10.9 C 8.95 g/m*3 10.9 C 0 km/h
695 28-09-2020 09:50:00 11.1 C 9.07 g/m*3 11.1 C 0 km/h
696 28-09-2020 09:55:00 11.2 C 9.12 g/m*3 11.2 C 0 km/h
697 28-09-2020 10:00:00 11.3 C 9.08 g/m*3 11.3 C 1.6 km/h
698 28-09-2020 10:05:00 11.4 C 9.14 g/m*3 11.4 C 0 km/h
699 28-09-2020 10:10:00 11.5 C 9.09 g/m*3 11.5 C 4.8 km/h
700 28-09-2020 10:15:00 11.7 C 9.1 g/m*3 11.7 C 1.6 km/h
Sensor: Nr:Datum:Temp:Abs-Feuchte:Windchill:Wind:
Aussen-T/F 701 28-09-2020 10:20:00 11.8 C 9.16 g/m*3 11.8 C 3.2 km/h
702 28-09-2020 10:25:00 11.9 C 9 g/m*3 11.9 C 4.8 km/h
703 28-09-2020 10:30:00 12 C 9.06 g/m*3 12 C 1.6 km/h
704 28-09-2020 10:35:00 12.1 C 9.01 g/m*3 12.1 C 3.2 km/h
705 28-09-2020 10:40:00 12.1 C 9.01 g/m*3 12.1 C 1.6 km/h
706 28-09-2020 10:45:00 12.2 C 9.06 g/m*3 12.2 C 4.8 km/h
707 28-09-2020 10:50:00 12.3 C 9.12 g/m*3 12.3 C 3.2 km/h
708 28-09-2020 10:55:00 12.4 C 9.07 g/m*3 12.4 C 1.6 km/h
709 28-09-2020 11:00:00 12.5 C 9.02 g/m*3 12.5 C 8.1 km/h
710 28-09-2020 11:05:00 12.6 C 9.07 g/m*3 12.6 C 3.2 km/h
711 28-09-2020 11:10:00 12.7 C 9.13 g/m*3 12.7 C 3.2 km/h
712 28-09-2020 11:15:00 12.8 C 9.07 g/m*3 12.8 C 1.6 km/h
713 28-09-2020 11:20:00 12.9 C 9.13 g/m*3 12.9 C 3.2 km/h
714 28-09-2020 11:25:00 13 C 9.07 g/m*3 13 C 6.4 km/h
715 28-09-2020 11:30:00 13.1 C 9.13 g/m*3 13.1 C 8.1 km/h
716 28-09-2020 11:35:00 13.1 C 9.13 g/m*3 13.1 C 6.4 km/h
717 28-09-2020 11:40:00 13.2 C 9.19 g/m*3 13.2 C 6.4 km/h
718 28-09-2020 11:45:00 13.2 C 9.19 g/m*3 13.2 C 3.2 km/h
719 28-09-2020 11:50:00 13.3 C 9.24 g/m*3 13.3 C 3.2 km/h
720 28-09-2020 11:55:00 13.4 C 9.3 g/m*3 13.4 C 6.4 km/h
721 28-09-2020 12:00:00 13.5 C 9.24 g/m*3 13.5 C 4.8 km/h
722 28-09-2020 12:05:00 13.6 C 9.06 g/m*3 13.6 C 3.2 km/h
723 28-09-2020 12:10:00 13.6 C 9.06 g/m*3 13.6 C 3.2 km/h
724 28-09-2020 12:15:00 13.6 C 9.18 g/m*3 13.6 C 3.2 km/h
725 28-09-2020 12:20:00 13.6 C 9.18 g/m*3 13.6 C 3.2 km/h
Sensor: Nr:Datum:Temp:Abs-Feuchte:Windchill:Wind:
Aussen-T/F 726 28-09-2020 12:25:00 13.6 C 9.06 g/m*3 13.6 C 1.6 km/h
727 28-09-2020 12:30:00 13.7 C 9.24 g/m*3 13.7 C 0 km/h
728 28-09-2020 12:35:00 13.7 C 9.24 g/m*3 13.7 C 3.2 km/h
729 28-09-2020 12:40:00 13.8 C 9.06 g/m*3 13.8 C 8.1 km/h
730 28-09-2020 12:45:00 13.9 C 8.87 g/m*3 13.9 C 6.4 km/h
731 28-09-2020 12:50:00 14 C 8.93 g/m*3 14 C 6.4 km/h
732 28-09-2020 12:55:00 14.1 C 9.22 g/m*3 14.1 C 9.7 km/h
733 28-09-2020 13:00:00 14.1 C 9.1 g/m*3 14.1 C 9.7 km/h
734 28-09-2020 13:05:00 14 C 9.17 g/m*3 14 C 8.1 km/h
735 28-09-2020 13:10:00 13.9 C 8.99 g/m*3 13.9 C 11.3 km/h
736 28-09-2020 13:15:00 13.9 C 9.11 g/m*3 13.9 C 8.1 km/h
737 28-09-2020 13:20:00 13.9 C 9.11 g/m*3 13.9 C 8.1 km/h
738 28-09-2020 13:25:00 13.8 C 9.29 g/m*3 13.8 C 6.4 km/h
739 28-09-2020 13:30:00 13.8 C 9.53 g/m*3 13.8 C 6.4 km/h
740 28-09-2020 13:35:00 13.7 C 9.59 g/m*3 13.7 C 3.2 km/h
741 28-09-2020 13:40:00 13.7 C 9.59 g/m*3 13.7 C 4.8 km/h
742 28-09-2020 13:45:00 13.6 C 9.53 g/m*3 13.6 C 1.6 km/h
743 28-09-2020 13:50:00 13.7 C 9.71 g/m*3 13.7 C 0 km/h
744 28-09-2020 13:55:00 13.7 C 9.59 g/m*3 13.7 C 1.6 km/h
745 28-09-2020 14:00:00 13.7 C 9.59 g/m*3 13.7 C 0 km/h
746 28-09-2020 14:05:00 13.7 C 9.35 g/m*3 13.7 C 3.2 km/h
747 28-09-2020 14:10:00 13.8 C 9.41 g/m*3 13.8 C 3.2 km/h
748 28-09-2020 14:15:00 13.8 C 9.29 g/m*3 13.8 C 1.6 km/h
749 28-09-2020 14:20:00 13.8 C 9.29 g/m*3 13.8 C 3.2 km/h
750 28-09-2020 14:25:00 13.9 C 9.47 g/m*3 13.9 C 1.6 km/h
Sensor: Nr:Datum:Temp:Abs-Feuchte:Windchill:Wind:
Aussen-T/F 751 28-09-2020 14:30:00 14.1 C 9.59 g/m*3 14.1 C 4.8 km/h
752 28-09-2020 14:35:00 14.2 C 9.52 g/m*3 14.2 C 3.2 km/h
753 28-09-2020 14:40:00 14.3 C 9.46 g/m*3 14.3 C 8.1 km/h
754 28-09-2020 14:45:00 14.3 C 9.21 g/m*3 14.3 C 8.1 km/h
755 28-09-2020 14:50:00 14.3 C 9.34 g/m*3 14.3 C 8.1 km/h
756 28-09-2020 14:55:00 14.3 C 9.46 g/m*3 14.3 C 3.2 km/h
757 28-09-2020 15:00:00 14.3 C 9.34 g/m*3 14.3 C 4.8 km/h
758 28-09-2020 15:05:00 14.3 C 9.46 g/m*3 14.3 C 1.6 km/h
759 28-09-2020 15:10:00 14.2 C 9.4 g/m*3 14.2 C 0 km/h
760 28-09-2020 15:15:00 14.2 C 9.16 g/m*3 14.2 C 3.2 km/h
761 28-09-2020 15:20:00 14.2 C 9.16 g/m*3 14.2 C 3.2 km/h
762 28-09-2020 15:25:00 14.2 C 9.16 g/m*3 14.2 C 0 km/h
763 28-09-2020 15:30:00 14.3 C 9.21 g/m*3 14.3 C 4.8 km/h
764 28-09-2020 15:35:00 14.3 C 9.21 g/m*3 14.3 C 4.8 km/h
765 28-09-2020 15:40:00 14.3 C 8.97 g/m*3 14.3 C 9.7 km/h
766 28-09-2020 15:45:00 14.2 C 8.79 g/m*3 14.2 C 12.9 km/h
767 28-09-2020 15:50:00 14.2 C 8.79 g/m*3 14.2 C 6.4 km/h
768 28-09-2020 15:55:00 14.2 C 8.91 g/m*3 14.2 C 8.1 km/h
769 28-09-2020 16:00:00 14.2 C 8.91 g/m*3 14.2 C 6.4 km/h
770 28-09-2020 16:05:00 14.2 C 8.91 g/m*3 14.2 C 3.2 km/h
771 28-09-2020 16:10:00 14.2 C 9.16 g/m*3 14.2 C 4.8 km/h
772 28-09-2020 16:15:00 14.2 C 9.16 g/m*3 14.2 C 4.8 km/h
773 28-09-2020 16:20:00 14.1 C 9.1 g/m*3 14.1 C 9.7 km/h
774 28-09-2020 16:25:00 14.1 C 9.22 g/m*3 14.1 C 6.4 km/h
775 28-09-2020 16:30:00 14 C 9.17 g/m*3 14 C 9.7 km/h
Sensor: Nr:Datum:Temp:Abs-Feuchte:Windchill:Wind:
Aussen-T/F 776 28-09-2020 16:35:00 13.9 C 9.11 g/m*3 13.9 C 6.4 km/h
777 28-09-2020 16:40:00 13.9 C 9.23 g/m*3 13.9 C 9.7 km/h
778 28-09-2020 16:45:00 13.8 C 9.17 g/m*3 13.8 C 8.1 km/h
779 28-09-2020 16:50:00 13.7 C 9.24 g/m*3 13.7 C 6.4 km/h
780 28-09-2020 16:55:00 13.7 C 9.24 g/m*3 13.7 C 4.8 km/h
781 28-09-2020 17:00:00 13.7 C 9.12 g/m*3 13.7 C 6.4 km/h
782 28-09-2020 17:05:00 13.7 C 9.24 g/m*3 13.7 C 4.8 km/h
783 28-09-2020 17:10:00 13.7 C 9.12 g/m*3 13.7 C 4.8 km/h
784 28-09-2020 17:15:00 13.6 C 9.06 g/m*3 13.6 C 8.1 km/h
785 28-09-2020 17:20:00 13.6 C 9.18 g/m*3 13.6 C 4.8 km/h
786 28-09-2020 17:25:00 13.6 C 9.06 g/m*3 13.6 C 9.7 km/h
787 28-09-2020 17:30:00 13.6 C 9.06 g/m*3 13.6 C 6.4 km/h
788 28-09-2020 17:35:00 13.5 C 9.12 g/m*3 13.5 C 6.4 km/h
789 28-09-2020 17:40:00 13.5 C 9.12 g/m*3 13.5 C 4.8 km/h
790 28-09-2020 17:45:00 13.4 C 9.07 g/m*3 13.4 C 3.2 km/h
791 28-09-2020 17:50:00 13.4 C 9.07 g/m*3 13.4 C 8.1 km/h
792 28-09-2020 17:55:00 13.4 C 9.07 g/m*3 13.4 C 4.8 km/h
793 28-09-2020 18:00:00 13.4 C 9.18 g/m*3 13.4 C 6.4 km/h
794 28-09-2020 18:05:00 13.3 C 9.01 g/m*3 13.3 C 6.4 km/h
795 28-09-2020 18:10:00 13.3 C 9.13 g/m*3 13.3 C 1.6 km/h
796 28-09-2020 18:15:00 13.3 C 9.13 g/m*3 13.3 C 3.2 km/h
797 28-09-2020 18:20:00 13.3 C 9.24 g/m*3 13.3 C 1.6 km/h
798 28-09-2020 18:25:00 13.3 C 9.13 g/m*3 13.3 C 1.6 km/h
799 28-09-2020 18:30:00 13.3 C 9.36 g/m*3 13.3 C 0 km/h
800 28-09-2020 18:35:00 13.3 C 9.36 g/m*3 13.3 C 0 km/h
Sensor: Nr:Datum:Temp:Abs-Feuchte:Windchill:Wind:
Aussen-T/F 801 28-09-2020 18:40:00 13.2 C 9.3 g/m*3 13.2 C 0 km/h
802 28-09-2020 18:45:00 13.2 C 9.3 g/m*3 13.2 C 0 km/h
803 28-09-2020 18:50:00 13.1 C 9.36 g/m*3 13.1 C 1.6 km/h
804 28-09-2020 18:55:00 13 C 9.41 g/m*3 13 C 1.6 km/h
805 28-09-2020 19:00:00 12.9 C 9.47 g/m*3 12.9 C 0 km/h
806 28-09-2020 19:05:00 12.8 C 9.41 g/m*3 12.8 C 0 km/h
807 28-09-2020 19:10:00 12.7 C 9.35 g/m*3 12.7 C 0 km/h
808 28-09-2020 19:15:00 12.7 C 9.46 g/m*3 12.7 C 3.2 km/h
809 28-09-2020 19:20:00 12.6 C 9.29 g/m*3 12.6 C 1.6 km/h
810 28-09-2020 19:25:00 12.4 C 9.29 g/m*3 12.4 C 1.6 km/h
811 28-09-2020 19:30:00 12.4 C 9.4 g/m*3 12.4 C 0 km/h
812 28-09-2020 19:35:00 12.3 C 9.34 g/m*3 12.3 C 0 km/h
813 28-09-2020 19:40:00 12.2 C 9.17 g/m*3 12.2 C 3.2 km/h
814 28-09-2020 19:45:00 12.2 C 9.17 g/m*3 12.2 C 4.8 km/h
815 28-09-2020 19:50:00 12.2 C 9.17 g/m*3 12.2 C 0 km/h
816 28-09-2020 19:55:00 12.1 C 9.12 g/m*3 12.1 C 4.8 km/h
817 28-09-2020 20:00:00 12.1 C 9.22 g/m*3 12.1 C 1.6 km/h
818 28-09-2020 20:05:00 12.1 C 9.22 g/m*3 12.1 C 0 km/h
819 28-09-2020 20:10:00 12.1 C 9.22 g/m*3 12.1 C 0 km/h
820 28-09-2020 20:15:00 12 C 9.17 g/m*3 12 C 1.6 km/h
821 28-09-2020 20:20:00 11.9 C 9.11 g/m*3 11.9 C 0 km/h
822 28-09-2020 20:25:00 11.9 C 9.11 g/m*3 11.9 C 1.6 km/h
823 28-09-2020 20:30:00 11.8 C 9.05 g/m*3 11.8 C 1.6 km/h
824 28-09-2020 20:35:00 11.8 C 9.05 g/m*3 11.8 C 0 km/h
825 28-09-2020 20:40:00 11.8 C 9.05 g/m*3 11.8 C 0 km/h
Sensor: Nr:Datum:Temp:Abs-Feuchte:Windchill:Wind:
Aussen-T/F 826 28-09-2020 20:45:00 11.7 C 8.99 g/m*3 11.7 C 1.6 km/h
827 28-09-2020 20:50:00 11.6 C 8.94 g/m*3 11.6 C 0 km/h
828 28-09-2020 20:55:00 11.5 C 8.88 g/m*3 11.5 C 1.6 km/h
829 28-09-2020 21:00:00 11.3 C 8.77 g/m*3 11.3 C 0 km/h
830 28-09-2020 21:05:00 11.2 C 8.72 g/m*3 11.2 C 0 km/h
831 28-09-2020 21:10:00 11.1 C 8.76 g/m*3 11.1 C 1.6 km/h
832 28-09-2020 21:15:00 11 C 8.71 g/m*3 11 C 0 km/h
833 28-09-2020 21:20:00 10.8 C 8.6 g/m*3 10.8 C 1.6 km/h
834 28-09-2020 21:25:00 10.8 C 8.7 g/m*3 10.8 C 0 km/h
835 28-09-2020 21:30:00 10.7 C 8.64 g/m*3 10.7 C 1.6 km/h
836 28-09-2020 21:35:00 10.7 C 8.74 g/m*3 10.7 C 0 km/h
837 28-09-2020 21:40:00 10.7 C 8.74 g/m*3 10.7 C 0 km/h
838 28-09-2020 21:45:00 10.7 C 8.84 g/m*3 10.7 C 1.6 km/h
839 28-09-2020 21:50:00 10.7 C 8.84 g/m*3 10.7 C 0 km/h
840 28-09-2020 21:55:00 10.7 C 8.84 g/m*3 10.7 C 0 km/h
841 28-09-2020 22:00:00 10.7 C 8.84 g/m*3 10.7 C 0 km/h
842 28-09-2020 22:05:00 10.7 C 8.94 g/m*3 10.7 C 0 km/h
843 28-09-2020 22:10:00 10.8 C 8.99 g/m*3 10.8 C 0 km/h
844 28-09-2020 22:15:00 10.8 C 8.99 g/m*3 10.8 C 0 km/h
845 28-09-2020 22:20:00 10.8 C 8.99 g/m*3 10.8 C 0 km/h
846 28-09-2020 22:25:00 10.8 C 8.99 g/m*3 10.8 C 0 km/h
847 28-09-2020 22:30:00 10.8 C 8.99 g/m*3 10.8 C 0 km/h
848 28-09-2020 22:35:00 10.8 C 8.99 g/m*3 10.8 C 0 km/h
849 28-09-2020 22:40:00 10.8 C 8.99 g/m*3 10.8 C 0 km/h
850 28-09-2020 22:45:00 10.9 C 9.05 g/m*3 10.9 C 0 km/h
Sensor: Nr:Datum:Temp:Abs-Feuchte:Windchill:Wind:
Aussen-T/F 851 28-09-2020 22:50:00 10.9 C 9.05 g/m*3 10.9 C 0 km/h
852 28-09-2020 22:55:00 10.9 C 9.05 g/m*3 10.9 C 0 km/h
853 28-09-2020 23:00:00 10.9 C 9.05 g/m*3 10.9 C 0 km/h
854 28-09-2020 23:05:00 10.9 C 9.05 g/m*3 10.9 C 0 km/h
855 28-09-2020 23:10:00 10.9 C 9.05 g/m*3 10.9 C 1.6 km/h
856 28-09-2020 23:15:00 10.9 C 9.05 g/m*3 10.9 C 0 km/h
857 28-09-2020 23:20:00 10.9 C 9.15 g/m*3 10.9 C 0 km/h
858 28-09-2020 23:25:00 10.9 C 9.15 g/m*3 10.9 C 0 km/h
859 28-09-2020 23:30:00 11 C 9.21 g/m*3 11 C 0 km/h
860 28-09-2020 23:35:00 11 C 9.21 g/m*3 11 C 0 km/h
861 28-09-2020 23:40:00 11 C 9.21 g/m*3 11 C 0 km/h
862 28-09-2020 23:45:00 11 C 9.21 g/m*3 11 C 0 km/h
863 28-09-2020 23:50:00 11 C 9.21 g/m*3 11 C 0 km/h
864 28-09-2020 23:55:00 11 C 9.21 g/m*3 11 C 0 km/h
865 29-09-2020 00:00:00 11 C 9.21 g/m*3 11 C 0 km/h
866 29-09-2020 00:05:00 11 C 9.21 g/m*3 11 C 0 km/h
867 29-09-2020 00:10:00 11 C 9.21 g/m*3 11 C 0 km/h
868 29-09-2020 00:15:00 11 C 9.21 g/m*3 11 C 0 km/h
869 29-09-2020 00:20:00 11 C 9.21 g/m*3 11 C 0 km/h
870 29-09-2020 00:25:00 11 C 9.21 g/m*3 11 C 0 km/h
871 29-09-2020 00:30:00 11 C 9.21 g/m*3 11 C 0 km/h
872 29-09-2020 00:35:00 11 C 9.21 g/m*3 11 C 0 km/h
873 29-09-2020 00:40:00 11 C 9.21 g/m*3 11 C 1.6 km/h
874 29-09-2020 00:45:00 10.9 C 9.15 g/m*3 10.9 C 0 km/h
875 29-09-2020 00:50:00 10.9 C 9.15 g/m*3 10.9 C 1.6 km/h
Sensor: Nr:Datum:Temp:Abs-Feuchte:Windchill:Wind:
Aussen-T/F 876 29-09-2020 00:55:00 10.9 C 9.15 g/m*3 10.9 C 0 km/h
877 29-09-2020 01:00:00 11 C 9.21 g/m*3 11 C 0 km/h
878 29-09-2020 01:05:00 11 C 9.21 g/m*3 11 C 0 km/h
879 29-09-2020 01:10:00 11 C 9.21 g/m*3 11 C 1.6 km/h
880 29-09-2020 01:15:00 11 C 9.21 g/m*3 11 C 0 km/h
881 29-09-2020 01:20:00 11 C 9.21 g/m*3 11 C 0 km/h
882 29-09-2020 01:25:00 11 C 9.21 g/m*3 11 C 1.6 km/h
883 29-09-2020 01:30:00 11 C 9.21 g/m*3 11 C 0 km/h
884 29-09-2020 01:35:00 11 C 9.21 g/m*3 11 C 0 km/h
885 29-09-2020 01:40:00 11 C 9.21 g/m*3 11 C 0 km/h
886 29-09-2020 01:45:00 11.1 C 9.27 g/m*3 11.1 C 0 km/h
887 29-09-2020 01:50:00 11.1 C 9.27 g/m*3 11.1 C 0 km/h
888 29-09-2020 01:55:00 11.1 C 9.27 g/m*3 11.1 C 1.6 km/h
889 29-09-2020 02:00:00 11 C 9.21 g/m*3 11 C 0 km/h
890 29-09-2020 02:05:00 11.1 C 9.27 g/m*3 11.1 C 0 km/h
891 29-09-2020 02:10:00 11.1 C 9.27 g/m*3 11.1 C 0 km/h
892 29-09-2020 02:15:00 11.1 C 9.27 g/m*3 11.1 C 0 km/h
893 29-09-2020 02:20:00 11.1 C 9.27 g/m*3 11.1 C 0 km/h
894 29-09-2020 02:25:00 11.1 C 9.27 g/m*3 11.1 C 0 km/h
895 29-09-2020 02:30:00 11.1 C 9.27 g/m*3 11.1 C 0 km/h
896 29-09-2020 02:35:00 11.1 C 9.27 g/m*3 11.1 C 0 km/h
897 29-09-2020 02:40:00 11.1 C 9.27 g/m*3 11.1 C 0 km/h
898 29-09-2020 02:45:00 11.1 C 9.27 g/m*3 11.1 C 0 km/h
899 29-09-2020 02:50:00 11.1 C 9.27 g/m*3 11.1 C 0 km/h
900 29-09-2020 02:55:00 11.1 C 9.27 g/m*3 11.1 C 0 km/h
Sensor: Nr:Datum:Temp:Abs-Feuchte:Windchill:Wind:
Aussen-T/F 901 29-09-2020 03:00:00 11.1 C 9.27 g/m*3 11.1 C 0 km/h
902 29-09-2020 03:05:00 11.1 C 9.27 g/m*3 11.1 C 0 km/h
903 29-09-2020 03:10:00 11.1 C 9.27 g/m*3 11.1 C 0 km/h
904 29-09-2020 03:15:00 11.1 C 9.27 g/m*3 11.1 C 0 km/h
905 29-09-2020 03:20:00 11.1 C 9.27 g/m*3 11.1 C 0 km/h
906 29-09-2020 03:25:00 11.2 C 9.33 g/m*3 11.2 C 0 km/h
907 29-09-2020 03:30:00 11.2 C 9.33 g/m*3 11.2 C 0 km/h
908 29-09-2020 03:35:00 11.2 C 9.33 g/m*3 11.2 C 0 km/h
909 29-09-2020 03:40:00 11.2 C 9.33 g/m*3 11.2 C 0 km/h
910 29-09-2020 03:45:00 11.1 C 9.27 g/m*3 11.1 C 0 km/h
911 29-09-2020 03:50:00 11.1 C 9.27 g/m*3 11.1 C 0 km/h
912 29-09-2020 03:55:00 11.1 C 9.27 g/m*3 11.1 C 0 km/h
913 29-09-2020 04:00:00 11.1 C 9.27 g/m*3 11.1 C 0 km/h
914 29-09-2020 04:05:00 11.1 C 9.27 g/m*3 11.1 C 0 km/h
915 29-09-2020 04:10:00 11.1 C 9.27 g/m*3 11.1 C 0 km/h
916 29-09-2020 04:15:00 11.2 C 9.33 g/m*3 11.2 C 0 km/h
917 29-09-2020 04:20:00 11.2 C 9.33 g/m*3 11.2 C 0 km/h
918 29-09-2020 04:25:00 11.2 C 9.33 g/m*3 11.2 C 0 km/h
919 29-09-2020 04:30:00 11.2 C 9.33 g/m*3 11.2 C 0 km/h
920 29-09-2020 04:35:00 11.2 C 9.33 g/m*3 11.2 C 0 km/h
921 29-09-2020 04:40:00 11.2 C 9.43 g/m*3 11.2 C 0 km/h
922 29-09-2020 04:45:00 11.3 C 9.49 g/m*3 11.3 C 0 km/h
923 29-09-2020 04:50:00 11.3 C 9.49 g/m*3 11.3 C 0 km/h
924 29-09-2020 04:55:00 11.3 C 9.49 g/m*3 11.3 C 0 km/h
925 29-09-2020 05:00:00 11.3 C 9.49 g/m*3 11.3 C 0 km/h
Sensor: Nr:Datum:Temp:Abs-Feuchte:Windchill:Wind:
Aussen-T/F 926 29-09-2020 05:05:00 11.3 C 9.49 g/m*3 11.3 C 0 km/h
927 29-09-2020 05:10:00 11.3 C 9.49 g/m*3 11.3 C 0 km/h
928 29-09-2020 05:15:00 11.3 C 9.49 g/m*3 11.3 C 0 km/h
929 29-09-2020 05:20:00 11.3 C 9.49 g/m*3 11.3 C 0 km/h
930 29-09-2020 05:25:00 11.3 C 9.49 g/m*3 11.3 C 0 km/h
931 29-09-2020 05:30:00 11.3 C 9.49 g/m*3 11.3 C 0 km/h
932 29-09-2020 05:35:00 11.3 C 9.49 g/m*3 11.3 C 0 km/h
933 29-09-2020 05:40:00 11.3 C 9.49 g/m*3 11.3 C 0 km/h
934 29-09-2020 05:45:00 11.3 C 9.49 g/m*3 11.3 C 0 km/h
935 29-09-2020 05:50:00 11.3 C 9.49 g/m*3 11.3 C 0 km/h
936 29-09-2020 05:55:00 11.3 C 9.49 g/m*3 11.3 C 0 km/h
937 29-09-2020 06:00:00 11.3 C 9.49 g/m*3 11.3 C 0 km/h
938 29-09-2020 06:05:00 11.4 C 9.55 g/m*3 11.4 C 0 km/h
939 29-09-2020 06:10:00 11.4 C 9.55 g/m*3 11.4 C 0 km/h
940 29-09-2020 06:15:00 11.4 C 9.55 g/m*3 11.4 C 0 km/h
941 29-09-2020 06:20:00 11.4 C 9.55 g/m*3 11.4 C 0 km/h
942 29-09-2020 06:25:00 11.4 C 9.55 g/m*3 11.4 C 0 km/h
943 29-09-2020 06:30:00 11.4 C 9.55 g/m*3 11.4 C 0 km/h
944 29-09-2020 06:35:00 11.4 C 9.55 g/m*3 11.4 C 0 km/h
945 29-09-2020 06:40:00 11.4 C 9.55 g/m*3 11.4 C 0 km/h
946 29-09-2020 06:45:00 11.4 C 9.55 g/m*3 11.4 C 0 km/h
947 29-09-2020 06:50:00 11.4 C 9.55 g/m*3 11.4 C 0 km/h
948 29-09-2020 06:55:00 11.5 C 9.61 g/m*3 11.5 C 0 km/h
949 29-09-2020 07:00:00 11.5 C 9.61 g/m*3 11.5 C 0 km/h
950 29-09-2020 07:05:00 11.5 C 9.61 g/m*3 11.5 C 0 km/h
Sensor: Nr:Datum:Temp:Abs-Feuchte:Windchill:Wind:
Aussen-T/F 951 29-09-2020 07:10:00 11.5 C 9.61 g/m*3 11.5 C 0 km/h
952 29-09-2020 07:15:00 11.6 C 9.77 g/m*3 11.6 C 0 km/h
953 29-09-2020 07:20:00 11.6 C 9.77 g/m*3 11.6 C 0 km/h
954 29-09-2020 07:25:00 11.6 C 9.77 g/m*3 11.6 C 0 km/h
955 29-09-2020 07:30:00 11.6 C 9.77 g/m*3 11.6 C 0 km/h
956 29-09-2020 07:35:00 11.6 C 9.77 g/m*3 11.6 C 0 km/h
957 29-09-2020 07:40:00 11.6 C 9.77 g/m*3 11.6 C 0 km/h
958 29-09-2020 07:45:00 11.6 C 9.77 g/m*3 11.6 C 0 km/h
959 29-09-2020 07:50:00 11.7 C 9.83 g/m*3 11.7 C 0 km/h
960 29-09-2020 07:55:00 11.7 C 9.83 g/m*3 11.7 C 0 km/h
961 29-09-2020 08:00:00 11.7 C 9.83 g/m*3 11.7 C 0 km/h
962 29-09-2020 08:05:00 11.7 C 9.83 g/m*3 11.7 C 0 km/h
963 29-09-2020 08:10:00 11.7 C 9.83 g/m*3 11.7 C 0 km/h
964 29-09-2020 08:15:00 11.7 C 9.83 g/m*3 11.7 C 0 km/h
965 29-09-2020 08:20:00 11.7 C 9.83 g/m*3 11.7 C 0 km/h
966 29-09-2020 08:25:00 11.8 C 9.89 g/m*3 11.8 C 0 km/h
967 29-09-2020 08:30:00 11.8 C 10 g/m*3 11.8 C 0 km/h
968 29-09-2020 08:35:00 11.9 C 10.06 g/m*3 11.9 C 0 km/h
969 29-09-2020 08:40:00 11.9 C 10.06 g/m*3 11.9 C 0 km/h
970 29-09-2020 08:45:00 11.9 C 10.06 g/m*3 11.9 C 0 km/h
971 29-09-2020 08:50:00 12 C 10.12 g/m*3 12 C 0 km/h
972 29-09-2020 08:55:00 12 C 10.12 g/m*3 12 C 0 km/h
973 29-09-2020 09:00:00 12 C 10.12 g/m*3 12 C 0 km/h
974 29-09-2020 09:05:00 12.1 C 10.19 g/m*3 12.1 C 0 km/h
975 29-09-2020 09:10:00 12.1 C 10.19 g/m*3 12.1 C 0 km/h
Sensor: Nr:Datum:Temp:Abs-Feuchte:Windchill:Wind:
Aussen-T/F 976 29-09-2020 09:15:00 12.1 C 10.19 g/m*3 12.1 C 1.6 km/h
977 29-09-2020 09:20:00 12.1 C 10.19 g/m*3 12.1 C 0 km/h
978 29-09-2020 09:25:00 12.2 C 10.25 g/m*3 12.2 C 3.2 km/h
979 29-09-2020 09:30:00 12.2 C 10.25 g/m*3 12.2 C 3.2 km/h
980 29-09-2020 09:35:00 12.2 C 10.25 g/m*3 12.2 C 1.6 km/h
981 29-09-2020 09:40:00 12.3 C 10.32 g/m*3 12.3 C 4.8 km/h
982 29-09-2020 09:45:00 12.3 C 10.42 g/m*3 12.3 C 0 km/h
983 29-09-2020 09:50:00 12.4 C 10.49 g/m*3 12.4 C 3.2 km/h
984 29-09-2020 09:55:00 12.4 C 10.49 g/m*3 12.4 C 1.6 km/h
985 29-09-2020 10:00:00 12.4 C 10.49 g/m*3 12.4 C 1.6 km/h
986 29-09-2020 10:05:00 12.5 C 10.55 g/m*3 12.5 C 1.6 km/h
987 29-09-2020 10:10:00 12.6 C 10.62 g/m*3 12.6 C 3.2 km/h
988 29-09-2020 10:15:00 12.6 C 10.62 g/m*3 12.6 C 1.6 km/h
989 29-09-2020 10:20:00 12.6 C 10.62 g/m*3 12.6 C 4.8 km/h
990 29-09-2020 10:25:00 12.7 C 10.69 g/m*3 12.7 C 4.8 km/h
991 29-09-2020 10:30:00 12.7 C 10.69 g/m*3 12.7 C 3.2 km/h
992 29-09-2020 10:35:00 12.7 C 10.58 g/m*3 12.7 C 4.8 km/h
993 29-09-2020 10:40:00 12.7 C 10.58 g/m*3 12.7 C 6.4 km/h
994 29-09-2020 10:45:00 12.7 C 10.58 g/m*3 12.7 C 3.2 km/h
995 29-09-2020 10:50:00 12.8 C 10.64 g/m*3 12.8 C 3.2 km/h
996 29-09-2020 10:55:00 12.8 C 10.64 g/m*3 12.8 C 3.2 km/h
997 29-09-2020 11:00:00 12.9 C 10.71 g/m*3 12.9 C 1.6 km/h
998 29-09-2020 11:05:00 12.9 C 10.71 g/m*3 12.9 C 0 km/h
999 29-09-2020 11:10:00 13 C 10.77 g/m*3 13 C 1.6 km/h
1000 29-09-2020 11:15:00 13.1 C 10.84 g/m*3 13.1 C 3.2 km/h
Sensor: Nr:Datum:Temp:Abs-Feuchte:Windchill:Wind:
Aussen-T/F 1001 29-09-2020 11:20:00 13.1 C 10.84 g/m*3 13.1 C 1.6 km/h
1002 29-09-2020 11:25:00 13.1 C 10.84 g/m*3 13.1 C 3.2 km/h
1003 29-09-2020 11:30:00 13.2 C 10.91 g/m*3 13.2 C 6.4 km/h
1004 29-09-2020 11:35:00 13.3 C 10.98 g/m*3 13.3 C 1.6 km/h
1005 29-09-2020 11:40:00 13.3 C 11.09 g/m*3 13.3 C 4.8 km/h
1006 29-09-2020 11:45:00 13.4 C 11.16 g/m*3 13.4 C 6.4 km/h
1007 29-09-2020 11:50:00 13.4 C 11.04 g/m*3 13.4 C 3.2 km/h
1008 29-09-2020 11:55:00 13.5 C 11.11 g/m*3 13.5 C 4.8 km/h
1009 29-09-2020 12:00:00 13.5 C 11.11 g/m*3 13.5 C 4.8 km/h
1010 29-09-2020 12:05:00 13.6 C 11.18 g/m*3 13.6 C 3.2 km/h
1011 29-09-2020 12:10:00 13.6 C 11.18 g/m*3 13.6 C 4.8 km/h
1012 29-09-2020 12:15:00 13.6 C 11.18 g/m*3 13.6 C 6.4 km/h
1013 29-09-2020 12:20:00 13.7 C 11.25 g/m*3 13.7 C 4.8 km/h
1014 29-09-2020 12:25:00 13.7 C 11.25 g/m*3 13.7 C 6.4 km/h
1015 29-09-2020 12:30:00 13.7 C 11.25 g/m*3 13.7 C 6.4 km/h
1016 29-09-2020 12:35:00 13.8 C 11.32 g/m*3 13.8 C 3.2 km/h
1017 29-09-2020 12:40:00 13.8 C 11.2 g/m*3 13.8 C 6.4 km/h
1018 29-09-2020 12:45:00 13.9 C 11.27 g/m*3 13.9 C 4.8 km/h
1019 29-09-2020 12:50:00 13.9 C 11.27 g/m*3 13.9 C 4.8 km/h
1020 29-09-2020 12:55:00 13.9 C 11.27 g/m*3 13.9 C 4.8 km/h
1021 29-09-2020 13:00:00 13.9 C 11.15 g/m*3 13.9 C 8.1 km/h
1022 29-09-2020 13:05:00 14 C 11.22 g/m*3 14 C 4.8 km/h
1023 29-09-2020 13:10:00 13.9 C 11.15 g/m*3 13.9 C 6.4 km/h
1024 29-09-2020 13:15:00 14 C 11.34 g/m*3 14 C 4.8 km/h
1025 29-09-2020 13:20:00 14.1 C 11.41 g/m*3 14.1 C 4.8 km/h
Sensor: Nr:Datum:Temp:Abs-Feuchte:Windchill:Wind:
Aussen-T/F 1026 29-09-2020 13:25:00 14.1 C 11.41 g/m*3 14.1 C 4.8 km/h
1027 29-09-2020 13:30:00 14.2 C 11.48 g/m*3 14.2 C 6.4 km/h
1028 29-09-2020 13:35:00 14.2 C 11.48 g/m*3 14.2 C 6.4 km/h
1029 29-09-2020 13:40:00 14.2 C 11.48 g/m*3 14.2 C 9.7 km/h
1030 29-09-2020 13:45:00 14.2 C 11.48 g/m*3 14.2 C 6.4 km/h
1031 29-09-2020 13:50:00 14.2 C 11.48 g/m*3 14.2 C 6.4 km/h
1032 29-09-2020 13:55:00 14.2 C 11.48 g/m*3 14.2 C 3.2 km/h
1033 29-09-2020 14:00:00 14.2 C 11.48 g/m*3 14.2 C 6.4 km/h
1034 29-09-2020 14:05:00 14.2 C 11.48 g/m*3 14.2 C 4.8 km/h
1035 29-09-2020 14:10:00 14.2 C 11.6 g/m*3 14.2 C 4.8 km/h
1036 29-09-2020 14:15:00 14.3 C 11.67 g/m*3 14.3 C 8.1 km/h
1037 29-09-2020 14:20:00 14.2 C 11.48 g/m*3 14.2 C 4.8 km/h
1038 29-09-2020 14:25:00 14.3 C 11.67 g/m*3 14.3 C 8.1 km/h
1039 29-09-2020 14:30:00 14.3 C 11.67 g/m*3 14.3 C 4.8 km/h
1040 29-09-2020 14:35:00 14.4 C 11.74 g/m*3 14.4 C 4.8 km/h
1041 29-09-2020 14:40:00 14.4 C 11.74 g/m*3 14.4 C 6.4 km/h
1042 29-09-2020 14:45:00 14.4 C 11.62 g/m*3 14.4 C 9.7 km/h
1043 29-09-2020 14:50:00 14.4 C 11.62 g/m*3 14.4 C 6.4 km/h
1044 29-09-2020 14:55:00 14.4 C 11.62 g/m*3 14.4 C 8.1 km/h
1045 29-09-2020 15:00:00 14.4 C 11.62 g/m*3 14.4 C 9.7 km/h
1046 29-09-2020 15:05:00 14.5 C 11.82 g/m*3 14.5 C 6.4 km/h
1047 29-09-2020 15:10:00 14.5 C 11.69 g/m*3 14.5 C 8.1 km/h
1048 29-09-2020 15:15:00 14.4 C 11.62 g/m*3 14.4 C 8.1 km/h
1049 29-09-2020 15:20:00 14.4 C 11.62 g/m*3 14.4 C 6.4 km/h
1050 29-09-2020 15:25:00 14.4 C 11.62 g/m*3 14.4 C 6.4 km/h
Sensor: Nr:Datum:Temp:Abs-Feuchte:Windchill:Wind:
Aussen-T/F 1051 29-09-2020 15:30:00 14.3 C 11.55 g/m*3 14.3 C 8.1 km/h
1052 29-09-2020 15:35:00 14.2 C 11.48 g/m*3 14.2 C 8.1 km/h
1053 29-09-2020 15:40:00 14.1 C 11.41 g/m*3 14.1 C 9.7 km/h
1054 29-09-2020 15:45:00 14.1 C 11.41 g/m*3 14.1 C 8.1 km/h
1055 29-09-2020 15:50:00 14 C 11.34 g/m*3 14 C 6.4 km/h
1056 29-09-2020 15:55:00 13.9 C 11.27 g/m*3 13.9 C 9.7 km/h
1057 29-09-2020 16:00:00 13.8 C 11.2 g/m*3 13.8 C 8.1 km/h
1058 29-09-2020 16:05:00 13.8 C 11.2 g/m*3 13.8 C 3.2 km/h
1059 29-09-2020 16:10:00 13.7 C 11.13 g/m*3 13.7 C 6.4 km/h
1060 29-09-2020 16:15:00 13.6 C 11.06 g/m*3 13.6 C 6.4 km/h
1061 29-09-2020 16:20:00 13.6 C 11.06 g/m*3 13.6 C 6.4 km/h
1062 29-09-2020 16:25:00 13.4 C 10.93 g/m*3 13.4 C 8.1 km/h
1063 29-09-2020 16:30:00 13.3 C 10.86 g/m*3 13.3 C 4.8 km/h
1064 29-09-2020 16:35:00 13.2 C 10.79 g/m*3 13.2 C 4.8 km/h
1065 29-09-2020 16:40:00 13.2 C 10.79 g/m*3 13.2 C 4.8 km/h
1066 29-09-2020 16:45:00 13.2 C 10.91 g/m*3 13.2 C 3.2 km/h
1067 29-09-2020 16:50:00 13.2 C 10.91 g/m*3 13.2 C 3.2 km/h
1068 29-09-2020 16:55:00 13.2 C 10.91 g/m*3 13.2 C 3.2 km/h
1069 29-09-2020 17:00:00 13.2 C 10.91 g/m*3 13.2 C 8.1 km/h
1070 29-09-2020 17:05:00 13.1 C 10.84 g/m*3 13.1 C 3.2 km/h
1071 29-09-2020 17:10:00 13.1 C 10.84 g/m*3 13.1 C 0 km/h
1072 29-09-2020 17:15:00 13.1 C 10.84 g/m*3 13.1 C 0 km/h
1073 29-09-2020 17:20:00 13.1 C 10.84 g/m*3 13.1 C 1.6 km/h
1074 29-09-2020 17:25:00 13.1 C 10.84 g/m*3 13.1 C 0 km/h
1075 29-09-2020 17:30:00 13.1 C 10.84 g/m*3 13.1 C 1.6 km/h
Sensor: Nr:Datum:Temp:Abs-Feuchte:Windchill:Wind:
Aussen-T/F 1076 29-09-2020 17:35:00 13.1 C 10.84 g/m*3 13.1 C 1.6 km/h
1077 29-09-2020 17:40:00 13.2 C 10.91 g/m*3 13.2 C 3.2 km/h
1078 29-09-2020 17:45:00 13.2 C 10.91 g/m*3 13.2 C 3.2 km/h
1079 29-09-2020 17:50:00 13.3 C 10.98 g/m*3 13.3 C 1.6 km/h
1080 29-09-2020 17:55:00 13.3 C 10.98 g/m*3 13.3 C 1.6 km/h
1081 29-09-2020 18:00:00 13.3 C 10.98 g/m*3 13.3 C 1.6 km/h
1082 29-09-2020 18:05:00 13.3 C 10.98 g/m*3 13.3 C 0 km/h
1083 29-09-2020 18:10:00 13.3 C 10.98 g/m*3 13.3 C 1.6 km/h
1084 29-09-2020 18:15:00 13.3 C 10.98 g/m*3 13.3 C 1.6 km/h
1085 29-09-2020 18:20:00 13.2 C 10.91 g/m*3 13.2 C 1.6 km/h
1086 29-09-2020 18:25:00 13.2 C 10.91 g/m*3 13.2 C 1.6 km/h
1087 29-09-2020 18:30:00 13.2 C 10.91 g/m*3 13.2 C 1.6 km/h
1088 29-09-2020 18:35:00 13.2 C 10.91 g/m*3 13.2 C 0 km/h
1089 29-09-2020 18:40:00 13.2 C 10.91 g/m*3 13.2 C 3.2 km/h
1090 29-09-2020 18:45:00 13.2 C 10.91 g/m*3 13.2 C 1.6 km/h
1091 29-09-2020 18:50:00 13.2 C 10.91 g/m*3 13.2 C 3.2 km/h
1092 29-09-2020 18:55:00 13 C 10.77 g/m*3 13 C 4.8 km/h
1093 29-09-2020 19:00:00 12.9 C 10.71 g/m*3 12.9 C 4.8 km/h
1094 29-09-2020 19:05:00 12.8 C 10.64 g/m*3 12.8 C 6.4 km/h
1095 29-09-2020 19:10:00 12.7 C 10.58 g/m*3 12.7 C 8.1 km/h
1096 29-09-2020 19:15:00 12.7 C 10.58 g/m*3 12.7 C 4.8 km/h
1097 29-09-2020 19:20:00 12.6 C 10.51 g/m*3 12.6 C 3.2 km/h
1098 29-09-2020 19:25:00 12.4 C 10.38 g/m*3 12.4 C 6.4 km/h
1099 29-09-2020 19:30:00 12.3 C 10.32 g/m*3 12.3 C 4.8 km/h
1100 29-09-2020 19:35:00 12.2 C 10.25 g/m*3 12.2 C 4.8 km/h
Sensor: Nr:Datum:Temp:Abs-Feuchte:Windchill:Wind:
Aussen-T/F 1101 29-09-2020 19:40:00 12.2 C 10.25 g/m*3 12.2 C 4.8 km/h
1102 29-09-2020 19:45:00 12.1 C 10.19 g/m*3 12.1 C 1.6 km/h
1103 29-09-2020 19:50:00 12.1 C 10.19 g/m*3 12.1 C 3.2 km/h
1104 29-09-2020 19:55:00 12.1 C 10.19 g/m*3 12.1 C 1.6 km/h
1105 29-09-2020 20:00:00 11.9 C 10.06 g/m*3 11.9 C 0 km/h
1106 29-09-2020 20:05:00 11.9 C 10.06 g/m*3 11.9 C 0 km/h
1107 29-09-2020 20:10:00 11.8 C 10 g/m*3 11.8 C 0 km/h
1108 29-09-2020 20:15:00 11.7 C 9.94 g/m*3 11.7 C 1.6 km/h
1109 29-09-2020 20:20:00 11.6 C 9.87 g/m*3 11.6 C 0 km/h
1110 29-09-2020 20:25:00 11.6 C 9.87 g/m*3 11.6 C 0 km/h
1111 29-09-2020 20:30:00 11.5 C 9.81 g/m*3 11.5 C 0 km/h
1112 29-09-2020 20:35:00 11.4 C 9.75 g/m*3 11.4 C 0 km/h
1113 29-09-2020 20:40:00 11.4 C 9.75 g/m*3 11.4 C 0 km/h
1114 29-09-2020 20:45:00 11.3 C 9.69 g/m*3 11.3 C 0 km/h
1115 29-09-2020 20:50:00 11.3 C 9.69 g/m*3 11.3 C 0 km/h
1116 29-09-2020 20:55:00 11.2 C 9.63 g/m*3 11.2 C 0 km/h
1117 29-09-2020 21:00:00 11.2 C 9.63 g/m*3 11.2 C 0 km/h
1118 29-09-2020 21:05:00 11.1 C 9.57 g/m*3 11.1 C 0 km/h
1119 29-09-2020 21:10:00 11 C 9.51 g/m*3 11 C 0 km/h
1120 29-09-2020 21:15:00 10.9 C 9.45 g/m*3 10.9 C 0 km/h
1121 29-09-2020 21:20:00 10.8 C 9.39 g/m*3 10.8 C 0 km/h
1122 29-09-2020 21:25:00 10.7 C 9.33 g/m*3 10.7 C 0 km/h
1123 29-09-2020 21:30:00 10.7 C 9.33 g/m*3 10.7 C 0 km/h
1124 29-09-2020 21:35:00 10.6 C 9.27 g/m*3 10.6 C 0 km/h
1125 29-09-2020 21:40:00 10.5 C 9.21 g/m*3 10.5 C 0 km/h
Sensor: Nr:Datum:Temp:Abs-Feuchte:Windchill:Wind:
Aussen-T/F 1126 29-09-2020 21:45:00 10.4 C 9.16 g/m*3 10.4 C 0 km/h
1127 29-09-2020 21:50:00 10.3 C 9.1 g/m*3 10.3 C 0 km/h
1128 29-09-2020 21:55:00 10.3 C 9.1 g/m*3 10.3 C 0 km/h
1129 29-09-2020 22:00:00 10.3 C 9.19 g/m*3 10.3 C 0 km/h
1130 29-09-2020 22:05:00 10.3 C 9.19 g/m*3 10.3 C 0 km/h
1131 29-09-2020 22:10:00 10.3 C 9.19 g/m*3 10.3 C 0 km/h
1132 29-09-2020 22:15:00 10.3 C 9.19 g/m*3 10.3 C 0 km/h
1133 29-09-2020 22:20:00 10.2 C 9.14 g/m*3 10.2 C 0 km/h
1134 29-09-2020 22:25:00 10.1 C 8.98 g/m*3 10.1 C 0 km/h
1135 29-09-2020 22:30:00 10.1 C 9.08 g/m*3 10.1 C 0 km/h
1136 29-09-2020 22:35:00 10.2 C 9.14 g/m*3 10.2 C 0 km/h
1137 29-09-2020 22:40:00 10.2 C 9.14 g/m*3 10.2 C 0 km/h
1138 29-09-2020 22:45:00 10.3 C 9.19 g/m*3 10.3 C 0 km/h
1139 29-09-2020 22:50:00 10.3 C 9.19 g/m*3 10.3 C 0 km/h
1140 29-09-2020 22:55:00 10.3 C 9.19 g/m*3 10.3 C 0 km/h
1141 29-09-2020 23:00:00 10.3 C 9.19 g/m*3 10.3 C 0 km/h
1142 29-09-2020 23:05:00 10.3 C 9.19 g/m*3 10.3 C 0 km/h
1143 29-09-2020 23:10:00 10.3 C 9.19 g/m*3 10.3 C 0 km/h
1144 29-09-2020 23:15:00 10.3 C 9.19 g/m*3 10.3 C 0 km/h
1145 29-09-2020 23:20:00 10.4 C 9.25 g/m*3 10.4 C 0 km/h
1146 29-09-2020 23:25:00 10.4 C 9.25 g/m*3 10.4 C 0 km/h
1147 29-09-2020 23:30:00 10.5 C 9.31 g/m*3 10.5 C 0 km/h
1148 29-09-2020 23:35:00 10.6 C 9.37 g/m*3 10.6 C 0 km/h
1149 29-09-2020 23:40:00 10.7 C 9.43 g/m*3 10.7 C 0 km/h
1150 29-09-2020 23:45:00 10.7 C 9.53 g/m*3 10.7 C 0 km/h
Sensor: Nr:Datum:Temp:Abs-Feuchte:Windchill:Wind:
Aussen-T/F 1151 29-09-2020 23:50:00 10.7 C 9.53 g/m*3 10.7 C 0 km/h
1152 29-09-2020 23:55:00 10.8 C 9.59 g/m*3 10.8 C 0 km/h
1153 30-09-2020 00:00:00 10.8 C 9.59 g/m*3 10.8 C 0 km/h
1154 30-09-2020 00:05:00 10.8 C 9.59 g/m*3 10.8 C 0 km/h
1155 30-09-2020 00:10:00 10.8 C 9.59 g/m*3 10.8 C 0 km/h
1156 30-09-2020 00:15:00 10.9 C 9.65 g/m*3 10.9 C 0 km/h
1157 30-09-2020 00:20:00 10.9 C 9.65 g/m*3 10.9 C 0 km/h
1158 30-09-2020 00:25:00 10.9 C 9.65 g/m*3 10.9 C 0 km/h
1159 30-09-2020 00:30:00 10.9 C 9.65 g/m*3 10.9 C 0 km/h
1160 30-09-2020 00:35:00 10.9 C 9.65 g/m*3 10.9 C 0 km/h
1161 30-09-2020 00:40:00 10.9 C 9.65 g/m*3 10.9 C 0 km/h
1162 30-09-2020 00:45:00 10.9 C 9.65 g/m*3 10.9 C 0 km/h
1163 30-09-2020 00:50:00 10.9 C 9.65 g/m*3 10.9 C 0 km/h
1164 30-09-2020 00:55:00 11 C 9.71 g/m*3 11 C 0 km/h
1165 30-09-2020 01:00:00 11 C 9.71 g/m*3 11 C 0 km/h
1166 30-09-2020 01:05:00 11 C 9.71 g/m*3 11 C 0 km/h
1167 30-09-2020 01:10:00 11 C 9.71 g/m*3 11 C 0 km/h
1168 30-09-2020 01:15:00 11 C 9.71 g/m*3 11 C 0 km/h
1169 30-09-2020 01:20:00 11 C 9.71 g/m*3 11 C 0 km/h
1170 30-09-2020 01:25:00 11.1 C 9.77 g/m*3 11.1 C 0 km/h
1171 30-09-2020 01:30:00 11.1 C 9.77 g/m*3 11.1 C 0 km/h
1172 30-09-2020 01:35:00 11.1 C 9.77 g/m*3 11.1 C 0 km/h
1173 30-09-2020 01:40:00 11.1 C 9.77 g/m*3 11.1 C 0 km/h
1174 30-09-2020 01:45:00 11.1 C 9.77 g/m*3 11.1 C 0 km/h
1175 30-09-2020 01:50:00 11.1 C 9.77 g/m*3 11.1 C 0 km/h
Sensor: Nr:Datum:Temp:Abs-Feuchte:Windchill:Wind:
Aussen-T/F 1176 30-09-2020 01:55:00 11.1 C 9.77 g/m*3 11.1 C 0 km/h
1177 30-09-2020 02:00:00 11.1 C 9.77 g/m*3 11.1 C 0 km/h
1178 30-09-2020 02:05:00 11.1 C 9.77 g/m*3 11.1 C 0 km/h
1179 30-09-2020 02:10:00 11.1 C 9.77 g/m*3 11.1 C 0 km/h
1180 30-09-2020 02:15:00 11.1 C 9.77 g/m*3 11.1 C 0 km/h
1181 30-09-2020 02:20:00 11.1 C 9.77 g/m*3 11.1 C 0 km/h
1182 30-09-2020 02:25:00 11.2 C 9.83 g/m*3 11.2 C 0 km/h
1183 30-09-2020 02:30:00 11.2 C 9.83 g/m*3 11.2 C 0 km/h
1184 30-09-2020 02:35:00 11.3 C 9.89 g/m*3 11.3 C 0 km/h
1185 30-09-2020 02:40:00 11.3 C 9.89 g/m*3 11.3 C 0 km/h
1186 30-09-2020 02:45:00 11.3 C 9.89 g/m*3 11.3 C 0 km/h
1187 30-09-2020 02:50:00 11.3 C 9.89 g/m*3 11.3 C 0 km/h
1188 30-09-2020 02:55:00 11.3 C 9.89 g/m*3 11.3 C 0 km/h
1189 30-09-2020 03:00:00 11.4 C 9.96 g/m*3 11.4 C 0 km/h
1190 30-09-2020 03:05:00 11.4 C 9.96 g/m*3 11.4 C 0 km/h
1191 30-09-2020 03:10:00 11.4 C 9.96 g/m*3 11.4 C 0 km/h
1192 30-09-2020 03:15:00 11.4 C 9.96 g/m*3 11.4 C 0 km/h
1193 30-09-2020 03:20:00 11.4 C 9.96 g/m*3 11.4 C 0 km/h
1194 30-09-2020 03:25:00 11.5 C 10.02 g/m*3 11.5 C 0 km/h
1195 30-09-2020 03:30:00 11.5 C 10.02 g/m*3 11.5 C 0 km/h
1196 30-09-2020 03:35:00 11.5 C 10.02 g/m*3 11.5 C 0 km/h
1197 30-09-2020 03:40:00 11.6 C 10.08 g/m*3 11.6 C 0 km/h
1198 30-09-2020 03:45:00 11.6 C 10.08 g/m*3 11.6 C 0 km/h
1199 30-09-2020 03:50:00 11.6 C 10.08 g/m*3 11.6 C 0 km/h
1200 30-09-2020 03:55:00 11.6 C 10.08 g/m*3 11.6 C 0 km/h
Sensor: Nr:Datum:Temp:Abs-Feuchte:Windchill:Wind:
Aussen-T/F 1201 30-09-2020 04:00:00 11.6 C 10.08 g/m*3 11.6 C 0 km/h
1202 30-09-2020 04:05:00 11.7 C 10.15 g/m*3 11.7 C 0 km/h
1203 30-09-2020 04:10:00 11.7 C 10.15 g/m*3 11.7 C 0 km/h
1204 30-09-2020 04:15:00 11.7 C 10.15 g/m*3 11.7 C 0 km/h
1205 30-09-2020 04:20:00 11.8 C 10.21 g/m*3 11.8 C 0 km/h
1206 30-09-2020 04:25:00 11.8 C 10.21 g/m*3 11.8 C 0 km/h
1207 30-09-2020 04:30:00 11.8 C 10.21 g/m*3 11.8 C 0 km/h
1208 30-09-2020 04:35:00 11.8 C 10.21 g/m*3 11.8 C 0 km/h
1209 30-09-2020 04:40:00 11.8 C 10.21 g/m*3 11.8 C 0 km/h
1210 30-09-2020 04:45:00 11.8 C 10.21 g/m*3 11.8 C 0 km/h
1211 30-09-2020 04:50:00 11.8 C 10.21 g/m*3 11.8 C 0 km/h
1212 30-09-2020 04:55:00 11.8 C 10.21 g/m*3 11.8 C 0 km/h
1213 30-09-2020 05:00:00 11.8 C 10.21 g/m*3 11.8 C 0 km/h
1214 30-09-2020 05:05:00 11.9 C 10.27 g/m*3 11.9 C 0 km/h
1215 30-09-2020 05:10:00 11.9 C 10.27 g/m*3 11.9 C 0 km/h
1216 30-09-2020 05:15:00 11.9 C 10.27 g/m*3 11.9 C 0 km/h
1217 30-09-2020 05:20:00 11.9 C 10.27 g/m*3 11.9 C 0 km/h
1218 30-09-2020 05:25:00 11.9 C 10.27 g/m*3 11.9 C 0 km/h
1219 30-09-2020 05:30:00 11.9 C 10.27 g/m*3 11.9 C 0 km/h
1220 30-09-2020 05:35:00 11.9 C 10.27 g/m*3 11.9 C 0 km/h
1221 30-09-2020 05:40:00 11.9 C 10.27 g/m*3 11.9 C 0 km/h
1222 30-09-2020 05:45:00 11.9 C 10.27 g/m*3 11.9 C 0 km/h
1223 30-09-2020 05:50:00 12 C 10.34 g/m*3 12 C 0 km/h
1224 30-09-2020 05:55:00 12 C 10.34 g/m*3 12 C 0 km/h
1225 30-09-2020 06:00:00 12.1 C 10.4 g/m*3 12.1 C 0 km/h
Sensor: Nr:Datum:Temp:Abs-Feuchte:Windchill:Wind:
Aussen-T/F 1226 30-09-2020 06:05:00 12.1 C 10.4 g/m*3 12.1 C 0 km/h
1227 30-09-2020 06:10:00 12.1 C 10.4 g/m*3 12.1 C 0 km/h
1228 30-09-2020 06:15:00 12.1 C 10.4 g/m*3 12.1 C 0 km/h
1229 30-09-2020 06:20:00 12.1 C 10.4 g/m*3 12.1 C 0 km/h
1230 30-09-2020 06:25:00 12.1 C 10.4 g/m*3 12.1 C 0 km/h
1231 30-09-2020 06:30:00 12.1 C 10.4 g/m*3 12.1 C 0 km/h
1232 30-09-2020 06:35:00 12.1 C 10.4 g/m*3 12.1 C 0 km/h
1233 30-09-2020 06:40:00 12.1 C 10.4 g/m*3 12.1 C 0 km/h
1234 30-09-2020 06:45:00 12.1 C 10.4 g/m*3 12.1 C 0 km/h
1235 30-09-2020 06:50:00 12.2 C 10.47 g/m*3 12.2 C 0 km/h
1236 30-09-2020 06:55:00 12.2 C 10.47 g/m*3 12.2 C 0 km/h
1237 30-09-2020 07:00:00 12.2 C 10.47 g/m*3 12.2 C 0 km/h
1238 30-09-2020 07:05:00 12.2 C 10.47 g/m*3 12.2 C 0 km/h
1239 30-09-2020 07:10:00 12.2 C 10.47 g/m*3 12.2 C 0 km/h
1240 30-09-2020 07:15:00 12.2 C 10.47 g/m*3 12.2 C 0 km/h
1241 30-09-2020 07:20:00 12.2 C 10.47 g/m*3 12.2 C 0 km/h
1242 30-09-2020 07:25:00 12.2 C 10.47 g/m*3 12.2 C 0 km/h
1243 30-09-2020 07:30:00 12.2 C 10.47 g/m*3 12.2 C 0 km/h
1244 30-09-2020 07:35:00 12.2 C 10.47 g/m*3 12.2 C 0 km/h
1245 30-09-2020 07:40:00 12.3 C 10.53 g/m*3 12.3 C 0 km/h
1246 30-09-2020 07:45:00 12.3 C 10.53 g/m*3 12.3 C 0 km/h
1247 30-09-2020 07:50:00 12.3 C 10.53 g/m*3 12.3 C 0 km/h
1248 30-09-2020 07:55:00 12.3 C 10.53 g/m*3 12.3 C 0 km/h
1249 30-09-2020 08:00:00 12.3 C 10.53 g/m*3 12.3 C 0 km/h
1250 30-09-2020 08:05:00 12.4 C 10.6 g/m*3 12.4 C 0 km/h
Sensor: Nr:Datum:Temp:Abs-Feuchte:Windchill:Wind:
Aussen-T/F 1251 30-09-2020 08:10:00 12.4 C 10.6 g/m*3 12.4 C 0 km/h
1252 30-09-2020 08:15:00 12.4 C 10.6 g/m*3 12.4 C 0 km/h
1253 30-09-2020 08:20:00 12.5 C 10.66 g/m*3 12.5 C 0 km/h
1254 30-09-2020 08:25:00 12.6 C 10.73 g/m*3 12.6 C 0 km/h
1255 30-09-2020 08:30:00 12.7 C 10.8 g/m*3 12.7 C 0 km/h
1256 30-09-2020 08:35:00 12.7 C 10.8 g/m*3 12.7 C 0 km/h
1257 30-09-2020 08:40:00 12.8 C 10.87 g/m*3 12.8 C 0 km/h
1258 30-09-2020 08:45:00 12.9 C 10.93 g/m*3 12.9 C 0 km/h
1259 30-09-2020 08:50:00 13 C 11 g/m*3 13 C 0 km/h
1260 30-09-2020 08:55:00 13.1 C 11.07 g/m*3 13.1 C 0 km/h
1261 30-09-2020 09:00:00 13.1 C 11.07 g/m*3 13.1 C 0 km/h
1262 30-09-2020 09:05:00 13.2 C 11.14 g/m*3 13.2 C 0 km/h
1263 30-09-2020 09:10:00 13.3 C 11.21 g/m*3 13.3 C 0 km/h
1264 30-09-2020 09:15:00 13.3 C 11.21 g/m*3 13.3 C 0 km/h
1265 30-09-2020 09:20:00 13.4 C 11.28 g/m*3 13.4 C 0 km/h
1266 30-09-2020 09:25:00 13.5 C 11.35 g/m*3 13.5 C 0 km/h
1267 30-09-2020 09:30:00 13.6 C 11.53 g/m*3 13.6 C 0 km/h
1268 30-09-2020 09:35:00 13.7 C 11.49 g/m*3 13.7 C 0 km/h
1269 30-09-2020 09:40:00 13.8 C 11.56 g/m*3 13.8 C 0 km/h
1270 30-09-2020 09:45:00 13.9 C 11.75 g/m*3 13.9 C 0 km/h
1271 30-09-2020 09:50:00 14.1 C 11.89 g/m*3 14.1 C 0 km/h
1272 30-09-2020 09:55:00 14.2 C 11.84 g/m*3 14.2 C 0 km/h
1273 30-09-2020 10:00:00 14.2 C 11.84 g/m*3 14.2 C 0 km/h
1274 30-09-2020 10:05:00 14.3 C 12.04 g/m*3 14.3 C 0 km/h
1275 30-09-2020 10:10:00 14.4 C 12.11 g/m*3 14.4 C 0 km/h
Sensor: Nr:Datum:Temp:Abs-Feuchte:Windchill:Wind:
Aussen-T/F 1276 30-09-2020 10:15:00 14.5 C 12.19 g/m*3 14.5 C 3.2 km/h
1277 30-09-2020 10:20:00 14.7 C 12.34 g/m*3 14.7 C 3.2 km/h
1278 30-09-2020 10:25:00 14.7 C 12.34 g/m*3 14.7 C 1.6 km/h
1279 30-09-2020 10:30:00 14.7 C 12.34 g/m*3 14.7 C 3.2 km/h
1280 30-09-2020 10:35:00 14.7 C 12.21 g/m*3 14.7 C 4.8 km/h
1281 30-09-2020 10:40:00 14.8 C 12.29 g/m*3 14.8 C 3.2 km/h
1282 30-09-2020 10:45:00 14.9 C 12.36 g/m*3 14.9 C 1.6 km/h
1283 30-09-2020 10:50:00 15.1 C 12.51 g/m*3 15.1 C 1.6 km/h
1284 30-09-2020 10:55:00 15.1 C 12.51 g/m*3 15.1 C 3.2 km/h
1285 30-09-2020 11:00:00 15.2 C 12.59 g/m*3 15.2 C 3.2 km/h
1286 30-09-2020 11:05:00 15.3 C 12.67 g/m*3 15.3 C 1.6 km/h
1287 30-09-2020 11:10:00 15.4 C 12.74 g/m*3 15.4 C 4.8 km/h
1288 30-09-2020 11:15:00 15.4 C 12.61 g/m*3 15.4 C 9.7 km/h
1289 30-09-2020 11:20:00 15.6 C 12.77 g/m*3 15.6 C 1.6 km/h
1290 30-09-2020 11:25:00 15.7 C 12.84 g/m*3 15.7 C 3.2 km/h
1291 30-09-2020 11:30:00 15.7 C 12.84 g/m*3 15.7 C 6.4 km/h
1292 30-09-2020 11:35:00 15.8 C 12.92 g/m*3 15.8 C 3.2 km/h
1293 30-09-2020 11:40:00 15.8 C 12.79 g/m*3 15.8 C 8.1 km/h
1294 30-09-2020 11:45:00 15.9 C 12.73 g/m*3 15.9 C 6.4 km/h
1295 30-09-2020 11:50:00 16 C 12.81 g/m*3 16 C 6.4 km/h
1296 30-09-2020 11:55:00 16.1 C 12.75 g/m*3 16.1 C 3.2 km/h
1297 30-09-2020 12:00:00 16.2 C 12.96 g/m*3 16.2 C 6.4 km/h
1298 30-09-2020 12:05:00 16.3 C 12.9 g/m*3 16.3 C 3.2 km/h
1299 30-09-2020 12:10:00 16.5 C 12.92 g/m*3 16.5 C 1.6 km/h
1300 30-09-2020 12:15:00 16.6 C 13 g/m*3 16.6 C 8.1 km/h
Sensor: Nr:Datum:Temp:Abs-Feuchte:Windchill:Wind:
Aussen-T/F 1301 30-09-2020 12:20:00 16.7 C 13.07 g/m*3 16.7 C 8.1 km/h
1302 30-09-2020 12:25:00 16.7 C 12.93 g/m*3 16.7 C 3.2 km/h
1303 30-09-2020 12:30:00 16.7 C 12.93 g/m*3 16.7 C 3.2 km/h
1304 30-09-2020 12:35:00 16.8 C 13.01 g/m*3 16.8 C 0 km/h
1305 30-09-2020 12:40:00 16.8 C 13.01 g/m*3 16.8 C 1.6 km/h
1306 30-09-2020 12:45:00 16.8 C 12.87 g/m*3 16.8 C 3.2 km/h
1307 30-09-2020 12:50:00 16.8 C 12.87 g/m*3 16.8 C 0 km/h
1308 30-09-2020 12:55:00 16.8 C 12.87 g/m*3 16.8 C 0 km/h
1309 30-09-2020 13:00:00 16.8 C 12.72 g/m*3 16.8 C 0 km/h
1310 30-09-2020 13:05:00 16.8 C 12.72 g/m*3 16.8 C 0 km/h
1311 30-09-2020 13:10:00 16.8 C 12.87 g/m*3 16.8 C 1.6 km/h
1312 30-09-2020 13:15:00 16.8 C 12.87 g/m*3 16.8 C 0 km/h
1313 30-09-2020 13:20:00 16.8 C 12.87 g/m*3 16.8 C 1.6 km/h
1314 30-09-2020 13:25:00 16.8 C 12.72 g/m*3 16.8 C 3.2 km/h
1315 30-09-2020 13:30:00 16.8 C 12.72 g/m*3 16.8 C 4.8 km/h
1316 30-09-2020 13:35:00 16.8 C 12.72 g/m*3 16.8 C 0 km/h
1317 30-09-2020 13:40:00 16.9 C 12.94 g/m*3 16.9 C 0 km/h
1318 30-09-2020 13:45:00 17.1 C 12.81 g/m*3 17.1 C 4.8 km/h
1319 30-09-2020 13:50:00 17.1 C 12.81 g/m*3 17.1 C 0 km/h
1320 30-09-2020 13:55:00 17.2 C 12.89 g/m*3 17.2 C 3.2 km/h
1321 30-09-2020 14:00:00 17.2 C 12.74 g/m*3 17.2 C 1.6 km/h
1322 30-09-2020 14:05:00 17.3 C 12.82 g/m*3 17.3 C 1.6 km/h
1323 30-09-2020 14:10:00 17.4 C 12.89 g/m*3 17.4 C 3.2 km/h
1324 30-09-2020 14:15:00 17.5 C 12.97 g/m*3 17.5 C 4.8 km/h
1325 30-09-2020 14:20:00 17.6 C 12.9 g/m*3 17.6 C 1.6 km/h
Sensor: Nr:Datum:Temp:Abs-Feuchte:Windchill:Wind:
Aussen-T/F 1326 30-09-2020 14:25:00 17.6 C 12.9 g/m*3 17.6 C 6.4 km/h
1327 30-09-2020 14:30:00 17.7 C 12.98 g/m*3 17.7 C 3.2 km/h
1328 30-09-2020 14:35:00 17.8 C 13.05 g/m*3 17.8 C 3.2 km/h
1329 30-09-2020 14:40:00 17.8 C 13.05 g/m*3 17.8 C 6.4 km/h
1330 30-09-2020 14:45:00 17.8 C 12.9 g/m*3 17.8 C 4.8 km/h
1331 30-09-2020 14:50:00 17.9 C 13.13 g/m*3 17.9 C 1.6 km/h
1332 30-09-2020 14:55:00 18.1 C 12.98 g/m*3 18.1 C 3.2 km/h
1333 30-09-2020 15:00:00 18.1 C 13.13 g/m*3 18.1 C 3.2 km/h
1334 30-09-2020 15:05:00 18.2 C 13.06 g/m*3 18.2 C 4.8 km/h
1335 30-09-2020 15:10:00 18.3 C 12.98 g/m*3 18.3 C 1.6 km/h
1336 30-09-2020 15:15:00 18.3 C 13.13 g/m*3 18.3 C 3.2 km/h
1337 30-09-2020 15:20:00 18.3 C 12.98 g/m*3 18.3 C 1.6 km/h
1338 30-09-2020 15:25:00 18.3 C 12.98 g/m*3 18.3 C 4.8 km/h
1339 30-09-2020 15:30:00 18.2 C 12.75 g/m*3 18.2 C 6.4 km/h
1340 30-09-2020 15:35:00 18.1 C 12.82 g/m*3 18.1 C 6.4 km/h
1341 30-09-2020 15:40:00 18.1 C 12.82 g/m*3 18.1 C 6.4 km/h
1342 30-09-2020 15:45:00 18 C 12.59 g/m*3 18 C 6.4 km/h
1343 30-09-2020 15:50:00 18 C 12.59 g/m*3 18 C 6.4 km/h
1344 30-09-2020 15:55:00 17.9 C 12.67 g/m*3 17.9 C 4.8 km/h
1345 30-09-2020 16:00:00 18 C 12.9 g/m*3 18 C 4.8 km/h
1346 30-09-2020 16:05:00 18 C 12.75 g/m*3 18 C 1.6 km/h
1347 30-09-2020 16:10:00 18 C 12.59 g/m*3 18 C 1.6 km/h
1348 30-09-2020 16:15:00 18 C 12.59 g/m*3 18 C 4.8 km/h
1349 30-09-2020 16:20:00 17.9 C 12.67 g/m*3 17.9 C 6.4 km/h
1350 30-09-2020 16:25:00 17.9 C 12.83 g/m*3 17.9 C 6.4 km/h
Sensor: Nr:Datum:Temp:Abs-Feuchte:Windchill:Wind:
Aussen-T/F 1351 30-09-2020 16:30:00 17.9 C 12.67 g/m*3 17.9 C 3.2 km/h
1352 30-09-2020 16:35:00 17.9 C 12.52 g/m*3 17.9 C 6.4 km/h
1353 30-09-2020 16:40:00 17.8 C 12.45 g/m*3 17.8 C 3.2 km/h
1354 30-09-2020 16:45:00 17.8 C 12.6 g/m*3 17.8 C 0 km/h
1355 30-09-2020 16:50:00 17.8 C 12.6 g/m*3 17.8 C 4.8 km/h
1356 30-09-2020 16:55:00 17.8 C 12.75 g/m*3 17.8 C 3.2 km/h
1357 30-09-2020 17:00:00 17.8 C 12.6 g/m*3 17.8 C 3.2 km/h
1358 30-09-2020 17:05:00 17.8 C 12.6 g/m*3 17.8 C 3.2 km/h
1359 30-09-2020 17:10:00 17.8 C 12.45 g/m*3 17.8 C 4.8 km/h
1360 30-09-2020 17:15:00 17.8 C 12.45 g/m*3 17.8 C 3.2 km/h
1361 30-09-2020 17:20:00 17.9 C 12.67 g/m*3 17.9 C 1.6 km/h
1362 30-09-2020 17:25:00 18 C 12.59 g/m*3 18 C 6.4 km/h
1363 30-09-2020 17:30:00 18.2 C 12.59 g/m*3 18.2 C 6.4 km/h
1364 30-09-2020 17:35:00 18.2 C 12.59 g/m*3 18.2 C 6.4 km/h
1365 30-09-2020 17:40:00 18.2 C 12.59 g/m*3 18.2 C 3.2 km/h
1366 30-09-2020 17:45:00 18.2 C 12.59 g/m*3 18.2 C 1.6 km/h
1367 30-09-2020 17:50:00 18.1 C 12.67 g/m*3 18.1 C 1.6 km/h
1368 30-09-2020 17:55:00 18.1 C 12.82 g/m*3 18.1 C 0 km/h
1369 30-09-2020 18:00:00 18 C 12.59 g/m*3 18 C 1.6 km/h
1370 30-09-2020 18:05:00 17.9 C 12.67 g/m*3 17.9 C 0 km/h
1371 30-09-2020 18:10:00 17.8 C 12.6 g/m*3 17.8 C 0 km/h
1372 30-09-2020 18:15:00 17.7 C 12.67 g/m*3 17.7 C 1.6 km/h
1373 30-09-2020 18:20:00 17.4 C 12.3 g/m*3 17.4 C 4.8 km/h
1374 30-09-2020 18:25:00 17.1 C 12.23 g/m*3 17.1 C 1.6 km/h
1375 30-09-2020 18:30:00 16.9 C 12.23 g/m*3 16.9 C 3.2 km/h
Sensor: Nr:Datum:Temp:Abs-Feuchte:Windchill:Wind:
Aussen-T/F 1376 30-09-2020 18:35:00 16.7 C 12.08 g/m*3 16.7 C 1.6 km/h
1377 30-09-2020 18:40:00 16.5 C 12.08 g/m*3 16.5 C 3.2 km/h
1378 30-09-2020 18:45:00 16.3 C 12.07 g/m*3 16.3 C 0 km/h
1379 30-09-2020 18:50:00 16.2 C 12.14 g/m*3 16.2 C 0 km/h
1380 30-09-2020 18:55:00 16.1 C 12.06 g/m*3 16.1 C 3.2 km/h
1381 30-09-2020 19:00:00 16 C 12.13 g/m*3 16 C 0 km/h
1382 30-09-2020 19:05:00 15.9 C 12.19 g/m*3 15.9 C 0 km/h
1383 30-09-2020 19:10:00 15.8 C 12.11 g/m*3 15.8 C 1.6 km/h
1384 30-09-2020 19:15:00 15.8 C 12.11 g/m*3 15.8 C 0 km/h
1385 30-09-2020 19:20:00 15.7 C 12.04 g/m*3 15.7 C 0 km/h
1386 30-09-2020 19:25:00 15.6 C 12.1 g/m*3 15.6 C 0 km/h
1387 30-09-2020 19:30:00 15.5 C 12.03 g/m*3 15.5 C 0 km/h
1388 30-09-2020 19:35:00 15.4 C 11.96 g/m*3 15.4 C 0 km/h
1389 30-09-2020 19:40:00 15.3 C 11.88 g/m*3 15.3 C 0 km/h
1390 30-09-2020 19:45:00 15.3 C 11.88 g/m*3 15.3 C 0 km/h
1391 30-09-2020 19:50:00 15.2 C 11.94 g/m*3 15.2 C 0 km/h
1392 30-09-2020 19:55:00 15.2 C 11.94 g/m*3 15.2 C 0 km/h
1393 30-09-2020 20:00:00 15.1 C 11.87 g/m*3 15.1 C 0 km/h
1394 30-09-2020 20:05:00 15.1 C 11.87 g/m*3 15.1 C 6.4 km/h
1395 30-09-2020 20:10:00 15.1 C 11.87 g/m*3 15.1 C 0 km/h
1396 30-09-2020 20:15:00 14.9 C 11.73 g/m*3 14.9 C 0 km/h
1397 30-09-2020 20:20:00 14.8 C 11.53 g/m*3 14.8 C 0 km/h
1398 30-09-2020 20:25:00 14.7 C 11.46 g/m*3 14.7 C 4.8 km/h
1399 30-09-2020 20:30:00 14.5 C 11.32 g/m*3 14.5 C 3.2 km/h
1400 30-09-2020 20:35:00 14.3 C 11.18 g/m*3 14.3 C 1.6 km/h
Sensor: Nr:Datum:Temp:Abs-Feuchte:Windchill:Wind:
Aussen-T/F 1401 30-09-2020 20:40:00 14.2 C 11.23 g/m*3 14.2 C 0 km/h
1402 30-09-2020 20:45:00 14.1 C 11.17 g/m*3 14.1 C 1.6 km/h
1403 30-09-2020 20:50:00 13.9 C 11.03 g/m*3 13.9 C 0 km/h
1404 30-09-2020 20:55:00 13.8 C 10.96 g/m*3 13.8 C 1.6 km/h
1405 30-09-2020 21:00:00 13.7 C 10.89 g/m*3 13.7 C 4.8 km/h
1406 30-09-2020 21:05:00 13.6 C 10.83 g/m*3 13.6 C 1.6 km/h
1407 30-09-2020 21:10:00 13.5 C 10.76 g/m*3 13.5 C 1.6 km/h
1408 30-09-2020 21:15:00 13.4 C 10.81 g/m*3 13.4 C 0 km/h
1409 30-09-2020 21:20:00 13.3 C 10.74 g/m*3 13.3 C 0 km/h
1410 30-09-2020 21:25:00 13.3 C 10.74 g/m*3 13.3 C 0 km/h
1411 30-09-2020 21:30:00 13.3 C 10.74 g/m*3 13.3 C 1.6 km/h
1412 30-09-2020 21:35:00 13.2 C 10.68 g/m*3 13.2 C 0 km/h
1413 30-09-2020 21:40:00 13.1 C 10.61 g/m*3 13.1 C 0 km/h
1414 30-09-2020 21:45:00 13 C 10.55 g/m*3 13 C 0 km/h
1415 30-09-2020 21:50:00 12.9 C 10.48 g/m*3 12.9 C 3.2 km/h
1416 30-09-2020 21:55:00 12.8 C 10.42 g/m*3 12.8 C 1.6 km/h
1417 30-09-2020 22:00:00 12.7 C 10.35 g/m*3 12.7 C 3.2 km/h
1418 30-09-2020 22:05:00 12.6 C 10.4 g/m*3 12.6 C 1.6 km/h
1419 30-09-2020 22:10:00 12.4 C 10.16 g/m*3 12.4 C 0 km/h
1420 30-09-2020 22:15:00 12.3 C 10.21 g/m*3 12.3 C 0 km/h
1421 30-09-2020 22:20:00 12.3 C 10.21 g/m*3 12.3 C 1.6 km/h
1422 30-09-2020 22:25:00 12.2 C 10.14 g/m*3 12.2 C 1.6 km/h
1423 30-09-2020 22:30:00 12.1 C 10.08 g/m*3 12.1 C 3.2 km/h
1424 30-09-2020 22:35:00 12.1 C 10.08 g/m*3 12.1 C 3.2 km/h
1425 30-09-2020 22:40:00 11.9 C 9.96 g/m*3 11.9 C 3.2 km/h
Sensor: Nr:Datum:Temp:Abs-Feuchte:Windchill:Wind:
Aussen-T/F 1426 30-09-2020 22:45:00 11.9 C 9.96 g/m*3 11.9 C 4.8 km/h
1427 30-09-2020 22:50:00 11.8 C 9.89 g/m*3 11.8 C 0 km/h
1428 30-09-2020 22:55:00 11.8 C 10 g/m*3 11.8 C 3.2 km/h
1429 30-09-2020 23:00:00 11.7 C 9.94 g/m*3 11.7 C 3.2 km/h
1430 30-09-2020 23:05:00 11.7 C 9.94 g/m*3 11.7 C 3.2 km/h
1431 30-09-2020 23:10:00 11.7 C 9.94 g/m*3 11.7 C 0 km/h
1432 30-09-2020 23:15:00 11.7 C 9.94 g/m*3 11.7 C 3.2 km/h
1433 30-09-2020 23:20:00 11.7 C 9.94 g/m*3 11.7 C 1.6 km/h
1434 30-09-2020 23:25:00 11.6 C 9.87 g/m*3 11.6 C 0 km/h
1435 30-09-2020 23:30:00 11.6 C 9.87 g/m*3 11.6 C 3.2 km/h
1436 30-09-2020 23:35:00 11.5 C 9.81 g/m*3 11.5 C 0 km/h
1437 30-09-2020 23:40:00 11.4 C 9.75 g/m*3 11.4 C 3.2 km/h
1438 30-09-2020 23:45:00 11.4 C 9.75 g/m*3 11.4 C 0 km/h
1439 30-09-2020 23:50:00 11.3 C 9.69 g/m*3 11.3 C 0 km/h
1440 30-09-2020 23:55:00 11.3 C 9.69 g/m*3 11.3 C 3.2 km/h
1441 01-10-2020 00:00:00 11.2 C 9.63 g/m*3 11.2 C 1.6 km/h
1442 01-10-2020 00:05:00 11.2 C 9.63 g/m*3 11.2 C 0 km/h
1443 01-10-2020 00:10:00 11.1 C 9.57 g/m*3 11.1 C 0 km/h
1444 01-10-2020 00:15:00 11.1 C 9.57 g/m*3 11.1 C 0 km/h
1445 01-10-2020 00:20:00 11.1 C 9.57 g/m*3 11.1 C 0 km/h
1446 01-10-2020 00:25:00 11.1 C 9.57 g/m*3 11.1 C 0 km/h
1447 01-10-2020 00:30:00 11.1 C 9.57 g/m*3 11.1 C 1.6 km/h
1448 01-10-2020 00:35:00 11.1 C 9.57 g/m*3 11.1 C 0 km/h
1449 01-10-2020 00:40:00 11 C 9.51 g/m*3 11 C 0 km/h
1450 01-10-2020 00:45:00 11 C 9.61 g/m*3 11 C 0 km/h
Sensor: Nr:Datum:Temp:Abs-Feuchte:Windchill:Wind:
Aussen-T/F 1451 01-10-2020 00:50:00 10.9 C 9.55 g/m*3 10.9 C 0 km/h
1452 01-10-2020 00:55:00 10.9 C 9.55 g/m*3 10.9 C 0 km/h
1453 01-10-2020 01:00:00 10.9 C 9.55 g/m*3 10.9 C 0 km/h
1454 01-10-2020 01:05:00 10.9 C 9.55 g/m*3 10.9 C 0 km/h
1455 01-10-2020 01:10:00 10.9 C 9.55 g/m*3 10.9 C 0 km/h
1456 01-10-2020 01:15:00 10.8 C 9.49 g/m*3 10.8 C 0 km/h
1457 01-10-2020 01:20:00 10.8 C 9.49 g/m*3 10.8 C 0 km/h
1458 01-10-2020 01:25:00 10.7 C 9.33 g/m*3 10.7 C 0 km/h
1459 01-10-2020 01:30:00 10.7 C 9.33 g/m*3 10.7 C 1.6 km/h
1460 01-10-2020 01:35:00 10.6 C 9.37 g/m*3 10.6 C 0 km/h
1461 01-10-2020 01:40:00 10.6 C 9.37 g/m*3 10.6 C 0 km/h
1462 01-10-2020 01:45:00 10.5 C 9.31 g/m*3 10.5 C 0 km/h
1463 01-10-2020 01:50:00 10.4 C 9.25 g/m*3 10.4 C 0 km/h
1464 01-10-2020 01:55:00 10.4 C 9.25 g/m*3 10.4 C 0 km/h
1465 01-10-2020 02:00:00 10.3 C 9.19 g/m*3 10.3 C 0 km/h
1466 01-10-2020 02:05:00 10.3 C 9.19 g/m*3 10.3 C 0 km/h
1467 01-10-2020 02:10:00 10.3 C 9.19 g/m*3 10.3 C 0 km/h
1468 01-10-2020 02:15:00 10.3 C 9.19 g/m*3 10.3 C 0 km/h
1469 01-10-2020 02:20:00 10.2 C 9.14 g/m*3 10.2 C 0 km/h
1470 01-10-2020 02:25:00 10.2 C 9.14 g/m*3 10.2 C 0 km/h
1471 01-10-2020 02:30:00 10.2 C 9.14 g/m*3 10.2 C 0 km/h
1472 01-10-2020 02:35:00 10.1 C 9.08 g/m*3 10.1 C 0 km/h
1473 01-10-2020 02:40:00 10.1 C 9.08 g/m*3 10.1 C 0 km/h
1474 01-10-2020 02:45:00 10 C 9.02 g/m*3 10 C 1.6 km/h
1475 01-10-2020 02:50:00 10 C 9.02 g/m*3 10 C 1.6 km/h
Sensor: Nr:Datum:Temp:Abs-Feuchte:Windchill:Wind:
Aussen-T/F 1476 01-10-2020 02:55:00 9.9 C 8.96 g/m*3 9.9 C 1.6 km/h
1477 01-10-2020 03:00:00 9.9 C 8.96 g/m*3 9.9 C 0 km/h
1478 01-10-2020 03:05:00 9.9 C 8.96 g/m*3 9.9 C 0 km/h
1479 01-10-2020 03:10:00 9.9 C 8.96 g/m*3 9.9 C 0 km/h
1480 01-10-2020 03:15:00 9.9 C 8.96 g/m*3 9.9 C 0 km/h
1481 01-10-2020 03:20:00 9.9 C 8.96 g/m*3 9.9 C 0 km/h
1482 01-10-2020 03:25:00 9.9 C 8.96 g/m*3 9.9 C 1.6 km/h
1483 01-10-2020 03:30:00 9.9 C 8.96 g/m*3 9.9 C 0 km/h
1484 01-10-2020 03:35:00 9.8 C 8.91 g/m*3 9.8 C 0 km/h
1485 01-10-2020 03:40:00 9.8 C 8.91 g/m*3 9.8 C 0 km/h
1486 01-10-2020 03:45:00 9.8 C 8.91 g/m*3 9.8 C 0 km/h
1487 01-10-2020 03:50:00 9.8 C 8.91 g/m*3 9.8 C 0 km/h
1488 01-10-2020 03:55:00 9.8 C 8.91 g/m*3 9.8 C 0 km/h
1489 01-10-2020 04:00:00 9.8 C 8.91 g/m*3 9.8 C 0 km/h
1490 01-10-2020 04:05:00 9.8 C 8.91 g/m*3 9.8 C 0 km/h
1491 01-10-2020 04:10:00 9.8 C 8.91 g/m*3 9.8 C 0 km/h
1492 01-10-2020 04:15:00 9.8 C 8.91 g/m*3 9.8 C 0 km/h
1493 01-10-2020 04:20:00 9.9 C 8.96 g/m*3 9.9 C 0 km/h
1494 01-10-2020 04:25:00 9.9 C 8.96 g/m*3 9.9 C 0 km/h
1495 01-10-2020 04:30:00 9.9 C 8.96 g/m*3 9.9 C 0 km/h
1496 01-10-2020 04:35:00 9.9 C 8.96 g/m*3 9.9 C 0 km/h
1497 01-10-2020 04:40:00 9.9 C 9.06 g/m*3 9.9 C 0 km/h
1498 01-10-2020 04:45:00 10 C 9.11 g/m*3 10 C 0 km/h
1499 01-10-2020 04:50:00 10.1 C 9.17 g/m*3 10.1 C 0 km/h
1500 01-10-2020 04:55:00 10.2 C 9.23 g/m*3 10.2 C 0 km/h
Sensor: Nr:Datum:Temp:Abs-Feuchte:Windchill:Wind:
Aussen-T/F 1501 01-10-2020 05:00:00 10.3 C 9.29 g/m*3 10.3 C 0 km/h
1502 01-10-2020 05:05:00 10.5 C 9.41 g/m*3 10.5 C 0 km/h
1503 01-10-2020 05:10:00 10.6 C 9.47 g/m*3 10.6 C 0 km/h
1504 01-10-2020 05:15:00 10.6 C 9.47 g/m*3 10.6 C 0 km/h
1505 01-10-2020 05:20:00 10.6 C 9.47 g/m*3 10.6 C 0 km/h
1506 01-10-2020 05:25:00 10.6 C 9.47 g/m*3 10.6 C 0 km/h
1507 01-10-2020 05:30:00 10.5 C 9.41 g/m*3 10.5 C 0 km/h
1508 01-10-2020 05:35:00 10.5 C 9.41 g/m*3 10.5 C 0 km/h
1509 01-10-2020 05:40:00 10.5 C 9.41 g/m*3 10.5 C 0 km/h
1510 01-10-2020 05:45:00 10.4 C 9.35 g/m*3 10.4 C 0 km/h
1511 01-10-2020 05:50:00 10.4 C 9.35 g/m*3 10.4 C 0 km/h
1512 01-10-2020 05:55:00 10.3 C 9.19 g/m*3 10.3 C 0 km/h
1513 01-10-2020 06:00:00 10.1 C 9.08 g/m*3 10.1 C 0 km/h
1514 01-10-2020 06:05:00 9.9 C 8.96 g/m*3 9.9 C 0 km/h
1515 01-10-2020 06:10:00 9.8 C 8.91 g/m*3 9.8 C 0 km/h
1516 01-10-2020 06:15:00 9.8 C 8.91 g/m*3 9.8 C 0 km/h
1517 01-10-2020 06:20:00 9.8 C 9 g/m*3 9.8 C 0 km/h
1518 01-10-2020 06:25:00 9.8 C 9 g/m*3 9.8 C 0 km/h
1519 01-10-2020 06:30:00 9.8 C 9 g/m*3 9.8 C 3.2 km/h
1520 01-10-2020 06:35:00 9.8 C 9 g/m*3 9.8 C 0 km/h
1521 01-10-2020 06:40:00 9.8 C 9 g/m*3 9.8 C 0 km/h
1522 01-10-2020 06:45:00 9.8 C 9 g/m*3 9.8 C 0 km/h
1523 01-10-2020 06:50:00 9.7 C 8.94 g/m*3 9.7 C 0 km/h
1524 01-10-2020 06:55:00 9.7 C 8.94 g/m*3 9.7 C 0 km/h
1525 01-10-2020 07:00:00 9.7 C 8.94 g/m*3 9.7 C 0 km/h
Sensor: Nr:Datum:Temp:Abs-Feuchte:Windchill:Wind:
Aussen-T/F 1526 01-10-2020 07:05:00 9.7 C 8.85 g/m*3 9.7 C 0 km/h
1527 01-10-2020 07:10:00 9.5 C 8.74 g/m*3 9.5 C 0 km/h
1528 01-10-2020 07:15:00 9.4 C 8.68 g/m*3 9.4 C 0 km/h
1529 01-10-2020 07:20:00 9.4 C 8.68 g/m*3 9.4 C 0 km/h
1530 01-10-2020 07:25:00 9.4 C 8.77 g/m*3 9.4 C 0 km/h
1531 01-10-2020 07:30:00 9.4 C 8.77 g/m*3 9.4 C 0 km/h
1532 01-10-2020 07:35:00 9.4 C 8.77 g/m*3 9.4 C 0 km/h
1533 01-10-2020 07:40:00 9.5 C 8.83 g/m*3 9.5 C 0 km/h
1534 01-10-2020 07:45:00 9.6 C 8.89 g/m*3 9.6 C 0 km/h
1535 01-10-2020 07:50:00 9.6 C 8.89 g/m*3 9.6 C 0 km/h
1536 01-10-2020 07:55:00 9.6 C 8.89 g/m*3 9.6 C 0 km/h
1537 01-10-2020 08:00:00 9.7 C 8.94 g/m*3 9.7 C 0 km/h
1538 01-10-2020 08:05:00 9.8 C 9 g/m*3 9.8 C 0 km/h
1539 01-10-2020 08:10:00 9.8 C 9 g/m*3 9.8 C 0 km/h
1540 01-10-2020 08:15:00 10 C 9.11 g/m*3 10 C 0 km/h
1541 01-10-2020 08:20:00 10 C 9.11 g/m*3 10 C 0 km/h
1542 01-10-2020 08:25:00 10.1 C 9.17 g/m*3 10.1 C 0 km/h
1543 01-10-2020 08:30:00 10.1 C 9.17 g/m*3 10.1 C 0 km/h
1544 01-10-2020 08:35:00 10.2 C 9.23 g/m*3 10.2 C 0 km/h
1545 01-10-2020 08:40:00 10.2 C 9.23 g/m*3 10.2 C 0 km/h
1546 01-10-2020 08:45:00 10.2 C 9.23 g/m*3 10.2 C 0 km/h
1547 01-10-2020 08:50:00 10.3 C 9.29 g/m*3 10.3 C 0 km/h
1548 01-10-2020 08:55:00 10.3 C 9.29 g/m*3 10.3 C 0 km/h
1549 01-10-2020 09:00:00 10.3 C 9.29 g/m*3 10.3 C 0 km/h
1550 01-10-2020 09:05:00 10.4 C 9.35 g/m*3 10.4 C 0 km/h
Sensor: Nr:Datum:Temp:Abs-Feuchte:Windchill:Wind:
Aussen-T/F 1551 01-10-2020 09:10:00 10.4 C 9.35 g/m*3 10.4 C 0 km/h
1552 01-10-2020 09:15:00 10.6 C 9.47 g/m*3 10.6 C 0 km/h
1553 01-10-2020 09:20:00 10.7 C 9.53 g/m*3 10.7 C 0 km/h
1554 01-10-2020 09:25:00 10.8 C 9.59 g/m*3 10.8 C 0 km/h
1555 01-10-2020 09:30:00 10.9 C 9.65 g/m*3 10.9 C 0 km/h
1556 01-10-2020 09:35:00 10.9 C 9.65 g/m*3 10.9 C 0 km/h
1557 01-10-2020 09:40:00 11.1 C 9.77 g/m*3 11.1 C 0 km/h
1558 01-10-2020 09:45:00 11.1 C 9.77 g/m*3 11.1 C 0 km/h
1559 01-10-2020 09:50:00 11.2 C 9.83 g/m*3 11.2 C 0 km/h
1560 01-10-2020 09:55:00 11.3 C 9.89 g/m*3 11.3 C 0 km/h
1561 01-10-2020 10:00:00 11.4 C 9.96 g/m*3 11.4 C 0 km/h
1562 01-10-2020 10:05:00 11.4 C 9.96 g/m*3 11.4 C 1.6 km/h
1563 01-10-2020 10:10:00 11.5 C 10.02 g/m*3 11.5 C 0 km/h
1564 01-10-2020 10:15:00 11.7 C 10.15 g/m*3 11.7 C 0 km/h
1565 01-10-2020 10:20:00 11.9 C 10.38 g/m*3 11.9 C 0 km/h
1566 01-10-2020 10:25:00 12.1 C 10.51 g/m*3 12.1 C 0 km/h
1567 01-10-2020 10:30:00 12.3 C 10.64 g/m*3 12.3 C 0 km/h
1568 01-10-2020 10:35:00 12.6 C 10.84 g/m*3 12.6 C 6.4 km/h
1569 01-10-2020 10:40:00 12.7 C 10.91 g/m*3 12.7 C 6.4 km/h
1570 01-10-2020 10:45:00 12.9 C 11.05 g/m*3 12.9 C 4.8 km/h
1571 01-10-2020 10:50:00 13.2 C 11.25 g/m*3 13.2 C 11.3 km/h
1572 01-10-2020 10:55:00 13.3 C 11.32 g/m*3 13.3 C 4.8 km/h
1573 01-10-2020 11:00:00 13.4 C 11.28 g/m*3 13.4 C 1.6 km/h
1574 01-10-2020 11:05:00 13.5 C 11.35 g/m*3 13.5 C 4.8 km/h
1575 01-10-2020 11:10:00 13.5 C 11.23 g/m*3 13.5 C 3.2 km/h
Sensor: Nr:Datum:Temp:Abs-Feuchte:Windchill:Wind:
Aussen-T/F 1576 01-10-2020 11:15:00 13.6 C 11.18 g/m*3 13.6 C 0 km/h
1577 01-10-2020 11:20:00 13.7 C 11.25 g/m*3 13.7 C 4.8 km/h
1578 01-10-2020 11:25:00 13.8 C 11.2 g/m*3 13.8 C 3.2 km/h
1579 01-10-2020 11:30:00 14.1 C 11.41 g/m*3 14.1 C 3.2 km/h
1580 01-10-2020 11:35:00 14.3 C 11.43 g/m*3 14.3 C 1.6 km/h
1581 01-10-2020 11:40:00 14.5 C 11.44 g/m*3 14.5 C 4.8 km/h
1582 01-10-2020 11:45:00 14.7 C 11.58 g/m*3 14.7 C 0 km/h
1583 01-10-2020 11:50:00 14.8 C 11.53 g/m*3 14.8 C 3.2 km/h
1584 01-10-2020 11:55:00 15.1 C 11.61 g/m*3 15.1 C 3.2 km/h
1585 01-10-2020 12:00:00 15.2 C 11.55 g/m*3 15.2 C 6.4 km/h
1586 01-10-2020 12:05:00 15.4 C 11.69 g/m*3 15.4 C 4.8 km/h
1587 01-10-2020 12:10:00 15.6 C 11.7 g/m*3 15.6 C 1.6 km/h
1588 01-10-2020 12:15:00 15.7 C 11.64 g/m*3 15.7 C 1.6 km/h
1589 01-10-2020 12:20:00 15.8 C 11.58 g/m*3 15.8 C 4.8 km/h
1590 01-10-2020 12:25:00 15.9 C 11.65 g/m*3 15.9 C 3.2 km/h
1591 01-10-2020 12:30:00 16.1 C 11.65 g/m*3 16.1 C 6.4 km/h
1592 01-10-2020 12:35:00 16.3 C 11.79 g/m*3 16.3 C 4.8 km/h
1593 01-10-2020 12:40:00 16.4 C 11.86 g/m*3 16.4 C 3.2 km/h
1594 01-10-2020 12:45:00 16.6 C 11.87 g/m*3 16.6 C 4.8 km/h
1595 01-10-2020 12:50:00 16.7 C 11.8 g/m*3 16.7 C 6.4 km/h
1596 01-10-2020 12:55:00 16.8 C 11.87 g/m*3 16.8 C 3.2 km/h
1597 01-10-2020 13:00:00 16.8 C 11.87 g/m*3 16.8 C 4.8 km/h
1598 01-10-2020 13:05:00 16.9 C 11.79 g/m*3 16.9 C 4.8 km/h
1599 01-10-2020 13:10:00 16.9 C 11.65 g/m*3 16.9 C 9.7 km/h
1600 01-10-2020 13:15:00 16.9 C 11.65 g/m*3 16.9 C 6.4 km/h
Sensor: Nr:Datum:Temp:Abs-Feuchte:Windchill:Wind:
Aussen-T/F 1601 01-10-2020 13:20:00 16.9 C 11.65 g/m*3 16.9 C 8.1 km/h
1602 01-10-2020 13:25:00 16.9 C 11.65 g/m*3 16.9 C 4.8 km/h
1603 01-10-2020 13:30:00 16.9 C 11.65 g/m*3 16.9 C 1.6 km/h
1604 01-10-2020 13:35:00 16.9 C 11.65 g/m*3 16.9 C 3.2 km/h
1605 01-10-2020 13:40:00 16.9 C 11.51 g/m*3 16.9 C 3.2 km/h
1606 01-10-2020 13:45:00 17.1 C 11.79 g/m*3 17.1 C 4.8 km/h
1607 01-10-2020 13:50:00 17.2 C 11.72 g/m*3 17.2 C 6.4 km/h
1608 01-10-2020 13:55:00 17.2 C 11.57 g/m*3 17.2 C 6.4 km/h
1609 01-10-2020 14:00:00 17.2 C 11.42 g/m*3 17.2 C 6.4 km/h
1610 01-10-2020 14:05:00 17.2 C 11.72 g/m*3 17.2 C 0 km/h
1611 01-10-2020 14:10:00 17.2 C 11.72 g/m*3 17.2 C 1.6 km/h
1612 01-10-2020 14:15:00 17.1 C 11.65 g/m*3 17.1 C 1.6 km/h
1613 01-10-2020 14:20:00 17 C 11.43 g/m*3 17 C 3.2 km/h
1614 01-10-2020 14:25:00 16.9 C 11.51 g/m*3 16.9 C 1.6 km/h
1615 01-10-2020 14:30:00 16.8 C 11.44 g/m*3 16.8 C 0 km/h
1616 01-10-2020 14:35:00 16.8 C 11.44 g/m*3 16.8 C 1.6 km/h
1617 01-10-2020 14:40:00 16.7 C 11.37 g/m*3 16.7 C 3.2 km/h
1618 01-10-2020 14:45:00 16.7 C 11.37 g/m*3 16.7 C 3.2 km/h
1619 01-10-2020 14:50:00 16.6 C 11.44 g/m*3 16.6 C 1.6 km/h
1620 01-10-2020 14:55:00 16.7 C 11.8 g/m*3 16.7 C 1.6 km/h
1621 01-10-2020 15:00:00 16.6 C 12.01 g/m*3 16.6 C 4.8 km/h
1622 01-10-2020 15:05:00 16.6 C 12.15 g/m*3 16.6 C 0 km/h
1623 01-10-2020 15:10:00 16.4 C 12 g/m*3 16.4 C 1.6 km/h
1624 01-10-2020 15:15:00 16.3 C 12.07 g/m*3 16.3 C 0 km/h
1625 01-10-2020 15:20:00 16.2 C 12.14 g/m*3 16.2 C 0 km/h
Sensor: Nr:Datum:Temp:Abs-Feuchte:Windchill:Wind:
Aussen-T/F 1626 01-10-2020 15:25:00 15.9 C 11.92 g/m*3 15.9 C 1.6 km/h
1627 01-10-2020 15:30:00 15.7 C 11.77 g/m*3 15.7 C 6.4 km/h
1628 01-10-2020 15:35:00 15.5 C 11.63 g/m*3 15.5 C 3.2 km/h
1629 01-10-2020 15:40:00 15.4 C 11.69 g/m*3 15.4 C 0 km/h
1630 01-10-2020 15:45:00 15.4 C 11.82 g/m*3 15.4 C 1.6 km/h
1631 01-10-2020 15:50:00 15.4 C 11.82 g/m*3 15.4 C 0 km/h
1632 01-10-2020 15:55:00 15.4 C 11.96 g/m*3 15.4 C 0 km/h
1633 01-10-2020 16:00:00 15.4 C 11.96 g/m*3 15.4 C 0 km/h
1634 01-10-2020 16:05:00 15.4 C 11.96 g/m*3 15.4 C 3.2 km/h
1635 01-10-2020 16:10:00 15.3 C 11.88 g/m*3 15.3 C 1.6 km/h
1636 01-10-2020 16:15:00 15.3 C 11.88 g/m*3 15.3 C 3.2 km/h
1637 01-10-2020 16:20:00 15.3 C 11.88 g/m*3 15.3 C 1.6 km/h
1638 01-10-2020 16:25:00 15.3 C 11.88 g/m*3 15.3 C 0 km/h
1639 01-10-2020 16:30:00 15.2 C 11.81 g/m*3 15.2 C 1.6 km/h
1640 01-10-2020 16:35:00 15.3 C 11.88 g/m*3 15.3 C 0 km/h
1641 01-10-2020 16:40:00 15.2 C 11.81 g/m*3 15.2 C 1.6 km/h
1642 01-10-2020 16:45:00 15.2 C 11.94 g/m*3 15.2 C 0 km/h
1643 01-10-2020 16:50:00 15.2 C 11.81 g/m*3 15.2 C 3.2 km/h
1644 01-10-2020 16:55:00 15.2 C 11.94 g/m*3 15.2 C 0 km/h
1645 01-10-2020 17:00:00 15.2 C 11.94 g/m*3 15.2 C 0 km/h
1646 01-10-2020 17:05:00 15.1 C 11.87 g/m*3 15.1 C 0 km/h
1647 01-10-2020 17:10:00 15.1 C 12 g/m*3 15.1 C 0 km/h
1648 01-10-2020 17:15:00 15.1 C 11.87 g/m*3 15.1 C 0 km/h
1649 01-10-2020 17:20:00 15.1 C 12 g/m*3 15.1 C 0 km/h
1650 01-10-2020 17:25:00 15.2 C 12.07 g/m*3 15.2 C 0 km/h
Sensor: Nr:Datum:Temp:Abs-Feuchte:Windchill:Wind:
Aussen-T/F 1651 01-10-2020 17:30:00 15.2 C 12.07 g/m*3 15.2 C 0 km/h
1652 01-10-2020 17:35:00 15.3 C 12.14 g/m*3 15.3 C 0 km/h
1653 01-10-2020 17:40:00 15.3 C 12.14 g/m*3 15.3 C 1.6 km/h
1654 01-10-2020 17:45:00 15.4 C 12.22 g/m*3 15.4 C 1.6 km/h
1655 01-10-2020 17:50:00 15.4 C 12.22 g/m*3 15.4 C 4.8 km/h
1656 01-10-2020 17:55:00 15.4 C 12.22 g/m*3 15.4 C 0 km/h
1657 01-10-2020 18:00:00 15.6 C 12.5 g/m*3 15.6 C 3.2 km/h
1658 01-10-2020 18:05:00 15.8 C 12.65 g/m*3 15.8 C 4.8 km/h
1659 01-10-2020 18:10:00 16.3 C 13.04 g/m*3 16.3 C 0 km/h
1660 01-10-2020 18:15:00 16.5 C 12.78 g/m*3 16.5 C 3.2 km/h
1661 01-10-2020 18:20:00 16.5 C 12.64 g/m*3 16.5 C 1.6 km/h
1662 01-10-2020 18:25:00 16.4 C 12.42 g/m*3 16.4 C 0 km/h
1663 01-10-2020 18:30:00 16.4 C 12.42 g/m*3 16.4 C 0 km/h
1664 01-10-2020 18:35:00 16.3 C 12.49 g/m*3 16.3 C 1.6 km/h
1665 01-10-2020 18:40:00 16.1 C 12.2 g/m*3 16.1 C 3.2 km/h
1666 01-10-2020 18:45:00 15.8 C 11.98 g/m*3 15.8 C 4.8 km/h
1667 01-10-2020 18:50:00 15.6 C 11.84 g/m*3 15.6 C 4.8 km/h
1668 01-10-2020 18:55:00 15.3 C 11.62 g/m*3 15.3 C 8.1 km/h
1669 01-10-2020 19:00:00 15 C 11.41 g/m*3 15 C 4.8 km/h
1670 01-10-2020 19:05:00 14.7 C 11.33 g/m*3 14.7 C 6.4 km/h
1671 01-10-2020 19:10:00 14.4 C 11.13 g/m*3 14.4 C 4.8 km/h
1672 01-10-2020 19:15:00 14.2 C 10.99 g/m*3 14.2 C 3.2 km/h
1673 01-10-2020 19:20:00 14 C 10.86 g/m*3 14 C 0 km/h
1674 01-10-2020 19:25:00 13.8 C 10.72 g/m*3 13.8 C 3.2 km/h
1675 01-10-2020 19:30:00 13.6 C 10.59 g/m*3 13.6 C 3.2 km/h
Sensor: Nr:Datum:Temp:Abs-Feuchte:Windchill:Wind:
Aussen-T/F 1676 01-10-2020 19:35:00 13.3 C 10.51 g/m*3 13.3 C 4.8 km/h
1677 01-10-2020 19:40:00 13.2 C 10.45 g/m*3 13.2 C 4.8 km/h
1678 01-10-2020 19:45:00 13.1 C 10.5 g/m*3 13.1 C 4.8 km/h
1679 01-10-2020 19:50:00 12.9 C 10.37 g/m*3 12.9 C 6.4 km/h
1680 01-10-2020 19:55:00 12.8 C 10.42 g/m*3 12.8 C 4.8 km/h
1681 01-10-2020 20:00:00 12.7 C 10.24 g/m*3 12.7 C 6.4 km/h
1682 01-10-2020 20:05:00 12.6 C 10.29 g/m*3 12.6 C 3.2 km/h
1683 01-10-2020 20:10:00 12.5 C 10.22 g/m*3 12.5 C 4.8 km/h
1684 01-10-2020 20:15:00 12.4 C 10.16 g/m*3 12.4 C 4.8 km/h
1685 01-10-2020 20:20:00 12.4 C 10.16 g/m*3 12.4 C 4.8 km/h
1686 01-10-2020 20:25:00 12.3 C 10.21 g/m*3 12.3 C 4.8 km/h
1687 01-10-2020 20:30:00 12.2 C 10.04 g/m*3 12.2 C 3.2 km/h
1688 01-10-2020 20:35:00 12.2 C 10.14 g/m*3 12.2 C 3.2 km/h
1689 01-10-2020 20:40:00 12.2 C 10.14 g/m*3 12.2 C 1.6 km/h
1690 01-10-2020 20:45:00 12.2 C 10.14 g/m*3 12.2 C 3.2 km/h
1691 01-10-2020 20:50:00 12.2 C 10.14 g/m*3 12.2 C 0 km/h
1692 01-10-2020 20:55:00 12.2 C 10.25 g/m*3 12.2 C 1.6 km/h
1693 01-10-2020 21:00:00 12.3 C 10.32 g/m*3 12.3 C 3.2 km/h
1694 01-10-2020 21:05:00 12.3 C 10.32 g/m*3 12.3 C 1.6 km/h
1695 01-10-2020 21:10:00 12.4 C 10.38 g/m*3 12.4 C 0 km/h
1696 01-10-2020 21:15:00 12.4 C 10.38 g/m*3 12.4 C 1.6 km/h
1697 01-10-2020 21:20:00 12.7 C 10.69 g/m*3 12.7 C 17.7 km/h
1698 01-10-2020 21:25:00 12.6 C 10.51 g/m*3 12.6 C 8.1 km/h
1699 01-10-2020 21:30:00 12.4 C 10.38 g/m*3 12.4 C 6.4 km/h
1700 01-10-2020 21:35:00 12.3 C 10.32 g/m*3 12.3 C 4.8 km/h
Sensor: Nr:Datum:Temp:Abs-Feuchte:Windchill:Wind:
Aussen-T/F 1701 01-10-2020 21:40:00 12.2 C 10.25 g/m*3 12.2 C 1.6 km/h
1702 01-10-2020 21:45:00 12.2 C 10.25 g/m*3 12.2 C 3.2 km/h
1703 01-10-2020 21:50:00 12.1 C 10.19 g/m*3 12.1 C 0 km/h
1704 01-10-2020 21:55:00 12.1 C 10.19 g/m*3 12.1 C 0 km/h
1705 01-10-2020 22:00:00 11.9 C 10.06 g/m*3 11.9 C 0 km/h
1706 01-10-2020 22:05:00 11.9 C 10.06 g/m*3 11.9 C 1.6 km/h
1707 01-10-2020 22:10:00 11.8 C 10 g/m*3 11.8 C 3.2 km/h
1708 01-10-2020 22:15:00 11.8 C 10 g/m*3 11.8 C 0 km/h
1709 01-10-2020 22:20:00 11.7 C 9.94 g/m*3 11.7 C 0 km/h
1710 01-10-2020 22:25:00 11.6 C 9.87 g/m*3 11.6 C 3.2 km/h
1711 01-10-2020 22:30:00 11.4 C 9.75 g/m*3 11.4 C 0 km/h
1712 01-10-2020 22:35:00 11.3 C 9.69 g/m*3 11.3 C 0 km/h
1713 01-10-2020 22:40:00 11.2 C 9.63 g/m*3 11.2 C 0 km/h
1714 01-10-2020 22:45:00 11.1 C 9.57 g/m*3 11.1 C 1.6 km/h
1715 01-10-2020 22:50:00 11.1 C 9.57 g/m*3 11.1 C 6.4 km/h
1716 01-10-2020 22:55:00 10.9 C 9.45 g/m*3 10.9 C 3.2 km/h
1717 01-10-2020 23:00:00 10.9 C 9.45 g/m*3 10.9 C 3.2 km/h
1718 01-10-2020 23:05:00 10.8 C 9.39 g/m*3 10.8 C 4.8 km/h
1719 01-10-2020 23:10:00 10.8 C 9.39 g/m*3 9.64 C 9.7 km/h
1720 01-10-2020 23:15:00 10.8 C 9.49 g/m*3 9.93 C 8.1 km/h
1721 01-10-2020 23:20:00 10.8 C 9.49 g/m*3 10.29 C 6.4 km/h
1722 01-10-2020 23:25:00 10.8 C 9.49 g/m*3 10.8 C 4.8 km/h
1723 01-10-2020 23:30:00 10.8 C 9.49 g/m*3 10.8 C 4.8 km/h
1724 01-10-2020 23:35:00 10.8 C 9.49 g/m*3 10.8 C 3.2 km/h
1725 01-10-2020 23:40:00 10.8 C 9.49 g/m*3 10.8 C 0 km/h
Sensor: Nr:Datum:Temp:Abs-Feuchte:Windchill:Wind:
Aussen-T/F 1726 01-10-2020 23:45:00 10.8 C 9.49 g/m*3 10.8 C 1.6 km/h
1727 01-10-2020 23:50:00 10.9 C 9.55 g/m*3 10.9 C 0 km/h
1728 01-10-2020 23:55:00 10.9 C 9.55 g/m*3 10.41 C 6.4 km/h
1729 02-10-2020 00:00:00 11 C 9.61 g/m*3 10.52 C 6.4 km/h
1730 02-10-2020 00:05:00 11 C 9.61 g/m*3 11 C 4.8 km/h
1731 02-10-2020 00:10:00 10.9 C 9.55 g/m*3 10.9 C 3.2 km/h
1732 02-10-2020 00:15:00 10.8 C 9.49 g/m*3 10.8 C 0 km/h
1733 02-10-2020 00:20:00 10.7 C 9.43 g/m*3 10.7 C 0 km/h
1734 02-10-2020 00:25:00 10.6 C 9.37 g/m*3 10.6 C 3.2 km/h
1735 02-10-2020 00:30:00 10.4 C 9.16 g/m*3 10.4 C 4.8 km/h
1736 02-10-2020 00:35:00 10.2 C 9.04 g/m*3 10.2 C 3.2 km/h
1737 02-10-2020 00:40:00 10.2 C 9.14 g/m*3 10.2 C 0 km/h
1738 02-10-2020 00:45:00 10.1 C 9.08 g/m*3 10.1 C 0 km/h
1739 02-10-2020 00:50:00 10.1 C 9.08 g/m*3 10.1 C 0 km/h
1740 02-10-2020 00:55:00 10 C 9.02 g/m*3 10 C 0 km/h
1741 02-10-2020 01:00:00 9.9 C 8.96 g/m*3 9.9 C 0 km/h
1742 02-10-2020 01:05:00 9.9 C 8.96 g/m*3 9.9 C 0 km/h
1743 02-10-2020 01:10:00 9.9 C 8.96 g/m*3 9.9 C 0 km/h
1744 02-10-2020 01:15:00 10 C 9.02 g/m*3 10 C 0 km/h
1745 02-10-2020 01:20:00 10 C 9.02 g/m*3 10 C 0 km/h
1746 02-10-2020 01:25:00 9.9 C 8.96 g/m*3 9.9 C 0 km/h
1747 02-10-2020 01:30:00 9.9 C 8.96 g/m*3 9.9 C 0 km/h
1748 02-10-2020 01:35:00 9.9 C 8.96 g/m*3 9.9 C 0 km/h
1749 02-10-2020 01:40:00 9.8 C 8.91 g/m*3 9.8 C 0 km/h
1750 02-10-2020 01:45:00 9.8 C 8.91 g/m*3 9.8 C 0 km/h
Sensor: Nr:Datum:Temp:Abs-Feuchte:Windchill:Wind:
Aussen-T/F 1751 02-10-2020 01:50:00 9.7 C 8.85 g/m*3 9.7 C 0 km/h
1752 02-10-2020 01:55:00 9.6 C 8.79 g/m*3 9.6 C 0 km/h
1753 02-10-2020 02:00:00 9.6 C 8.79 g/m*3 9.6 C 0 km/h
1754 02-10-2020 02:05:00 9.5 C 8.74 g/m*3 9.5 C 0 km/h
1755 02-10-2020 02:10:00 9.4 C 8.68 g/m*3 9.4 C 0 km/h
1756 02-10-2020 02:15:00 9.3 C 8.63 g/m*3 9.3 C 0 km/h
1757 02-10-2020 02:20:00 9.3 C 8.63 g/m*3 9.3 C 0 km/h
1758 02-10-2020 02:25:00 9.2 C 8.57 g/m*3 9.2 C 0 km/h
1759 02-10-2020 02:30:00 9.2 C 8.57 g/m*3 9.2 C 0 km/h
1760 02-10-2020 02:35:00 9.1 C 8.52 g/m*3 9.1 C 0 km/h
1761 02-10-2020 02:40:00 9.1 C 8.52 g/m*3 9.1 C 0 km/h
1762 02-10-2020 02:45:00 9 C 8.46 g/m*3 9 C 0 km/h
1763 02-10-2020 02:50:00 9 C 8.46 g/m*3 9 C 0 km/h
1764 02-10-2020 02:55:00 8.9 C 8.41 g/m*3 8.9 C 0 km/h
1765 02-10-2020 03:00:00 9 C 8.46 g/m*3 9 C 0 km/h
1766 02-10-2020 03:05:00 9.1 C 8.52 g/m*3 9.1 C 0 km/h
1767 02-10-2020 03:10:00 8.9 C 8.41 g/m*3 8.9 C 0 km/h
1768 02-10-2020 03:15:00 8.9 C 8.41 g/m*3 8.9 C 0 km/h
1769 02-10-2020 03:20:00 8.8 C 8.36 g/m*3 8.8 C 0 km/h
1770 02-10-2020 03:25:00 8.7 C 8.3 g/m*3 8.7 C 0 km/h
1771 02-10-2020 03:30:00 8.6 C 8.25 g/m*3 8.6 C 0 km/h
1772 02-10-2020 03:35:00 8.6 C 8.25 g/m*3 8.6 C 0 km/h
1773 02-10-2020 03:40:00 8.5 C 8.2 g/m*3 8.5 C 0 km/h
1774 02-10-2020 03:45:00 8.4 C 8.14 g/m*3 8.4 C 0 km/h
1775 02-10-2020 03:50:00 8.3 C 8.09 g/m*3 8.3 C 0 km/h
Sensor: Nr:Datum:Temp:Abs-Feuchte:Windchill:Wind:
Aussen-T/F 1776 02-10-2020 03:55:00 8.3 C 8.09 g/m*3 8.3 C 0 km/h
1777 02-10-2020 04:00:00 8.2 C 8.04 g/m*3 8.2 C 0 km/h
1778 02-10-2020 04:05:00 8.2 C 8.04 g/m*3 8.2 C 0 km/h
1779 02-10-2020 04:10:00 8.1 C 7.99 g/m*3 8.1 C 0 km/h
1780 02-10-2020 04:15:00 8.1 C 7.99 g/m*3 8.1 C 0 km/h
1781 02-10-2020 04:20:00 8 C 7.94 g/m*3 8 C 0 km/h
1782 02-10-2020 04:25:00 8.1 C 7.99 g/m*3 8.1 C 0 km/h
1783 02-10-2020 04:30:00 8 C 7.94 g/m*3 8 C 0 km/h
1784 02-10-2020 04:35:00 7.9 C 7.89 g/m*3 7.9 C 0 km/h
1785 02-10-2020 04:40:00 7.9 C 7.89 g/m*3 7.9 C 0 km/h
1786 02-10-2020 04:45:00 7.9 C 7.89 g/m*3 7.9 C 0 km/h
1787 02-10-2020 04:50:00 7.8 C 7.83 g/m*3 7.8 C 0 km/h
1788 02-10-2020 04:55:00 7.8 C 7.83 g/m*3 7.8 C 0 km/h
1789 02-10-2020 05:00:00 7.8 C 7.83 g/m*3 7.8 C 0 km/h
1790 02-10-2020 05:05:00 7.8 C 7.83 g/m*3 7.8 C 0 km/h
1791 02-10-2020 05:10:00 7.8 C 7.83 g/m*3 7.8 C 0 km/h
1792 02-10-2020 05:15:00 7.8 C 7.83 g/m*3 7.8 C 0 km/h
1793 02-10-2020 05:20:00 7.8 C 7.83 g/m*3 7.8 C 0 km/h
1794 02-10-2020 05:25:00 7.8 C 7.83 g/m*3 7.8 C 0 km/h
1795 02-10-2020 05:30:00 7.8 C 7.83 g/m*3 7.8 C 0 km/h
1796 02-10-2020 05:35:00 7.8 C 7.83 g/m*3 7.8 C 0 km/h
1797 02-10-2020 05:40:00 7.8 C 7.92 g/m*3 7.8 C 0 km/h
1798 02-10-2020 05:45:00 7.8 C 7.92 g/m*3 7.8 C 0 km/h
1799 02-10-2020 05:50:00 7.8 C 7.92 g/m*3 7.8 C 0 km/h
1800 02-10-2020 05:55:00 7.8 C 7.92 g/m*3 7.8 C 0 km/h
Sensor: Nr:Datum:Temp:Abs-Feuchte:Windchill:Wind:
Aussen-T/F 1801 02-10-2020 06:00:00 7.9 C 7.97 g/m*3 7.9 C 0 km/h
1802 02-10-2020 06:05:00 7.9 C 7.97 g/m*3 7.9 C 0 km/h
1803 02-10-2020 06:10:00 7.9 C 7.97 g/m*3 7.9 C 0 km/h
1804 02-10-2020 06:15:00 7.9 C 7.97 g/m*3 7.9 C 0 km/h
1805 02-10-2020 06:20:00 7.9 C 7.97 g/m*3 7.9 C 0 km/h
1806 02-10-2020 06:25:00 7.9 C 7.97 g/m*3 7.9 C 0 km/h
1807 02-10-2020 06:30:00 8 C 8.02 g/m*3 8 C 0 km/h
1808 02-10-2020 06:35:00 8.1 C 8.07 g/m*3 8.1 C 0 km/h
1809 02-10-2020 06:40:00 8.3 C 8.18 g/m*3 8.3 C 0 km/h
1810 02-10-2020 06:45:00 8.5 C 8.28 g/m*3 8.5 C 0 km/h
1811 02-10-2020 06:50:00 8.6 C 8.34 g/m*3 8.6 C 0 km/h
1812 02-10-2020 06:55:00 8.7 C 8.39 g/m*3 8.7 C 0 km/h
1813 02-10-2020 07:00:00 8.7 C 8.39 g/m*3 8.7 C 0 km/h
1814 02-10-2020 07:05:00 8.7 C 8.39 g/m*3 8.7 C 0 km/h
1815 02-10-2020 07:10:00 8.7 C 8.39 g/m*3 8.7 C 0 km/h
1816 02-10-2020 07:15:00 8.6 C 8.34 g/m*3 8.6 C 0 km/h
1817 02-10-2020 07:20:00 8.5 C 8.28 g/m*3 8.5 C 0 km/h
1818 02-10-2020 07:25:00 8.3 C 8.18 g/m*3 8.3 C 0 km/h
1819 02-10-2020 07:30:00 8.3 C 8.18 g/m*3 8.3 C 0 km/h
1820 02-10-2020 07:35:00 8.3 C 8.18 g/m*3 8.3 C 0 km/h
1821 02-10-2020 07:40:00 8.3 C 8.18 g/m*3 8.3 C 0 km/h
1822 02-10-2020 07:45:00 8.3 C 8.18 g/m*3 8.3 C 0 km/h
1823 02-10-2020 07:50:00 8.4 C 8.23 g/m*3 8.4 C 0 km/h
1824 02-10-2020 07:55:00 8.5 C 8.28 g/m*3 8.5 C 0 km/h
1825 02-10-2020 08:00:00 8.6 C 8.34 g/m*3 8.6 C 0 km/h
Sensor: Nr:Datum:Temp:Abs-Feuchte:Windchill:Wind:
Aussen-T/F 1826 02-10-2020 08:05:00 8.8 C 8.44 g/m*3 8.8 C 0 km/h
1827 02-10-2020 08:10:00 8.9 C 8.5 g/m*3 8.9 C 0 km/h
1828 02-10-2020 08:15:00 8.9 C 8.5 g/m*3 8.9 C 0 km/h
1829 02-10-2020 08:20:00 9.1 C 8.61 g/m*3 9.1 C 0 km/h
1830 02-10-2020 08:25:00 9.2 C 8.66 g/m*3 9.2 C 0 km/h
1831 02-10-2020 08:30:00 9.2 C 8.66 g/m*3 9.2 C 0 km/h
1832 02-10-2020 08:35:00 9.3 C 8.72 g/m*3 9.3 C 0 km/h
1833 02-10-2020 08:40:00 9.4 C 8.77 g/m*3 9.4 C 0 km/h
1834 02-10-2020 08:45:00 9.6 C 8.89 g/m*3 9.6 C 0 km/h
1835 02-10-2020 08:50:00 9.6 C 8.89 g/m*3 9.6 C 0 km/h
1836 02-10-2020 08:55:00 9.7 C 8.94 g/m*3 9.7 C 0 km/h
1837 02-10-2020 09:00:00 9.8 C 9 g/m*3 9.8 C 0 km/h
1838 02-10-2020 09:05:00 9.9 C 9.15 g/m*3 9.9 C 1.6 km/h
1839 02-10-2020 09:10:00 10.1 C 9.17 g/m*3 10.1 C 3.2 km/h
1840 02-10-2020 09:15:00 10.3 C 9.39 g/m*3 10.3 C 4.8 km/h
1841 02-10-2020 09:20:00 10.4 C 9.44 g/m*3 9.83 C 6.4 km/h
1842 02-10-2020 09:25:00 10.5 C 9.41 g/m*3 10.5 C 3.2 km/h
1843 02-10-2020 09:30:00 10.6 C 9.57 g/m*3 8.92 C 12.9 km/h
1844 02-10-2020 09:35:00 10.7 C 9.63 g/m*3 10.7 C 4.8 km/h
1845 02-10-2020 09:40:00 10.8 C 9.59 g/m*3 10.8 C 1.6 km/h
1846 02-10-2020 09:45:00 11.1 C 9.87 g/m*3 11.1 C 0 km/h
1847 02-10-2020 09:50:00 11.2 C 9.93 g/m*3 11.2 C 0 km/h
1848 02-10-2020 09:55:00 11.4 C 10.06 g/m*3 11.4 C 0 km/h
1849 02-10-2020 10:00:00 11.6 C 10.19 g/m*3 11.6 C 3.2 km/h
1850 02-10-2020 10:05:00 11.6 C 10.08 g/m*3 11.6 C 1.6 km/h
Sensor: Nr:Datum:Temp:Abs-Feuchte:Windchill:Wind:
Aussen-T/F 1851 02-10-2020 10:10:00 11.6 C 10.19 g/m*3 11.6 C 3.2 km/h
1852 02-10-2020 10:15:00 11.8 C 10.21 g/m*3 11.8 C 1.6 km/h
1853 02-10-2020 10:20:00 11.8 C 10.21 g/m*3 11.8 C 1.6 km/h
1854 02-10-2020 10:25:00 11.8 C 10.31 g/m*3 11.8 C 1.6 km/h
1855 02-10-2020 10:30:00 12.1 C 10.51 g/m*3 12.1 C 1.6 km/h
1856 02-10-2020 10:35:00 12.2 C 10.47 g/m*3 12.2 C 1.6 km/h
1857 02-10-2020 10:40:00 12.3 C 10.64 g/m*3 12.3 C 1.6 km/h
1858 02-10-2020 10:45:00 12.3 C 10.53 g/m*3 12.3 C 0 km/h
1859 02-10-2020 10:50:00 12.3 C 10.53 g/m*3 12.3 C 0 km/h
1860 02-10-2020 10:55:00 12.3 C 10.53 g/m*3 12.3 C 0 km/h
1861 02-10-2020 11:00:00 12.3 C 10.53 g/m*3 12.3 C 0 km/h
1862 02-10-2020 11:05:00 12.3 C 10.53 g/m*3 12.3 C 0 km/h
1863 02-10-2020 11:10:00 12.3 C 10.53 g/m*3 12.3 C 0 km/h
1864 02-10-2020 11:15:00 12.3 C 10.53 g/m*3 12.3 C 0 km/h
1865 02-10-2020 11:20:00 12.4 C 10.6 g/m*3 12.4 C 0 km/h
1866 02-10-2020 11:25:00 12.4 C 10.6 g/m*3 12.4 C 1.6 km/h
1867 02-10-2020 11:30:00 12.6 C 10.73 g/m*3 12.6 C 4.8 km/h
1868 02-10-2020 11:35:00 12.6 C 10.73 g/m*3 12.6 C 4.8 km/h
1869 02-10-2020 11:40:00 12.6 C 10.73 g/m*3 12.6 C 6.4 km/h
1870 02-10-2020 11:45:00 12.7 C 10.8 g/m*3 12.7 C 6.4 km/h
1871 02-10-2020 11:50:00 12.9 C 10.93 g/m*3 12.9 C 6.4 km/h
1872 02-10-2020 11:55:00 13.1 C 11.07 g/m*3 13.1 C 9.7 km/h
1873 02-10-2020 12:00:00 13.1 C 10.95 g/m*3 13.1 C 11.3 km/h
1874 02-10-2020 12:05:00 13.2 C 10.91 g/m*3 13.2 C 12.9 km/h
1875 02-10-2020 12:10:00 13.4 C 11.04 g/m*3 13.4 C 8.1 km/h
Sensor: Nr:Datum:Temp:Abs-Feuchte:Windchill:Wind:
Aussen-T/F 1876 02-10-2020 12:15:00 13.6 C 11.06 g/m*3 13.6 C 14.5 km/h
1877 02-10-2020 12:20:00 13.8 C 11.08 g/m*3 13.8 C 14.5 km/h
1878 02-10-2020 12:25:00 14 C 11.22 g/m*3 14 C 12.9 km/h
1879 02-10-2020 12:30:00 14.3 C 11.3 g/m*3 14.3 C 8.1 km/h
1880 02-10-2020 12:35:00 14.5 C 11.44 g/m*3 14.5 C 6.4 km/h
1881 02-10-2020 12:40:00 14.7 C 11.46 g/m*3 14.7 C 8.1 km/h
1882 02-10-2020 12:45:00 14.9 C 11.34 g/m*3 14.9 C 11.3 km/h
1883 02-10-2020 12:50:00 15.1 C 11.35 g/m*3 15.1 C 8.1 km/h
1884 02-10-2020 12:55:00 15.3 C 11.36 g/m*3 15.3 C 8.1 km/h
1885 02-10-2020 13:00:00 15.4 C 11.43 g/m*3 15.4 C 11.3 km/h
1886 02-10-2020 13:05:00 15.5 C 11.37 g/m*3 15.5 C 8.1 km/h
1887 02-10-2020 13:10:00 15.7 C 11.51 g/m*3 15.7 C 8.1 km/h
1888 02-10-2020 13:15:00 15.8 C 11.44 g/m*3 15.8 C 9.7 km/h
1889 02-10-2020 13:20:00 15.9 C 11.38 g/m*3 15.9 C 11.3 km/h
1890 02-10-2020 13:25:00 16.1 C 11.65 g/m*3 16.1 C 9.7 km/h
1891 02-10-2020 13:30:00 16.2 C 11.58 g/m*3 16.2 C 8.1 km/h
1892 02-10-2020 13:35:00 16.3 C 11.52 g/m*3 16.3 C 6.4 km/h
1893 02-10-2020 13:40:00 16.4 C 11.86 g/m*3 16.4 C 4.8 km/h
1894 02-10-2020 13:45:00 16.6 C 11.72 g/m*3 16.6 C 6.4 km/h
1895 02-10-2020 13:50:00 16.7 C 12.08 g/m*3 16.7 C 1.6 km/h
1896 02-10-2020 13:55:00 16.8 C 11.87 g/m*3 16.8 C 0 km/h
1897 02-10-2020 14:00:00 16.9 C 11.94 g/m*3 16.9 C 3.2 km/h
1898 02-10-2020 14:05:00 17.1 C 11.94 g/m*3 17.1 C 3.2 km/h
1899 02-10-2020 14:10:00 17.2 C 11.86 g/m*3 17.2 C 4.8 km/h
1900 02-10-2020 14:15:00 17.3 C 11.93 g/m*3 17.3 C 6.4 km/h
Sensor: Nr:Datum:Temp:Abs-Feuchte:Windchill:Wind:
Aussen-T/F 1901 02-10-2020 14:20:00 17.4 C 12 g/m*3 17.4 C 4.8 km/h
1902 02-10-2020 14:25:00 17.6 C 11.85 g/m*3 17.6 C 9.7 km/h
1903 02-10-2020 14:30:00 17.8 C 12.45 g/m*3 17.8 C 8.1 km/h
1904 02-10-2020 14:35:00 17.9 C 12.06 g/m*3 17.9 C 8.1 km/h
1905 02-10-2020 14:40:00 18.1 C 11.9 g/m*3 18.1 C 14.5 km/h
1906 02-10-2020 14:45:00 18.1 C 12.21 g/m*3 18.1 C 14.5 km/h
1907 02-10-2020 14:50:00 18.2 C 11.81 g/m*3 18.2 C 14.5 km/h
1908 02-10-2020 14:55:00 18.2 C 12.12 g/m*3 18.2 C 8.1 km/h
1909 02-10-2020 15:00:00 18.2 C 12.12 g/m*3 18.2 C 4.8 km/h
1910 02-10-2020 15:05:00 18.2 C 11.81 g/m*3 18.2 C 4.8 km/h
1911 02-10-2020 15:10:00 18.3 C 12.04 g/m*3 18.3 C 4.8 km/h
1912 02-10-2020 15:15:00 18.4 C 12.43 g/m*3 18.4 C 3.2 km/h
1913 02-10-2020 15:20:00 18.4 C 12.11 g/m*3 18.4 C 3.2 km/h
1914 02-10-2020 15:25:00 18.4 C 12.27 g/m*3 18.4 C 3.2 km/h
1915 02-10-2020 15:30:00 18.4 C 12.27 g/m*3 18.4 C 6.4 km/h
1916 02-10-2020 15:35:00 18.4 C 11.95 g/m*3 18.4 C 6.4 km/h
1917 02-10-2020 15:40:00 18.6 C 12.73 g/m*3 18.6 C 4.8 km/h
1918 02-10-2020 15:45:00 18.6 C 12.41 g/m*3 18.6 C 1.6 km/h
1919 02-10-2020 15:50:00 18.7 C 12.97 g/m*3 18.7 C 8.1 km/h
1920 02-10-2020 15:55:00 18.7 C 12.65 g/m*3 18.7 C 9.7 km/h
1921 02-10-2020 16:00:00 18.8 C 12.88 g/m*3 18.8 C 3.2 km/h
1922 02-10-2020 16:05:00 18.8 C 12.72 g/m*3 18.8 C 1.6 km/h
1923 02-10-2020 16:10:00 18.8 C 12.56 g/m*3 18.8 C 0 km/h
1924 02-10-2020 16:15:00 18.9 C 12.8 g/m*3 18.9 C 3.2 km/h
1925 02-10-2020 16:20:00 18.8 C 12.08 g/m*3 18.8 C 9.7 km/h
Sensor: Nr:Datum:Temp:Abs-Feuchte:Windchill:Wind:
Aussen-T/F 1926 02-10-2020 16:25:00 18.8 C 12.24 g/m*3 18.8 C 8.1 km/h
1927 02-10-2020 16:30:00 18.8 C 11.76 g/m*3 18.8 C 14.5 km/h
1928 02-10-2020 16:35:00 18.9 C 12.15 g/m*3 18.9 C 8.1 km/h
1929 02-10-2020 16:40:00 18.9 C 12.47 g/m*3 18.9 C 11.3 km/h
1930 02-10-2020 16:45:00 18.9 C 11.83 g/m*3 18.9 C 6.4 km/h
1931 02-10-2020 16:50:00 18.9 C 12.64 g/m*3 18.9 C 8.1 km/h
1932 02-10-2020 16:55:00 18.9 C 12.64 g/m*3 18.9 C 3.2 km/h
1933 02-10-2020 17:00:00 18.8 C 12.24 g/m*3 18.8 C 4.8 km/h
1934 02-10-2020 17:05:00 18.7 C 12.49 g/m*3 18.7 C 3.2 km/h
1935 02-10-2020 17:10:00 18.6 C 12.1 g/m*3 18.6 C 8.1 km/h
1936 02-10-2020 17:15:00 18.6 C 11.78 g/m*3 18.6 C 8.1 km/h
1937 02-10-2020 17:20:00 18.6 C 11.78 g/m*3 18.6 C 11.3 km/h
1938 02-10-2020 17:25:00 18.7 C 11.85 g/m*3 18.7 C 9.7 km/h
1939 02-10-2020 17:30:00 18.7 C 11.69 g/m*3 18.7 C 11.3 km/h
1940 02-10-2020 17:35:00 18.7 C 12.17 g/m*3 18.7 C 6.4 km/h
1941 02-10-2020 17:40:00 18.6 C 12.26 g/m*3 18.6 C 3.2 km/h
1942 02-10-2020 17:45:00 18.4 C 12.43 g/m*3 18.4 C 4.8 km/h
1943 02-10-2020 17:50:00 18.2 C 12.59 g/m*3 18.2 C 4.8 km/h
1944 02-10-2020 17:55:00 17.9 C 12.37 g/m*3 17.9 C 4.8 km/h
1945 02-10-2020 18:00:00 17.7 C 12.37 g/m*3 17.7 C 1.6 km/h
1946 02-10-2020 18:05:00 17.4 C 12.15 g/m*3 17.4 C 3.2 km/h
1947 02-10-2020 18:10:00 17.2 C 12.15 g/m*3 17.2 C 4.8 km/h
1948 02-10-2020 18:15:00 17.2 C 12.01 g/m*3 17.2 C 8.1 km/h
1949 02-10-2020 18:20:00 17.2 C 12.01 g/m*3 17.2 C 4.8 km/h
1950 02-10-2020 18:25:00 17.2 C 11.86 g/m*3 17.2 C 1.6 km/h
Sensor: Nr:Datum:Temp:Abs-Feuchte:Windchill:Wind:
Aussen-T/F 1951 02-10-2020 18:30:00 17.2 C 12.01 g/m*3 17.2 C 11.3 km/h
1952 02-10-2020 18:35:00 17.2 C 11.72 g/m*3 17.2 C 12.9 km/h
1953 02-10-2020 18:40:00 17.5 C 12.08 g/m*3 17.5 C 4.8 km/h
1954 02-10-2020 18:45:00 17.6 C 11.85 g/m*3 17.6 C 11.3 km/h
1955 02-10-2020 18:50:00 17.7 C 12.07 g/m*3 17.7 C 8.1 km/h
1956 02-10-2020 18:55:00 17.8 C 11.84 g/m*3 17.8 C 11.3 km/h
1957 02-10-2020 19:00:00 17.8 C 11.84 g/m*3 17.8 C 9.7 km/h
1958 02-10-2020 19:05:00 18.1 C 12.05 g/m*3 18.1 C 8.1 km/h
1959 02-10-2020 19:10:00 18 C 12.13 g/m*3 18 C 3.2 km/h
1960 02-10-2020 19:15:00 17.8 C 11.84 g/m*3 17.8 C 6.4 km/h
1961 02-10-2020 19:20:00 17.8 C 12.14 g/m*3 17.8 C 6.4 km/h
1962 02-10-2020 19:25:00 17.6 C 12.15 g/m*3 17.6 C 4.8 km/h
1963 02-10-2020 19:30:00 17.4 C 12.15 g/m*3 17.4 C 4.8 km/h
1964 02-10-2020 19:35:00 17.1 C 11.79 g/m*3 17.1 C 4.8 km/h
1965 02-10-2020 19:40:00 16.9 C 11.79 g/m*3 16.9 C 4.8 km/h
1966 02-10-2020 19:45:00 16.9 C 11.94 g/m*3 16.9 C 8.1 km/h
1967 02-10-2020 19:50:00 16.9 C 11.79 g/m*3 16.9 C 6.4 km/h
1968 02-10-2020 19:55:00 17 C 11.87 g/m*3 17 C 8.1 km/h
1969 02-10-2020 20:00:00 17.2 C 12.01 g/m*3 17.2 C 8.1 km/h
1970 02-10-2020 20:05:00 17.2 C 12.01 g/m*3 17.2 C 6.4 km/h
1971 02-10-2020 20:10:00 17.2 C 12.01 g/m*3 17.2 C 6.4 km/h
1972 02-10-2020 20:15:00 17.1 C 11.79 g/m*3 17.1 C 9.7 km/h
1973 02-10-2020 20:20:00 17.1 C 12.08 g/m*3 17.1 C 3.2 km/h
1974 02-10-2020 20:25:00 16.9 C 11.79 g/m*3 16.9 C 3.2 km/h
1975 02-10-2020 20:30:00 17 C 11.87 g/m*3 17 C 9.7 km/h
Sensor: Nr:Datum:Temp:Abs-Feuchte:Windchill:Wind:
Aussen-T/F 1976 02-10-2020 20:35:00 17.1 C 11.65 g/m*3 17.1 C 9.7 km/h
1977 02-10-2020 20:40:00 17.2 C 11.72 g/m*3 17.2 C 6.4 km/h
1978 02-10-2020 20:45:00 17.2 C 12.01 g/m*3 17.2 C 3.2 km/h
1979 02-10-2020 20:50:00 17.3 C 11.49 g/m*3 17.3 C 17.7 km/h
1980 02-10-2020 20:55:00 17.4 C 11.56 g/m*3 17.4 C 17.7 km/h
1981 02-10-2020 21:00:00 17.7 C 11.47 g/m*3 17.7 C 12.9 km/h
1982 02-10-2020 21:05:00 17.9 C 11.6 g/m*3 17.9 C 11.3 km/h
1983 02-10-2020 21:10:00 17.9 C 11.76 g/m*3 17.9 C 1.6 km/h
1984 02-10-2020 21:15:00 17.8 C 11.84 g/m*3 17.8 C 6.4 km/h
1985 02-10-2020 21:20:00 17.7 C 11.77 g/m*3 17.7 C 3.2 km/h
1986 02-10-2020 21:25:00 17.6 C 12 g/m*3 17.6 C 3.2 km/h
1987 02-10-2020 21:30:00 17.4 C 11.56 g/m*3 17.4 C 6.4 km/h
1988 02-10-2020 21:35:00 17.3 C 11.93 g/m*3 17.3 C 1.6 km/h
1989 02-10-2020 21:40:00 17.2 C 12.01 g/m*3 17.2 C 0 km/h
1990 02-10-2020 21:45:00 17 C 11.87 g/m*3 17 C 1.6 km/h
1991 02-10-2020 21:50:00 16.9 C 11.79 g/m*3 16.9 C 3.2 km/h
1992 02-10-2020 21:55:00 16.8 C 11.72 g/m*3 16.8 C 3.2 km/h
1993 02-10-2020 22:00:00 16.8 C 11.44 g/m*3 16.8 C 9.7 km/h
1994 02-10-2020 22:05:00 16.9 C 11.65 g/m*3 16.9 C 6.4 km/h
1995 02-10-2020 22:10:00 17 C 11.87 g/m*3 17 C 0 km/h
1996 02-10-2020 22:15:00 16.9 C 11.79 g/m*3 16.9 C 1.6 km/h
1997 02-10-2020 22:20:00 16.7 C 11.65 g/m*3 16.7 C 1.6 km/h
1998 02-10-2020 22:25:00 16.6 C 11.3 g/m*3 16.6 C 4.8 km/h
1999 02-10-2020 22:30:00 16.6 C 11.58 g/m*3 16.6 C 4.8 km/h
2000 02-10-2020 22:35:00 16.6 C 11.3 g/m*3 16.6 C 6.4 km/h
Sensor: Nr:Datum:Temp:Abs-Feuchte:Windchill:Wind:
Aussen-T/F 2001 02-10-2020 22:40:00 16.6 C 11.44 g/m*3 16.6 C 4.8 km/h
2002 02-10-2020 22:45:00 16.7 C 11.51 g/m*3 16.7 C 6.4 km/h
2003 02-10-2020 22:50:00 16.7 C 11.65 g/m*3 16.7 C 3.2 km/h
2004 02-10-2020 22:55:00 16.6 C 11.58 g/m*3 16.6 C 3.2 km/h
2005 02-10-2020 23:00:00 16.4 C 11.17 g/m*3 16.4 C 3.2 km/h
2006 02-10-2020 23:05:00 16.4 C 11.31 g/m*3 16.4 C 3.2 km/h
2007 02-10-2020 23:10:00 16.6 C 11.3 g/m*3 16.6 C 6.4 km/h
2008 02-10-2020 23:15:00 16.7 C 11.37 g/m*3 16.7 C 9.7 km/h
2009 02-10-2020 23:20:00 16.9 C 11.36 g/m*3 16.9 C 8.1 km/h
2010 02-10-2020 23:25:00 17 C 11.29 g/m*3 17 C 12.9 km/h
2011 02-10-2020 23:30:00 17.3 C 11.34 g/m*3 17.3 C 14.5 km/h
2012 02-10-2020 23:35:00 17.3 C 11.2 g/m*3 17.3 C 8.1 km/h
2013 02-10-2020 23:40:00 17.6 C 11.25 g/m*3 17.6 C 17.7 km/h
2014 02-10-2020 23:45:00 17.7 C 11.16 g/m*3 17.7 C 16.1 km/h
2015 02-10-2020 23:50:00 17.7 C 11.47 g/m*3 17.7 C 14.5 km/h
2016 02-10-2020 23:55:00 17.7 C 11.16 g/m*3 17.7 C 16.1 km/h
2017 03-10-2020 00:00:00 17.7 C 11.16 g/m*3 17.7 C 12.9 km/h
2018 03-10-2020 00:05:00 17.7 C 11.16 g/m*3 17.7 C 6.4 km/h
2019 03-10-2020 00:10:00 17.6 C 11.25 g/m*3 17.6 C 3.2 km/h
2020 03-10-2020 00:15:00 17.5 C 11.33 g/m*3 17.5 C 3.2 km/h
2021 03-10-2020 00:20:00 17.3 C 11.2 g/m*3 17.3 C 9.7 km/h
2022 03-10-2020 00:25:00 17.2 C 11.28 g/m*3 17.2 C 8.1 km/h
2023 03-10-2020 00:30:00 17.1 C 11.06 g/m*3 17.1 C 4.8 km/h
2024 03-10-2020 00:35:00 17.1 C 11.06 g/m*3 17.1 C 9.7 km/h
2025 03-10-2020 00:40:00 17.2 C 11.13 g/m*3 17.2 C 9.7 km/h
Sensor: Nr:Datum:Temp:Abs-Feuchte:Windchill:Wind:
Aussen-T/F 2026 03-10-2020 00:45:00 17.3 C 11.05 g/m*3 17.3 C 9.7 km/h
2027 03-10-2020 00:50:00 17.3 C 11.34 g/m*3 17.3 C 6.4 km/h
2028 03-10-2020 00:55:00 17.3 C 11.2 g/m*3 17.3 C 8.1 km/h
2029 03-10-2020 01:00:00 17.3 C 11.2 g/m*3 17.3 C 9.7 km/h
2030 03-10-2020 01:05:00 17.3 C 11.05 g/m*3 17.3 C 6.4 km/h
2031 03-10-2020 01:10:00 17.3 C 11.05 g/m*3 17.3 C 8.1 km/h
2032 03-10-2020 01:15:00 17.3 C 11.2 g/m*3 17.3 C 4.8 km/h
2033 03-10-2020 01:20:00 17.3 C 11.05 g/m*3 17.3 C 8.1 km/h
2034 03-10-2020 01:25:00 17.3 C 11.2 g/m*3 17.3 C 9.7 km/h
2035 03-10-2020 01:30:00 17.2 C 11.13 g/m*3 17.2 C 8.1 km/h
2036 03-10-2020 01:35:00 17.1 C 11.06 g/m*3 17.1 C 4.8 km/h
2037 03-10-2020 01:40:00 17.1 C 11.06 g/m*3 17.1 C 12.9 km/h
2038 03-10-2020 01:45:00 17.1 C 11.21 g/m*3 17.1 C 11.3 km/h
2039 03-10-2020 01:50:00 16.9 C 11.08 g/m*3 16.9 C 1.6 km/h
2040 03-10-2020 01:55:00 16.8 C 11.01 g/m*3 16.8 C 12.9 km/h
2041 03-10-2020 02:00:00 16.8 C 10.87 g/m*3 16.8 C 6.4 km/h
2042 03-10-2020 02:05:00 16.8 C 11.15 g/m*3 16.8 C 3.2 km/h
2043 03-10-2020 02:10:00 16.6 C 11.02 g/m*3 16.6 C 3.2 km/h
2044 03-10-2020 02:15:00 16.3 C 10.96 g/m*3 16.3 C 1.6 km/h
2045 03-10-2020 02:20:00 16.1 C 10.97 g/m*3 16.1 C 3.2 km/h
2046 03-10-2020 02:25:00 15.8 C 10.9 g/m*3 15.8 C 3.2 km/h
2047 03-10-2020 02:30:00 15.4 C 10.77 g/m*3 15.4 C 4.8 km/h
2048 03-10-2020 02:35:00 15.3 C 10.84 g/m*3 15.3 C 6.4 km/h
2049 03-10-2020 02:40:00 15.2 C 10.9 g/m*3 15.2 C 1.6 km/h
2050 03-10-2020 02:45:00 15.1 C 10.84 g/m*3 15.1 C 1.6 km/h
Sensor: Nr:Datum:Temp:Abs-Feuchte:Windchill:Wind:
Aussen-T/F 2051 03-10-2020 02:50:00 14.8 C 10.77 g/m*3 14.8 C 0 km/h
2052 03-10-2020 02:55:00 14.6 C 10.76 g/m*3 14.6 C 4.8 km/h
2053 03-10-2020 03:00:00 14.4 C 10.63 g/m*3 14.4 C 1.6 km/h
2054 03-10-2020 03:05:00 14.3 C 10.69 g/m*3 14.3 C 4.8 km/h
2055 03-10-2020 03:10:00 14.2 C 10.75 g/m*3 14.2 C 3.2 km/h
2056 03-10-2020 03:15:00 14.2 C 10.87 g/m*3 14.2 C 0 km/h
2057 03-10-2020 03:20:00 14.2 C 10.87 g/m*3 14.2 C 6.4 km/h
2058 03-10-2020 03:25:00 14.2 C 10.87 g/m*3 14.2 C 1.6 km/h
2059 03-10-2020 03:30:00 14.3 C 11.06 g/m*3 14.3 C 3.2 km/h
2060 03-10-2020 03:35:00 14.3 C 11.06 g/m*3 14.3 C 4.8 km/h
2061 03-10-2020 03:40:00 14.3 C 11.06 g/m*3 14.3 C 3.2 km/h
2062 03-10-2020 03:45:00 14.3 C 11.06 g/m*3 14.3 C 3.2 km/h
2063 03-10-2020 03:50:00 14.3 C 11.06 g/m*3 14.3 C 0 km/h
2064 03-10-2020 03:55:00 14.3 C 11.06 g/m*3 14.3 C 0 km/h
2065 03-10-2020 04:00:00 14.3 C 11.06 g/m*3 14.3 C 0 km/h
2066 03-10-2020 04:05:00 14.2 C 10.99 g/m*3 14.2 C 0 km/h
2067 03-10-2020 04:10:00 14.2 C 10.99 g/m*3 14.2 C 0 km/h
2068 03-10-2020 04:15:00 14.2 C 10.99 g/m*3 14.2 C 0 km/h
2069 03-10-2020 04:20:00 14.2 C 10.99 g/m*3 14.2 C 0 km/h
2070 03-10-2020 04:25:00 14.2 C 10.99 g/m*3 14.2 C 0 km/h
2071 03-10-2020 04:30:00 14.2 C 10.99 g/m*3 14.2 C 0 km/h
2072 03-10-2020 04:35:00 14.2 C 11.11 g/m*3 14.2 C 0 km/h
2073 03-10-2020 04:40:00 14.2 C 11.11 g/m*3 14.2 C 0 km/h
2074 03-10-2020 04:45:00 14.2 C 11.11 g/m*3 14.2 C 0 km/h
2075 03-10-2020 04:50:00 14.1 C 11.04 g/m*3 14.1 C 0 km/h
Sensor: Nr:Datum:Temp:Abs-Feuchte:Windchill:Wind:
Aussen-T/F 2076 03-10-2020 04:55:00 14.1 C 11.04 g/m*3 14.1 C 0 km/h
2077 03-10-2020 05:00:00 14.1 C 11.04 g/m*3 14.1 C 0 km/h
2078 03-10-2020 05:05:00 14.1 C 11.04 g/m*3 14.1 C 0 km/h
2079 03-10-2020 05:10:00 14.1 C 11.04 g/m*3 14.1 C 0 km/h
2080 03-10-2020 05:15:00 14 C 10.98 g/m*3 14 C 0 km/h
2081 03-10-2020 05:20:00 13.9 C 10.79 g/m*3 13.9 C 0 km/h
2082 03-10-2020 05:25:00 13.8 C 10.72 g/m*3 13.8 C 0 km/h
2083 03-10-2020 05:30:00 13.7 C 10.78 g/m*3 13.7 C 0 km/h
2084 03-10-2020 05:35:00 13.6 C 10.71 g/m*3 13.6 C 0 km/h
2085 03-10-2020 05:40:00 13.5 C 10.64 g/m*3 13.5 C 0 km/h
2086 03-10-2020 05:45:00 13.4 C 10.58 g/m*3 13.4 C 0 km/h
2087 03-10-2020 05:50:00 13.3 C 10.51 g/m*3 13.3 C 0 km/h
2088 03-10-2020 05:55:00 13.3 C 10.63 g/m*3 13.3 C 0 km/h
2089 03-10-2020 06:00:00 13.3 C 10.63 g/m*3 13.3 C 0 km/h
2090 03-10-2020 06:05:00 13.3 C 10.63 g/m*3 13.3 C 0 km/h
2091 03-10-2020 06:10:00 13.3 C 10.63 g/m*3 13.3 C 0 km/h
2092 03-10-2020 06:15:00 13.3 C 10.63 g/m*3 13.3 C 0 km/h
2093 03-10-2020 06:20:00 13.3 C 10.63 g/m*3 13.3 C 0 km/h
2094 03-10-2020 06:25:00 13.3 C 10.63 g/m*3 13.3 C 0 km/h
2095 03-10-2020 06:30:00 13.3 C 10.74 g/m*3 13.3 C 0 km/h
2096 03-10-2020 06:35:00 13.3 C 10.74 g/m*3 13.3 C 0 km/h
2097 03-10-2020 06:40:00 13.3 C 10.74 g/m*3 13.3 C 0 km/h
2098 03-10-2020 06:45:00 13.3 C 10.74 g/m*3 13.3 C 0 km/h
2099 03-10-2020 06:50:00 13.3 C 10.74 g/m*3 13.3 C 0 km/h
2100 03-10-2020 06:55:00 13.3 C 10.74 g/m*3 13.3 C 0 km/h
Sensor: Nr:Datum:Temp:Abs-Feuchte:Windchill:Wind:
Aussen-T/F 2101 03-10-2020 07:00:00 13.3 C 10.74 g/m*3 13.3 C 0 km/h
2102 03-10-2020 07:05:00 13.3 C 10.74 g/m*3 13.3 C 0 km/h
2103 03-10-2020 07:10:00 13.3 C 10.74 g/m*3 13.3 C 0 km/h
2104 03-10-2020 07:15:00 13.3 C 10.74 g/m*3 13.3 C 0 km/h
2105 03-10-2020 07:20:00 13.3 C 10.74 g/m*3 13.3 C 1.6 km/h
2106 03-10-2020 07:25:00 13.4 C 10.93 g/m*3 13.4 C 4.8 km/h
2107 03-10-2020 07:30:00 13.4 C 10.93 g/m*3 13.4 C 3.2 km/h
2108 03-10-2020 07:35:00 13.5 C 10.99 g/m*3 13.5 C 1.6 km/h
2109 03-10-2020 07:40:00 13.6 C 11.06 g/m*3 13.6 C 3.2 km/h
2110 03-10-2020 07:45:00 13.6 C 11.06 g/m*3 13.6 C 9.7 km/h
2111 03-10-2020 07:50:00 13.7 C 11.13 g/m*3 13.7 C 4.8 km/h
2112 03-10-2020 07:55:00 13.7 C 11.13 g/m*3 13.7 C 3.2 km/h
2113 03-10-2020 08:00:00 13.7 C 11.13 g/m*3 13.7 C 6.4 km/h
2114 03-10-2020 08:05:00 13.8 C 11.2 g/m*3 13.8 C 8.1 km/h
2115 03-10-2020 08:10:00 13.8 C 11.2 g/m*3 13.8 C 8.1 km/h
2116 03-10-2020 08:15:00 13.8 C 11.2 g/m*3 13.8 C 4.8 km/h
2117 03-10-2020 08:20:00 13.8 C 11.2 g/m*3 13.8 C 4.8 km/h
2118 03-10-2020 08:25:00 13.9 C 11.27 g/m*3 13.9 C 3.2 km/h
2119 03-10-2020 08:30:00 13.9 C 11.27 g/m*3 13.9 C 4.8 km/h
2120 03-10-2020 08:35:00 13.9 C 11.27 g/m*3 13.9 C 6.4 km/h
2121 03-10-2020 08:40:00 13.9 C 11.15 g/m*3 13.9 C 6.4 km/h
2122 03-10-2020 08:45:00 13.9 C 11.15 g/m*3 13.9 C 6.4 km/h
2123 03-10-2020 08:50:00 13.9 C 11.15 g/m*3 13.9 C 4.8 km/h
2124 03-10-2020 08:55:00 13.9 C 11.15 g/m*3 13.9 C 3.2 km/h
2125 03-10-2020 09:00:00 13.9 C 11.15 g/m*3 13.9 C 4.8 km/h
Sensor: Nr:Datum:Temp:Abs-Feuchte:Windchill:Wind:
Aussen-T/F 2126 03-10-2020 09:05:00 13.9 C 11.15 g/m*3 13.9 C 3.2 km/h
2127 03-10-2020 09:10:00 13.9 C 11.15 g/m*3 13.9 C 9.7 km/h
2128 03-10-2020 09:15:00 13.9 C 11.15 g/m*3 13.9 C 4.8 km/h
2129 03-10-2020 09:20:00 13.8 C 10.96 g/m*3 13.8 C 9.7 km/h
2130 03-10-2020 09:25:00 13.8 C 10.96 g/m*3 13.8 C 8.1 km/h
2131 03-10-2020 09:30:00 13.8 C 10.96 g/m*3 13.8 C 6.4 km/h
2132 03-10-2020 09:35:00 13.8 C 10.96 g/m*3 13.8 C 6.4 km/h
2133 03-10-2020 09:40:00 13.8 C 10.96 g/m*3 13.8 C 6.4 km/h
2134 03-10-2020 09:45:00 13.8 C 10.96 g/m*3 13.8 C 11.3 km/h
2135 03-10-2020 09:50:00 13.8 C 10.84 g/m*3 13.8 C 8.1 km/h
2136 03-10-2020 09:55:00 13.8 C 10.84 g/m*3 13.8 C 14.5 km/h
2137 03-10-2020 10:00:00 13.8 C 10.72 g/m*3 13.8 C 14.5 km/h
2138 03-10-2020 10:05:00 13.8 C 10.72 g/m*3 13.8 C 9.7 km/h
2139 03-10-2020 10:10:00 13.8 C 10.72 g/m*3 13.8 C 11.3 km/h
2140 03-10-2020 10:15:00 13.8 C 10.72 g/m*3 13.8 C 11.3 km/h
2141 03-10-2020 10:20:00 13.7 C 10.66 g/m*3 13.7 C 9.7 km/h
2142 03-10-2020 10:25:00 13.7 C 10.66 g/m*3 13.7 C 11.3 km/h
2143 03-10-2020 10:30:00 13.7 C 10.66 g/m*3 13.7 C 12.9 km/h
2144 03-10-2020 10:35:00 13.6 C 10.47 g/m*3 13.6 C 12.9 km/h
2145 03-10-2020 10:40:00 13.6 C 10.47 g/m*3 13.6 C 12.9 km/h
2146 03-10-2020 10:45:00 13.6 C 10.47 g/m*3 13.6 C 11.3 km/h
2147 03-10-2020 10:50:00 13.6 C 10.47 g/m*3 13.6 C 12.9 km/h
2148 03-10-2020 10:55:00 13.6 C 10.47 g/m*3 13.6 C 9.7 km/h
2149 03-10-2020 11:00:00 13.6 C 10.36 g/m*3 13.6 C 11.3 km/h
2150 03-10-2020 11:05:00 13.6 C 10.36 g/m*3 13.6 C 11.3 km/h
Sensor: Nr:Datum:Temp:Abs-Feuchte:Windchill:Wind:
Aussen-T/F 2151 03-10-2020 11:10:00 13.6 C 10.36 g/m*3 13.6 C 6.4 km/h
2152 03-10-2020 11:15:00 13.6 C 10.36 g/m*3 13.6 C 12.9 km/h
2153 03-10-2020 11:20:00 13.6 C 10.36 g/m*3 13.6 C 17.7 km/h
2154 03-10-2020 11:25:00 13.6 C 10.36 g/m*3 13.6 C 17.7 km/h
2155 03-10-2020 11:30:00 13.5 C 10.41 g/m*3 13.5 C 8.1 km/h
2156 03-10-2020 11:35:00 13.5 C 10.41 g/m*3 13.5 C 12.9 km/h
2157 03-10-2020 11:40:00 13.5 C 10.41 g/m*3 13.5 C 12.9 km/h
2158 03-10-2020 11:45:00 13.5 C 10.29 g/m*3 13.5 C 11.3 km/h
2159 03-10-2020 11:50:00 13.4 C 10.23 g/m*3 13.4 C 11.3 km/h
2160 03-10-2020 11:55:00 13.4 C 10.23 g/m*3 13.4 C 16.1 km/h
2161 03-10-2020 12:00:00 13.3 C 10.17 g/m*3 13.3 C 12.9 km/h
2162 03-10-2020 12:05:00 13.2 C 10.1 g/m*3 13.2 C 8.1 km/h
2163 03-10-2020 12:10:00 13.1 C 10.04 g/m*3 13.1 C 6.4 km/h
2164 03-10-2020 12:15:00 13.1 C 10.04 g/m*3 13.1 C 14.5 km/h
2165 03-10-2020 12:20:00 12.9 C 9.81 g/m*3 12.9 C 14.5 km/h
2166 03-10-2020 12:25:00 12.9 C 9.92 g/m*3 12.9 C 14.5 km/h
2167 03-10-2020 12:30:00 12.9 C 9.81 g/m*3 12.9 C 8.1 km/h
2168 03-10-2020 12:35:00 13 C 9.87 g/m*3 13 C 11.3 km/h
2169 03-10-2020 12:40:00 13.1 C 9.93 g/m*3 13.1 C 14.5 km/h
2170 03-10-2020 12:45:00 13.1 C 9.93 g/m*3 13.1 C 14.5 km/h
2171 03-10-2020 12:50:00 13.2 C 9.87 g/m*3 13.2 C 20.9 km/h
2172 03-10-2020 12:55:00 13.2 C 9.87 g/m*3 13.2 C 20.9 km/h
2173 03-10-2020 13:00:00 13.1 C 9.81 g/m*3 13.1 C 22.5 km/h
2174 03-10-2020 13:05:00 13.1 C 9.81 g/m*3 13.1 C 11.3 km/h
2175 03-10-2020 13:10:00 13.1 C 9.7 g/m*3 13.1 C 16.1 km/h
Sensor: Nr:Datum:Temp:Abs-Feuchte:Windchill:Wind:
Aussen-T/F 2176 03-10-2020 13:15:00 13.1 C 9.7 g/m*3 13.1 C 11.3 km/h
2177 03-10-2020 13:20:00 13.2 C 9.76 g/m*3 13.2 C 14.5 km/h
2178 03-10-2020 13:25:00 13.1 C 9.7 g/m*3 13.1 C 16.1 km/h
2179 03-10-2020 13:30:00 13.1 C 9.81 g/m*3 13.1 C 6.4 km/h
2180 03-10-2020 13:35:00 13 C 9.87 g/m*3 13 C 6.4 km/h
2181 03-10-2020 13:40:00 12.8 C 9.63 g/m*3 12.8 C 11.3 km/h
2182 03-10-2020 13:45:00 12.8 C 9.74 g/m*3 12.8 C 4.8 km/h
2183 03-10-2020 13:50:00 12.6 C 9.62 g/m*3 12.6 C 4.8 km/h
2184 03-10-2020 13:55:00 12.5 C 9.68 g/m*3 12.5 C 4.8 km/h
2185 03-10-2020 14:00:00 12.4 C 9.72 g/m*3 12.4 C 6.4 km/h
2186 03-10-2020 14:05:00 12.3 C 9.66 g/m*3 12.3 C 9.7 km/h
2187 03-10-2020 14:10:00 12.2 C 9.71 g/m*3 12.2 C 4.8 km/h
2188 03-10-2020 14:15:00 12.1 C 9.65 g/m*3 12.1 C 4.8 km/h
2189 03-10-2020 14:20:00 11.9 C 9.53 g/m*3 11.9 C 6.4 km/h
2190 03-10-2020 14:25:00 11.8 C 9.58 g/m*3 11.8 C 3.2 km/h
2191 03-10-2020 14:30:00 11.8 C 9.58 g/m*3 11.8 C 1.6 km/h
2192 03-10-2020 14:35:00 11.9 C 9.74 g/m*3 11.9 C 0 km/h
2193 03-10-2020 14:40:00 11.9 C 9.74 g/m*3 11.9 C 0 km/h
2194 03-10-2020 14:45:00 11.9 C 9.85 g/m*3 11.9 C 0 km/h
2195 03-10-2020 14:50:00 12 C 9.91 g/m*3 12 C 0 km/h
2196 03-10-2020 14:55:00 12.1 C 9.97 g/m*3 12.1 C 4.8 km/h
2197 03-10-2020 15:00:00 12.1 C 9.97 g/m*3 12.1 C 1.6 km/h
2198 03-10-2020 15:05:00 12 C 9.91 g/m*3 12 C 3.2 km/h
2199 03-10-2020 15:10:00 12.1 C 9.97 g/m*3 12.1 C 3.2 km/h
2200 03-10-2020 15:15:00 12 C 9.91 g/m*3 12 C 3.2 km/h
Sensor: Nr:Datum:Temp:Abs-Feuchte:Windchill:Wind:
Aussen-T/F 2201 03-10-2020 15:20:00 11.9 C 9.74 g/m*3 11.9 C 1.6 km/h
2202 03-10-2020 15:25:00 11.9 C 9.85 g/m*3 11.9 C 0 km/h
2203 03-10-2020 15:30:00 11.9 C 9.74 g/m*3 11.9 C 0 km/h
2204 03-10-2020 15:35:00 11.9 C 9.74 g/m*3 11.9 C 0 km/h
2205 03-10-2020 15:40:00 11.9 C 9.74 g/m*3 11.9 C 0 km/h
2206 03-10-2020 15:45:00 11.8 C 9.58 g/m*3 11.8 C 4.8 km/h
2207 03-10-2020 15:50:00 11.9 C 9.64 g/m*3 11.9 C 1.6 km/h
2208 03-10-2020 15:55:00 11.9 C 9.74 g/m*3 11.9 C 1.6 km/h
2209 03-10-2020 16:00:00 11.9 C 9.74 g/m*3 11.9 C 0 km/h
2210 03-10-2020 16:05:00 12 C 9.8 g/m*3 12 C 0 km/h
2211 03-10-2020 16:10:00 12.1 C 9.76 g/m*3 12.1 C 1.6 km/h
2212 03-10-2020 16:15:00 12.1 C 9.76 g/m*3 12.1 C 1.6 km/h
2213 03-10-2020 16:20:00 12.1 C 9.65 g/m*3 12.1 C 1.6 km/h
2214 03-10-2020 16:25:00 12.2 C 9.71 g/m*3 12.2 C 1.6 km/h
2215 03-10-2020 16:30:00 12.4 C 9.72 g/m*3 12.4 C 0 km/h
2216 03-10-2020 16:35:00 12.6 C 9.74 g/m*3 12.6 C 3.2 km/h
2217 03-10-2020 16:40:00 12.7 C 9.68 g/m*3 12.7 C 1.6 km/h
2218 03-10-2020 16:45:00 12.8 C 9.63 g/m*3 12.8 C 6.4 km/h
2219 03-10-2020 16:50:00 12.8 C 9.86 g/m*3 12.8 C 3.2 km/h
2220 03-10-2020 16:55:00 12.9 C 9.92 g/m*3 12.9 C 1.6 km/h
2221 03-10-2020 17:00:00 13.1 C 9.93 g/m*3 13.1 C 0 km/h
2222 03-10-2020 17:05:00 13.2 C 10.1 g/m*3 13.2 C 0 km/h
2223 03-10-2020 17:10:00 13.3 C 9.94 g/m*3 13.3 C 6.4 km/h
2224 03-10-2020 17:15:00 13.6 C 10 g/m*3 13.6 C 4.8 km/h
2225 03-10-2020 17:20:00 13.7 C 9.95 g/m*3 13.7 C 3.2 km/h
Sensor: Nr:Datum:Temp:Abs-Feuchte:Windchill:Wind:
Aussen-T/F 2226 03-10-2020 17:25:00 13.9 C 9.95 g/m*3 13.9 C 6.4 km/h
2227 03-10-2020 17:30:00 14.1 C 10.07 g/m*3 14.1 C 6.4 km/h
2228 03-10-2020 17:35:00 14.4 C 10.26 g/m*3 14.4 C 3.2 km/h
2229 03-10-2020 17:40:00 14.8 C 10.39 g/m*3 14.8 C 3.2 km/h
2230 03-10-2020 17:45:00 15.3 C 10.84 g/m*3 15.3 C 0 km/h
2231 03-10-2020 17:50:00 15.8 C 11.04 g/m*3 15.8 C 0 km/h
2232 03-10-2020 17:55:00 16.2 C 11.17 g/m*3 16.2 C 0 km/h
2233 03-10-2020 18:00:00 16.3 C 11.1 g/m*3 16.3 C 4.8 km/h
2234 03-10-2020 18:05:00 16.2 C 10.89 g/m*3 16.2 C 0 km/h
2235 03-10-2020 18:10:00 15.8 C 10.5 g/m*3 15.8 C 6.4 km/h
2236 03-10-2020 18:15:00 15.6 C 10.64 g/m*3 15.6 C 4.8 km/h
2237 03-10-2020 18:20:00 15.1 C 10.32 g/m*3 15.1 C 4.8 km/h
2238 03-10-2020 18:25:00 14.6 C 10.01 g/m*3 14.6 C 4.8 km/h
2239 03-10-2020 18:30:00 14.1 C 9.95 g/m*3 14.1 C 4.8 km/h
2240 03-10-2020 18:35:00 13.7 C 9.95 g/m*3 13.7 C 0 km/h
2241 03-10-2020 18:40:00 13.3 C 9.82 g/m*3 13.3 C 3.2 km/h
2242 03-10-2020 18:45:00 13.1 C 9.81 g/m*3 13.1 C 3.2 km/h
2243 03-10-2020 18:50:00 12.9 C 9.81 g/m*3 12.9 C 4.8 km/h
2244 03-10-2020 18:55:00 12.7 C 9.8 g/m*3 12.7 C 4.8 km/h
2245 03-10-2020 19:00:00 12.5 C 9.68 g/m*3 12.5 C 4.8 km/h
2246 03-10-2020 19:05:00 12.3 C 9.56 g/m*3 12.3 C 3.2 km/h
2247 03-10-2020 19:10:00 12.2 C 9.6 g/m*3 12.2 C 4.8 km/h
2248 03-10-2020 19:15:00 12 C 9.48 g/m*3 12 C 1.6 km/h
2249 03-10-2020 19:20:00 11.9 C 9.53 g/m*3 11.9 C 3.2 km/h
2250 03-10-2020 19:25:00 11.8 C 9.47 g/m*3 11.8 C 4.8 km/h
Sensor: Nr:Datum:Temp:Abs-Feuchte:Windchill:Wind:
Aussen-T/F 2251 03-10-2020 19:30:00 11.8 C 9.47 g/m*3 11.8 C 0 km/h
2252 03-10-2020 19:35:00 11.7 C 9.52 g/m*3 11.7 C 0 km/h
2253 03-10-2020 19:40:00 11.7 C 9.52 g/m*3 11.7 C 0 km/h
2254 03-10-2020 19:45:00 11.6 C 9.46 g/m*3 11.6 C 1.6 km/h
2255 03-10-2020 19:50:00 11.6 C 9.46 g/m*3 11.6 C 0 km/h
2256 03-10-2020 19:55:00 11.5 C 9.4 g/m*3 11.5 C 0 km/h
2257 03-10-2020 20:00:00 11.5 C 9.4 g/m*3 11.5 C 3.2 km/h
2258 03-10-2020 20:05:00 11.5 C 9.4 g/m*3 11.5 C 1.6 km/h
2259 03-10-2020 20:10:00 11.4 C 9.34 g/m*3 11.4 C 1.6 km/h
2260 03-10-2020 20:15:00 11.4 C 9.24 g/m*3 11.4 C 6.4 km/h
2261 03-10-2020 20:20:00 11.5 C 9.3 g/m*3 11.5 C 3.2 km/h
2262 03-10-2020 20:25:00 11.6 C 9.25 g/m*3 11.6 C 3.2 km/h
2263 03-10-2020 20:30:00 11.6 C 9.25 g/m*3 11.6 C 1.6 km/h
2264 03-10-2020 20:35:00 11.4 C 9.14 g/m*3 11.4 C 0 km/h
2265 03-10-2020 20:40:00 11.3 C 9.08 g/m*3 11.3 C 0 km/h
2266 03-10-2020 20:45:00 11.3 C 9.18 g/m*3 11.3 C 4.8 km/h
2267 03-10-2020 20:50:00 11.2 C 9.12 g/m*3 11.2 C 0 km/h
2268 03-10-2020 20:55:00 11.1 C 9.07 g/m*3 11.1 C 1.6 km/h
2269 03-10-2020 21:00:00 10.9 C 8.95 g/m*3 10.9 C 3.2 km/h
2270 03-10-2020 21:05:00 10.8 C 8.99 g/m*3 10.8 C 0 km/h
2271 03-10-2020 21:10:00 10.8 C 8.99 g/m*3 10.8 C 0 km/h
2272 03-10-2020 21:15:00 10.7 C 9.04 g/m*3 10.7 C 0 km/h
2273 03-10-2020 21:20:00 10.7 C 9.04 g/m*3 10.7 C 0 km/h
2274 03-10-2020 21:25:00 10.8 C 9.19 g/m*3 10.8 C 0 km/h
2275 03-10-2020 21:30:00 10.8 C 9.19 g/m*3 10.8 C 1.6 km/h
Sensor: Nr:Datum:Temp:Abs-Feuchte:Windchill:Wind:
Aussen-T/F 2276 03-10-2020 21:35:00 10.8 C 9.19 g/m*3 10.8 C 1.6 km/h
2277 03-10-2020 21:40:00 10.9 C 9.25 g/m*3 10.9 C 0 km/h
2278 03-10-2020 21:45:00 10.9 C 9.25 g/m*3 10.9 C 3.2 km/h
2279 03-10-2020 21:50:00 10.9 C 9.25 g/m*3 10.9 C 0 km/h
2280 03-10-2020 21:55:00 10.8 C 9.19 g/m*3 10.8 C 0 km/h
2281 03-10-2020 22:00:00 10.7 C 9.13 g/m*3 10.7 C 4.8 km/h
2282 03-10-2020 22:05:00 10.6 C 9.08 g/m*3 10.6 C 1.6 km/h
2283 03-10-2020 22:10:00 10.5 C 9.02 g/m*3 10.5 C 0 km/h
2284 03-10-2020 22:15:00 10.4 C 8.96 g/m*3 10.4 C 3.2 km/h
2285 03-10-2020 22:20:00 10.3 C 8.91 g/m*3 10.3 C 3.2 km/h
2286 03-10-2020 22:25:00 10.2 C 8.85 g/m*3 10.2 C 3.2 km/h
2287 03-10-2020 22:30:00 10.1 C 8.79 g/m*3 10.1 C 1.6 km/h
2288 03-10-2020 22:35:00 10.1 C 8.89 g/m*3 10.1 C 4.8 km/h
2289 03-10-2020 22:40:00 10.2 C 8.95 g/m*3 10.2 C 1.6 km/h
2290 03-10-2020 22:45:00 10.2 C 8.95 g/m*3 10.2 C 3.2 km/h
2291 03-10-2020 22:50:00 10.4 C 9.16 g/m*3 10.4 C 1.6 km/h
2292 03-10-2020 22:55:00 10.6 C 9.17 g/m*3 10.6 C 3.2 km/h
2293 03-10-2020 23:00:00 10.7 C 9.23 g/m*3 9.81 C 8.1 km/h
2294 03-10-2020 23:05:00 10.9 C 9.35 g/m*3 10.41 C 6.4 km/h
2295 03-10-2020 23:10:00 11.1 C 9.37 g/m*3 11.1 C 1.6 km/h
2296 03-10-2020 23:15:00 11.2 C 9.33 g/m*3 11.2 C 3.2 km/h
2297 03-10-2020 23:20:00 11.3 C 9.38 g/m*3 11.3 C 8.1 km/h
2298 03-10-2020 23:25:00 11.4 C 9.34 g/m*3 11.4 C 4.8 km/h
2299 03-10-2020 23:30:00 11.4 C 9.34 g/m*3 11.4 C 3.2 km/h
2300 03-10-2020 23:35:00 11.4 C 9.34 g/m*3 11.4 C 3.2 km/h
Sensor: Nr:Datum:Temp:Abs-Feuchte:Windchill:Wind:
Aussen-T/F 2301 03-10-2020 23:40:00 11.3 C 9.28 g/m*3 11.3 C 6.4 km/h
2302 03-10-2020 23:45:00 11.3 C 9.18 g/m*3 11.3 C 4.8 km/h
2303 03-10-2020 23:50:00 11.2 C 9.12 g/m*3 11.2 C 3.2 km/h
2304 03-10-2020 23:55:00 11.1 C 9.07 g/m*3 11.1 C 6.4 km/h
2305 04-10-2020 00:00:00 11.1 C 9.07 g/m*3 11.1 C 1.6 km/h
2306 04-10-2020 00:05:00 11 C 9.11 g/m*3 10.52 C 6.4 km/h
2307 04-10-2020 00:10:00 10.9 C 9.05 g/m*3 10.9 C 1.6 km/h
2308 04-10-2020 00:15:00 10.9 C 8.95 g/m*3 10.9 C 4.8 km/h
2309 04-10-2020 00:20:00 10.7 C 8.84 g/m*3 10.7 C 3.2 km/h
2310 04-10-2020 00:25:00 10.6 C 8.88 g/m*3 10.6 C 3.2 km/h
2311 04-10-2020 00:30:00 10.4 C 8.77 g/m*3 10.4 C 0 km/h
2312 04-10-2020 00:35:00 10.3 C 8.71 g/m*3 10.3 C 0 km/h
2313 04-10-2020 00:40:00 10.3 C 8.81 g/m*3 10.3 C 3.2 km/h
2314 04-10-2020 00:45:00 10.5 C 9.02 g/m*3 10.5 C 3.2 km/h
2315 04-10-2020 00:50:00 10.6 C 9.08 g/m*3 10.6 C 3.2 km/h
2316 04-10-2020 00:55:00 10.7 C 9.13 g/m*3 10.7 C 1.6 km/h
2317 04-10-2020 01:00:00 10.7 C 9.13 g/m*3 10.7 C 1.6 km/h
2318 04-10-2020 01:05:00 10.7 C 9.13 g/m*3 10.7 C 1.6 km/h
2319 04-10-2020 01:10:00 10.7 C 9.13 g/m*3 10.7 C 1.6 km/h
2320 04-10-2020 01:15:00 10.6 C 9.08 g/m*3 10.6 C 3.2 km/h
2321 04-10-2020 01:20:00 10.7 C 9.13 g/m*3 10.7 C 0 km/h
2322 04-10-2020 01:25:00 10.7 C 9.13 g/m*3 10.7 C 0 km/h
2323 04-10-2020 01:30:00 10.6 C 9.08 g/m*3 10.6 C 0 km/h
2324 04-10-2020 01:35:00 10.6 C 9.08 g/m*3 10.6 C 0 km/h
2325 04-10-2020 01:40:00 10.5 C 9.12 g/m*3 10.5 C 0 km/h
Sensor: Nr:Datum:Temp:Abs-Feuchte:Windchill:Wind:
Aussen-T/F 2326 04-10-2020 01:45:00 10.6 C 9.17 g/m*3 10.6 C 4.8 km/h
2327 04-10-2020 01:50:00 10.6 C 9.17 g/m*3 10.6 C 1.6 km/h
2328 04-10-2020 01:55:00 10.6 C 9.17 g/m*3 10.6 C 0 km/h
2329 04-10-2020 02:00:00 10.6 C 9.17 g/m*3 10.6 C 0 km/h
2330 04-10-2020 02:05:00 10.6 C 9.17 g/m*3 10.06 C 6.4 km/h
2331 04-10-2020 02:10:00 10.5 C 9.12 g/m*3 10.5 C 3.2 km/h
2332 04-10-2020 02:15:00 10.5 C 9.12 g/m*3 10.5 C 1.6 km/h
2333 04-10-2020 02:20:00 10.4 C 9.06 g/m*3 10.4 C 0 km/h
2334 04-10-2020 02:25:00 10.4 C 9.06 g/m*3 10.4 C 1.6 km/h
2335 04-10-2020 02:30:00 10.3 C 9 g/m*3 10.3 C 1.6 km/h
2336 04-10-2020 02:35:00 10.3 C 9 g/m*3 10.3 C 4.8 km/h
2337 04-10-2020 02:40:00 10.3 C 9 g/m*3 10.3 C 4.8 km/h
2338 04-10-2020 02:45:00 10.3 C 9 g/m*3 10.3 C 1.6 km/h
2339 04-10-2020 02:50:00 10.2 C 8.95 g/m*3 10.2 C 0 km/h
2340 04-10-2020 02:55:00 10.2 C 8.95 g/m*3 10.2 C 1.6 km/h
2341 04-10-2020 03:00:00 10.2 C 8.95 g/m*3 10.2 C 1.6 km/h
2342 04-10-2020 03:05:00 10.2 C 8.95 g/m*3 10.2 C 1.6 km/h
2343 04-10-2020 03:10:00 10.1 C 8.89 g/m*3 10.1 C 1.6 km/h
2344 04-10-2020 03:15:00 10.1 C 8.89 g/m*3 10.1 C 1.6 km/h
2345 04-10-2020 03:20:00 10 C 8.93 g/m*3 10 C 3.2 km/h
2346 04-10-2020 03:25:00 10 C 8.93 g/m*3 10 C 1.6 km/h
2347 04-10-2020 03:30:00 9.9 C 8.87 g/m*3 9.9 C 1.6 km/h
2348 04-10-2020 03:35:00 9.9 C 8.87 g/m*3 9.9 C 1.6 km/h
2349 04-10-2020 03:40:00 9.8 C 8.72 g/m*3 9.8 C 0 km/h
2350 04-10-2020 03:45:00 9.7 C 8.67 g/m*3 9.7 C 4.8 km/h
Sensor: Nr:Datum:Temp:Abs-Feuchte:Windchill:Wind:
Aussen-T/F 2351 04-10-2020 03:50:00 9.6 C 8.61 g/m*3 9.6 C 0 km/h
2352 04-10-2020 03:55:00 9.6 C 8.7 g/m*3 9.6 C 0 km/h
2353 04-10-2020 04:00:00 9.6 C 8.7 g/m*3 9.6 C 3.2 km/h
2354 04-10-2020 04:05:00 9.7 C 8.76 g/m*3 9.7 C 1.6 km/h
2355 04-10-2020 04:10:00 9.8 C 8.91 g/m*3 9.8 C 1.6 km/h
2356 04-10-2020 04:15:00 9.8 C 8.91 g/m*3 9.8 C 0 km/h
2357 04-10-2020 04:20:00 9.9 C 8.96 g/m*3 9.9 C 0 km/h
2358 04-10-2020 04:25:00 9.9 C 8.96 g/m*3 9.9 C 4.8 km/h
2359 04-10-2020 04:30:00 10 C 9.02 g/m*3 10 C 1.6 km/h
2360 04-10-2020 04:35:00 10.1 C 9.08 g/m*3 10.1 C 1.6 km/h
2361 04-10-2020 04:40:00 10.1 C 9.08 g/m*3 9.48 C 6.4 km/h
2362 04-10-2020 04:45:00 10.2 C 9.14 g/m*3 10.2 C 3.2 km/h
2363 04-10-2020 04:50:00 10.2 C 9.14 g/m*3 10.2 C 1.6 km/h
2364 04-10-2020 04:55:00 10.3 C 9.19 g/m*3 9.72 C 6.4 km/h
2365 04-10-2020 05:00:00 10.3 C 9.19 g/m*3 10.3 C 1.6 km/h
2366 04-10-2020 05:05:00 10.3 C 9.19 g/m*3 9.04 C 9.7 km/h
2367 04-10-2020 05:10:00 10.3 C 9.19 g/m*3 9.72 C 6.4 km/h
2368 04-10-2020 05:15:00 10.4 C 9.25 g/m*3 10.4 C 3.2 km/h
2369 04-10-2020 05:20:00 10.4 C 9.16 g/m*3 10.4 C 4.8 km/h
2370 04-10-2020 05:25:00 10.3 C 9.1 g/m*3 10.3 C 4.8 km/h
2371 04-10-2020 05:30:00 10.3 C 9.1 g/m*3 10.3 C 4.8 km/h
2372 04-10-2020 05:35:00 10.4 C 9.16 g/m*3 10.4 C 3.2 km/h
2373 04-10-2020 05:40:00 10.4 C 9.16 g/m*3 9.83 C 6.4 km/h
2374 04-10-2020 05:45:00 10.4 C 9.25 g/m*3 10.4 C 4.8 km/h
2375 04-10-2020 05:50:00 10.5 C 9.21 g/m*3 9.57 C 8.1 km/h
Sensor: Nr:Datum:Temp:Abs-Feuchte:Windchill:Wind:
Aussen-T/F 2376 04-10-2020 05:55:00 10.6 C 9.27 g/m*3 10.6 C 1.6 km/h
2377 04-10-2020 06:00:00 10.6 C 9.27 g/m*3 10.6 C 1.6 km/h
2378 04-10-2020 06:05:00 10.6 C 9.27 g/m*3 10.6 C 3.2 km/h
2379 04-10-2020 06:10:00 10.7 C 9.33 g/m*3 10.7 C 4.8 km/h
2380 04-10-2020 06:15:00 10.7 C 9.33 g/m*3 10.7 C 3.2 km/h
2381 04-10-2020 06:20:00 10.7 C 9.33 g/m*3 9.04 C 12.9 km/h
2382 04-10-2020 06:25:00 10.7 C 9.33 g/m*3 9.52 C 9.7 km/h
2383 04-10-2020 06:30:00 10.7 C 9.33 g/m*3 10.7 C 4.8 km/h
2384 04-10-2020 06:35:00 10.8 C 9.39 g/m*3 10.8 C 3.2 km/h
2385 04-10-2020 06:40:00 10.8 C 9.39 g/m*3 10.8 C 3.2 km/h
2386 04-10-2020 06:45:00 10.8 C 9.39 g/m*3 10.8 C 4.8 km/h
2387 04-10-2020 06:50:00 10.7 C 9.33 g/m*3 10.7 C 3.2 km/h
2388 04-10-2020 06:55:00 10.7 C 9.33 g/m*3 10.7 C 4.8 km/h
2389 04-10-2020 07:00:00 10.7 C 9.33 g/m*3 10.7 C 3.2 km/h
2390 04-10-2020 07:05:00 10.7 C 9.33 g/m*3 10.18 C 6.4 km/h
2391 04-10-2020 07:10:00 10.7 C 9.33 g/m*3 10.7 C 1.6 km/h
2392 04-10-2020 07:15:00 10.7 C 9.33 g/m*3 10.18 C 6.4 km/h
2393 04-10-2020 07:20:00 10.6 C 9.17 g/m*3 10.06 C 6.4 km/h
2394 04-10-2020 07:25:00 10.6 C 9.17 g/m*3 10.06 C 6.4 km/h
2395 04-10-2020 07:30:00 10.6 C 9.17 g/m*3 9.69 C 8.1 km/h
2396 04-10-2020 07:35:00 10.5 C 9.12 g/m*3 10.5 C 3.2 km/h
2397 04-10-2020 07:40:00 10.4 C 9.06 g/m*3 10.4 C 1.6 km/h
2398 04-10-2020 07:45:00 10.3 C 9.1 g/m*3 10.3 C 3.2 km/h
2399 04-10-2020 07:50:00 10.3 C 9.1 g/m*3 10.3 C 0 km/h
2400 04-10-2020 07:55:00 10.3 C 9.1 g/m*3 10.3 C 3.2 km/h
Sensor: Nr:Datum:Temp:Abs-Feuchte:Windchill:Wind:
Aussen-T/F 2401 04-10-2020 08:00:00 10.3 C 9.1 g/m*3 10.3 C 1.6 km/h
2402 04-10-2020 08:05:00 10.3 C 9.1 g/m*3 10.3 C 0 km/h
2403 04-10-2020 08:10:00 10.3 C 9.1 g/m*3 10.3 C 1.6 km/h
2404 04-10-2020 08:15:00 10.3 C 9.1 g/m*3 10.3 C 4.8 km/h
2405 04-10-2020 08:20:00 10.3 C 9.1 g/m*3 10.3 C 0 km/h
2406 04-10-2020 08:25:00 10.3 C 9.1 g/m*3 10.3 C 0 km/h
2407 04-10-2020 08:30:00 10.4 C 9.16 g/m*3 10.4 C 1.6 km/h
2408 04-10-2020 08:35:00 10.5 C 9.31 g/m*3 10.5 C 0 km/h
2409 04-10-2020 08:40:00 10.6 C 9.37 g/m*3 10.6 C 4.8 km/h
2410 04-10-2020 08:45:00 10.6 C 9.37 g/m*3 10.6 C 3.2 km/h
2411 04-10-2020 08:50:00 10.6 C 9.27 g/m*3 10.6 C 1.6 km/h
2412 04-10-2020 08:55:00 10.7 C 9.33 g/m*3 10.7 C 4.8 km/h
2413 04-10-2020 09:00:00 10.7 C 9.33 g/m*3 10.7 C 1.6 km/h
2414 04-10-2020 09:05:00 10.8 C 9.39 g/m*3 10.8 C 0 km/h
2415 04-10-2020 09:10:00 10.8 C 9.39 g/m*3 10.29 C 6.4 km/h
2416 04-10-2020 09:15:00 10.8 C 9.29 g/m*3 10.29 C 6.4 km/h
2417 04-10-2020 09:20:00 10.8 C 9.29 g/m*3 9.64 C 9.7 km/h
2418 04-10-2020 09:25:00 10.9 C 9.35 g/m*3 10.9 C 4.8 km/h
2419 04-10-2020 09:30:00 10.9 C 9.25 g/m*3 10.9 C 3.2 km/h
2420 04-10-2020 09:35:00 11 C 9.31 g/m*3 10.52 C 6.4 km/h
2421 04-10-2020 09:40:00 11.1 C 9.37 g/m*3 11.1 C 6.4 km/h
2422 04-10-2020 09:45:00 11.1 C 9.37 g/m*3 11.1 C 4.8 km/h
2423 04-10-2020 09:50:00 11.1 C 9.27 g/m*3 11.1 C 6.4 km/h
2424 04-10-2020 09:55:00 11.2 C 9.33 g/m*3 11.2 C 4.8 km/h
2425 04-10-2020 10:00:00 11.2 C 9.33 g/m*3 11.2 C 8.1 km/h
Sensor: Nr:Datum:Temp:Abs-Feuchte:Windchill:Wind:
Aussen-T/F 2426 04-10-2020 10:05:00 11.2 C 9.33 g/m*3 11.2 C 3.2 km/h
2427 04-10-2020 10:10:00 11.2 C 9.22 g/m*3 11.2 C 6.4 km/h
2428 04-10-2020 10:15:00 11.3 C 9.38 g/m*3 11.3 C 4.8 km/h
2429 04-10-2020 10:20:00 11.4 C 9.34 g/m*3 11.4 C 3.2 km/h
2430 04-10-2020 10:25:00 11.4 C 9.24 g/m*3 11.4 C 4.8 km/h
2431 04-10-2020 10:30:00 11.6 C 9.25 g/m*3 11.6 C 4.8 km/h
2432 04-10-2020 10:35:00 11.7 C 9.2 g/m*3 11.7 C 8.1 km/h
2433 04-10-2020 10:40:00 11.8 C 9.26 g/m*3 11.8 C 14.5 km/h
2434 04-10-2020 10:45:00 11.9 C 9.11 g/m*3 11.9 C 8.1 km/h
2435 04-10-2020 10:50:00 12 C 9.27 g/m*3 12 C 3.2 km/h
2436 04-10-2020 10:55:00 12.1 C 9.22 g/m*3 12.1 C 9.7 km/h
2437 04-10-2020 11:00:00 12.1 C 9.12 g/m*3 12.1 C 12.9 km/h
2438 04-10-2020 11:05:00 12.1 C 9.01 g/m*3 12.1 C 11.3 km/h
2439 04-10-2020 11:10:00 12.2 C 8.96 g/m*3 12.2 C 24.1 km/h
2440 04-10-2020 11:15:00 12.2 C 8.96 g/m*3 12.2 C 16.1 km/h
2441 04-10-2020 11:20:00 12.4 C 9.07 g/m*3 12.4 C 16.1 km/h
2442 04-10-2020 11:25:00 12.6 C 9.07 g/m*3 12.6 C 9.7 km/h
2443 04-10-2020 11:30:00 12.6 C 9.07 g/m*3 12.6 C 16.1 km/h
2444 04-10-2020 11:35:00 12.7 C 9.02 g/m*3 12.7 C 17.7 km/h
2445 04-10-2020 11:40:00 12.8 C 8.85 g/m*3 12.8 C 24.1 km/h
2446 04-10-2020 11:45:00 12.9 C 8.9 g/m*3 12.9 C 22.5 km/h
2447 04-10-2020 11:50:00 12.9 C 8.9 g/m*3 12.9 C 16.1 km/h
2448 04-10-2020 11:55:00 13 C 8.85 g/m*3 13 C 16.1 km/h
2449 04-10-2020 12:00:00 13 C 8.73 g/m*3 13 C 14.5 km/h
2450 04-10-2020 12:05:00 13.1 C 8.79 g/m*3 13.1 C 17.7 km/h
Sensor: Nr:Datum:Temp:Abs-Feuchte:Windchill:Wind:
Aussen-T/F 2451 04-10-2020 12:10:00 13.2 C 8.73 g/m*3 13.2 C 19.3 km/h
2452 04-10-2020 12:15:00 13.1 C 8.79 g/m*3 13.1 C 11.3 km/h
2453 04-10-2020 12:20:00 13.1 C 8.67 g/m*3 13.1 C 29 km/h
2454 04-10-2020 12:25:00 13.1 C 8.9 g/m*3 13.1 C 9.7 km/h
2455 04-10-2020 12:30:00 13.2 C 8.84 g/m*3 13.2 C 9.7 km/h
2456 04-10-2020 12:35:00 13.2 C 8.61 g/m*3 13.2 C 8.1 km/h
2457 04-10-2020 12:40:00 13.3 C 8.9 g/m*3 13.3 C 8.1 km/h
2458 04-10-2020 12:45:00 13.3 C 8.66 g/m*3 13.3 C 8.1 km/h
2459 04-10-2020 12:50:00 13.3 C 8.66 g/m*3 13.3 C 4.8 km/h
2460 04-10-2020 12:55:00 13.2 C 8.73 g/m*3 13.2 C 11.3 km/h
2461 04-10-2020 13:00:00 13.2 C 8.61 g/m*3 13.2 C 11.3 km/h
2462 04-10-2020 13:05:00 13.3 C 8.43 g/m*3 13.3 C 12.9 km/h
2463 04-10-2020 13:10:00 13.3 C 8.09 g/m*3 13.3 C 22.5 km/h
2464 04-10-2020 13:15:00 13.3 C 8.09 g/m*3 13.3 C 12.9 km/h
2465 04-10-2020 13:20:00 13.4 C 8.25 g/m*3 13.4 C 11.3 km/h
2466 04-10-2020 13:25:00 13.4 C 8.14 g/m*3 13.4 C 12.9 km/h
2467 04-10-2020 13:30:00 13.4 C 8.02 g/m*3 13.4 C 12.9 km/h
2468 04-10-2020 13:35:00 13.6 C 8.36 g/m*3 13.6 C 14.5 km/h
2469 04-10-2020 13:40:00 13.7 C 8.17 g/m*3 13.7 C 8.1 km/h
2470 04-10-2020 13:45:00 13.7 C 8.29 g/m*3 13.7 C 8.1 km/h
2471 04-10-2020 13:50:00 13.8 C 8.58 g/m*3 13.8 C 11.3 km/h
2472 04-10-2020 13:55:00 13.8 C 8.46 g/m*3 13.8 C 9.7 km/h
2473 04-10-2020 14:00:00 13.7 C 8.53 g/m*3 13.7 C 12.9 km/h
2474 04-10-2020 14:05:00 13.7 C 8.53 g/m*3 13.7 C 14.5 km/h
2475 04-10-2020 14:10:00 13.6 C 8.36 g/m*3 13.6 C 9.7 km/h
Sensor: Nr:Datum:Temp:Abs-Feuchte:Windchill:Wind:
Aussen-T/F 2476 04-10-2020 14:15:00 13.7 C 8.53 g/m*3 13.7 C 9.7 km/h
2477 04-10-2020 14:20:00 13.8 C 8.46 g/m*3 13.8 C 16.1 km/h
2478 04-10-2020 14:25:00 14.1 C 8.62 g/m*3 14.1 C 12.9 km/h
2479 04-10-2020 14:30:00 14.3 C 8.48 g/m*3 14.3 C 9.7 km/h
2480 04-10-2020 14:35:00 14.4 C 8.41 g/m*3 14.4 C 9.7 km/h
2481 04-10-2020 14:40:00 14.5 C 8.33 g/m*3 14.5 C 16.1 km/h
2482 04-10-2020 14:45:00 14.6 C 8.63 g/m*3 14.6 C 8.1 km/h
2483 04-10-2020 14:50:00 14.7 C 8.69 g/m*3 14.7 C 11.3 km/h
2484 04-10-2020 14:55:00 14.7 C 8.56 g/m*3 14.7 C 14.5 km/h
2485 04-10-2020 15:00:00 14.8 C 8.49 g/m*3 14.8 C 9.7 km/h
2486 04-10-2020 15:05:00 14.8 C 8.74 g/m*3 14.8 C 6.4 km/h
2487 04-10-2020 15:10:00 14.8 C 8.61 g/m*3 14.8 C 11.3 km/h
2488 04-10-2020 15:15:00 14.9 C 8.79 g/m*3 14.9 C 9.7 km/h
2489 04-10-2020 15:20:00 14.9 C 8.67 g/m*3 14.9 C 6.4 km/h
2490 04-10-2020 15:25:00 14.8 C 8.61 g/m*3 14.8 C 16.1 km/h
2491 04-10-2020 15:30:00 14.8 C 8.49 g/m*3 14.8 C 3.2 km/h
2492 04-10-2020 15:35:00 14.8 C 8.49 g/m*3 14.8 C 9.7 km/h
2493 04-10-2020 15:40:00 14.9 C 8.54 g/m*3 14.9 C 8.1 km/h
2494 04-10-2020 15:45:00 15.2 C 8.83 g/m*3 15.2 C 11.3 km/h
2495 04-10-2020 15:50:00 15.4 C 8.8 g/m*3 15.4 C 8.1 km/h
2496 04-10-2020 15:55:00 15.5 C 8.86 g/m*3 15.5 C 6.4 km/h
2497 04-10-2020 16:00:00 15.6 C 8.64 g/m*3 15.6 C 8.1 km/h
2498 04-10-2020 16:05:00 15.6 C 8.91 g/m*3 15.6 C 9.7 km/h
2499 04-10-2020 16:10:00 15.5 C 8.59 g/m*3 15.5 C 11.3 km/h
2500 04-10-2020 16:15:00 15.4 C 8.54 g/m*3 15.4 C 6.4 km/h
Sensor: Nr:Datum:Temp:Abs-Feuchte:Windchill:Wind:
Aussen-T/F 2501 04-10-2020 16:20:00 15.4 C 8.67 g/m*3 15.4 C 11.3 km/h
2502 04-10-2020 16:25:00 15.3 C 8.49 g/m*3 15.3 C 9.7 km/h
2503 04-10-2020 16:30:00 15.3 C 8.75 g/m*3 15.3 C 4.8 km/h
2504 04-10-2020 16:35:00 15.3 C 8.62 g/m*3 15.3 C 4.8 km/h
2505 04-10-2020 16:40:00 15.3 C 8.49 g/m*3 15.3 C 8.1 km/h
2506 04-10-2020 16:45:00 15.3 C 8.62 g/m*3 15.3 C 6.4 km/h
2507 04-10-2020 16:50:00 15.3 C 8.62 g/m*3 15.3 C 1.6 km/h
2508 04-10-2020 16:55:00 15.3 C 8.88 g/m*3 15.3 C 0 km/h
2509 04-10-2020 17:00:00 15.3 C 9.14 g/m*3 15.3 C 3.2 km/h
2510 04-10-2020 17:05:00 15.3 C 8.62 g/m*3 15.3 C 6.4 km/h
2511 04-10-2020 17:10:00 15.2 C 9.09 g/m*3 15.2 C 1.6 km/h
2512 04-10-2020 17:15:00 15.2 C 8.83 g/m*3 15.2 C 0 km/h
2513 04-10-2020 17:20:00 15.2 C 9.22 g/m*3 15.2 C 0 km/h
2514 04-10-2020 17:25:00 15.1 C 8.9 g/m*3 15.1 C 6.4 km/h
2515 04-10-2020 17:30:00 15.1 C 9.55 g/m*3 15.1 C 3.2 km/h
2516 04-10-2020 17:35:00 15.1 C 9.29 g/m*3 15.1 C 1.6 km/h
2517 04-10-2020 17:40:00 14.9 C 9.3 g/m*3 14.9 C 4.8 km/h
2518 04-10-2020 17:45:00 14.7 C 9.32 g/m*3 14.7 C 0 km/h
2519 04-10-2020 17:50:00 14.6 C 9.39 g/m*3 14.6 C 0 km/h
2520 04-10-2020 17:55:00 14.4 C 9.27 g/m*3 14.4 C 0 km/h
2521 04-10-2020 18:00:00 14.4 C 9.02 g/m*3 14.4 C 0 km/h
2522 04-10-2020 18:05:00 14.6 C 9.64 g/m*3 14.6 C 0 km/h
2523 04-10-2020 18:10:00 14.7 C 9.82 g/m*3 14.7 C 0 km/h
2524 04-10-2020 18:15:00 14.7 C 9.95 g/m*3 14.7 C 0 km/h
2525 04-10-2020 18:20:00 14.6 C 9.89 g/m*3 14.6 C 0 km/h
Sensor: Nr:Datum:Temp:Abs-Feuchte:Windchill:Wind:
Aussen-T/F 2526 04-10-2020 18:25:00 14.4 C 9.77 g/m*3 14.4 C 0 km/h
2527 04-10-2020 18:30:00 14.2 C 9.77 g/m*3 14.2 C 0 km/h
2528 04-10-2020 18:35:00 14 C 9.53 g/m*3 14 C 3.2 km/h
2529 04-10-2020 18:40:00 13.8 C 9.41 g/m*3 13.8 C 4.8 km/h
2530 04-10-2020 18:45:00 13.7 C 9.24 g/m*3 13.7 C 4.8 km/h
2531 04-10-2020 18:50:00 13.7 C 9.59 g/m*3 13.7 C 4.8 km/h
2532 04-10-2020 18:55:00 13.6 C 9.65 g/m*3 13.6 C 4.8 km/h
2533 04-10-2020 19:00:00 13.3 C 9.47 g/m*3 13.3 C 8.1 km/h
2534 04-10-2020 19:05:00 13.1 C 9.47 g/m*3 13.1 C 11.3 km/h
2535 04-10-2020 19:10:00 12.8 C 9.3 g/m*3 12.8 C 11.3 km/h
2536 04-10-2020 19:15:00 12.7 C 9.35 g/m*3 12.7 C 3.2 km/h
2537 04-10-2020 19:20:00 12.6 C 9.4 g/m*3 12.6 C 1.6 km/h
2538 04-10-2020 19:25:00 12.6 C 9.51 g/m*3 12.6 C 3.2 km/h
2539 04-10-2020 19:30:00 12.4 C 9.29 g/m*3 12.4 C 6.4 km/h
2540 04-10-2020 19:35:00 12.4 C 9.4 g/m*3 12.4 C 4.8 km/h
2541 04-10-2020 19:40:00 12.3 C 9.45 g/m*3 12.3 C 4.8 km/h
2542 04-10-2020 19:45:00 12.3 C 9.56 g/m*3 12.3 C 1.6 km/h
2543 04-10-2020 19:50:00 12.2 C 9.6 g/m*3 12.2 C 0 km/h
2544 04-10-2020 19:55:00 12.1 C 9.54 g/m*3 12.1 C 0 km/h
2545 04-10-2020 20:00:00 11.9 C 9.43 g/m*3 11.9 C 0 km/h
2546 04-10-2020 20:05:00 11.9 C 9.53 g/m*3 11.9 C 0 km/h
2547 04-10-2020 20:10:00 11.8 C 9.47 g/m*3 11.8 C 1.6 km/h
2548 04-10-2020 20:15:00 11.7 C 9.52 g/m*3 11.7 C 1.6 km/h
2549 04-10-2020 20:20:00 11.7 C 9.52 g/m*3 11.7 C 0 km/h
2550 04-10-2020 20:25:00 11.6 C 9.46 g/m*3 11.6 C 1.6 km/h
Sensor: Nr:Datum:Temp:Abs-Feuchte:Windchill:Wind:
Aussen-T/F 2551 04-10-2020 20:30:00 11.6 C 9.56 g/m*3 11.6 C 0 km/h
2552 04-10-2020 20:35:00 11.6 C 9.56 g/m*3 11.6 C 0 km/h
2553 04-10-2020 20:40:00 11.5 C 9.5 g/m*3 11.5 C 0 km/h
2554 04-10-2020 20:45:00 11.5 C 9.5 g/m*3 11.5 C 3.2 km/h
2555 04-10-2020 20:50:00 11.4 C 9.44 g/m*3 11.4 C 1.6 km/h
2556 04-10-2020 20:55:00 11.4 C 9.44 g/m*3 11.4 C 1.6 km/h
2557 04-10-2020 21:00:00 11.3 C 9.49 g/m*3 11.3 C 9.7 km/h
2558 04-10-2020 21:05:00 11.3 C 9.49 g/m*3 11.3 C 1.6 km/h
2559 04-10-2020 21:10:00 11.3 C 9.49 g/m*3 11.3 C 1.6 km/h
2560 04-10-2020 21:15:00 11.3 C 9.59 g/m*3 11.3 C 1.6 km/h
2561 04-10-2020 21:20:00 11.2 C 9.53 g/m*3 11.2 C 0 km/h
2562 04-10-2020 21:25:00 11.2 C 9.53 g/m*3 11.2 C 0 km/h
2563 04-10-2020 21:30:00 11.1 C 9.47 g/m*3 11.1 C 0 km/h
2564 04-10-2020 21:35:00 11 C 9.31 g/m*3 11 C 1.6 km/h
2565 04-10-2020 21:40:00 10.8 C 9.19 g/m*3 10.8 C 1.6 km/h
2566 04-10-2020 21:45:00 10.7 C 9.13 g/m*3 10.7 C 3.2 km/h
2567 04-10-2020 21:50:00 10.7 C 9.23 g/m*3 10.7 C 0 km/h
2568 04-10-2020 21:55:00 10.7 C 9.23 g/m*3 10.7 C 3.2 km/h
2569 04-10-2020 22:00:00 10.7 C 9.23 g/m*3 10.7 C 1.6 km/h
2570 04-10-2020 22:05:00 10.6 C 9.17 g/m*3 10.6 C 0 km/h
2571 04-10-2020 22:10:00 10.4 C 9.06 g/m*3 10.4 C 1.6 km/h
2572 04-10-2020 22:15:00 10.3 C 9 g/m*3 10.3 C 3.2 km/h
2573 04-10-2020 22:20:00 10.1 C 8.79 g/m*3 9.48 C 6.4 km/h
2574 04-10-2020 22:25:00 9.9 C 8.78 g/m*3 9.9 C 0 km/h
2575 04-10-2020 22:30:00 9.8 C 8.72 g/m*3 9.8 C 3.2 km/h
Sensor: Nr:Datum:Temp:Abs-Feuchte:Windchill:Wind:
Aussen-T/F 2576 04-10-2020 22:35:00 9.6 C 8.61 g/m*3 9.6 C 0 km/h
2577 04-10-2020 22:40:00 9.5 C 8.56 g/m*3 9.5 C 0 km/h
2578 04-10-2020 22:45:00 9.4 C 8.5 g/m*3 9.4 C 0 km/h
2579 04-10-2020 22:50:00 9.3 C 8.45 g/m*3 9.3 C 0 km/h
2580 04-10-2020 22:55:00 9.2 C 8.39 g/m*3 9.2 C 0 km/h
2581 04-10-2020 23:00:00 9.2 C 8.39 g/m*3 9.2 C 0 km/h
2582 04-10-2020 23:05:00 9.1 C 8.34 g/m*3 9.1 C 0 km/h
2583 04-10-2020 23:10:00 9.1 C 8.34 g/m*3 9.1 C 0 km/h
2584 04-10-2020 23:15:00 9.1 C 8.43 g/m*3 9.1 C 0 km/h
2585 04-10-2020 23:20:00 9.1 C 8.43 g/m*3 9.1 C 0 km/h
2586 04-10-2020 23:25:00 9.1 C 8.43 g/m*3 9.1 C 0 km/h
2587 04-10-2020 23:30:00 8.9 C 8.32 g/m*3 8.9 C 0 km/h
2588 04-10-2020 23:35:00 8.9 C 8.32 g/m*3 8.9 C 0 km/h
2589 04-10-2020 23:40:00 8.9 C 8.32 g/m*3 8.9 C 0 km/h
2590 04-10-2020 23:45:00 8.8 C 8.27 g/m*3 8.8 C 0 km/h
2591 04-10-2020 23:50:00 8.7 C 8.22 g/m*3 8.7 C 0 km/h
2592 04-10-2020 23:55:00 8.7 C 8.22 g/m*3 8.7 C 0 km/h
2593 05-10-2020 00:00:00 8.7 C 8.22 g/m*3 8.7 C 0 km/h
2594 05-10-2020 00:05:00 8.7 C 8.22 g/m*3 8.7 C 0 km/h
2595 05-10-2020 00:10:00 8.7 C 8.22 g/m*3 8.7 C 0 km/h
2596 05-10-2020 00:15:00 8.6 C 8.16 g/m*3 8.6 C 3.2 km/h
2597 05-10-2020 00:20:00 8.6 C 8.16 g/m*3 8.6 C 3.2 km/h
2598 05-10-2020 00:25:00 8.4 C 8.06 g/m*3 8.4 C 0 km/h
2599 05-10-2020 00:30:00 8.4 C 8.06 g/m*3 7.11 C 8.1 km/h
2600 05-10-2020 00:35:00 8.7 C 8.3 g/m*3 7.46 C 8.1 km/h
Sensor: Nr:Datum:Temp:Abs-Feuchte:Windchill:Wind:
Aussen-T/F 2601 05-10-2020 00:40:00 8.8 C 8.36 g/m*3 7.98 C 6.4 km/h
2602 05-10-2020 00:45:00 8.7 C 8.3 g/m*3 8.7 C 3.2 km/h
2603 05-10-2020 00:50:00 8.6 C 8.25 g/m*3 8.6 C 3.2 km/h
2604 05-10-2020 00:55:00 8.5 C 8.11 g/m*3 8.5 C 3.2 km/h
2605 05-10-2020 01:00:00 8.4 C 8.06 g/m*3 8.4 C 0 km/h
2606 05-10-2020 01:05:00 8.3 C 8.01 g/m*3 8.3 C 3.2 km/h
2607 05-10-2020 01:10:00 8.3 C 8.01 g/m*3 8.3 C 1.6 km/h
2608 05-10-2020 01:15:00 8.3 C 8.09 g/m*3 8.3 C 4.8 km/h
2609 05-10-2020 01:20:00 8.2 C 8.04 g/m*3 8.2 C 1.6 km/h
2610 05-10-2020 01:25:00 8.3 C 8.09 g/m*3 8.3 C 1.6 km/h
2611 05-10-2020 01:30:00 8.5 C 8.2 g/m*3 8.5 C 1.6 km/h
2612 05-10-2020 01:35:00 8.7 C 8.3 g/m*3 8.7 C 4.8 km/h
2613 05-10-2020 01:40:00 8.8 C 8.36 g/m*3 8.8 C 0 km/h
2614 05-10-2020 01:45:00 9 C 8.55 g/m*3 9 C 1.6 km/h
2615 05-10-2020 01:50:00 9.1 C 8.52 g/m*3 9.1 C 4.8 km/h
2616 05-10-2020 01:55:00 9.2 C 8.57 g/m*3 9.2 C 4.8 km/h
2617 05-10-2020 02:00:00 9.1 C 8.52 g/m*3 8.33 C 6.4 km/h
2618 05-10-2020 02:05:00 8.9 C 8.41 g/m*3 8.1 C 6.4 km/h
2619 05-10-2020 02:10:00 9 C 8.46 g/m*3 9 C 3.2 km/h
2620 05-10-2020 02:15:00 9.1 C 8.52 g/m*3 9.1 C 4.8 km/h
2621 05-10-2020 02:20:00 9.2 C 8.57 g/m*3 9.2 C 0 km/h
2622 05-10-2020 02:25:00 9.2 C 8.57 g/m*3 9.2 C 3.2 km/h
2623 05-10-2020 02:30:00 9.2 C 8.57 g/m*3 9.2 C 4.8 km/h
2624 05-10-2020 02:35:00 9.2 C 8.57 g/m*3 9.2 C 4.8 km/h
2625 05-10-2020 02:40:00 9.2 C 8.57 g/m*3 9.2 C 0 km/h
Sensor: Nr:Datum:Temp:Abs-Feuchte:Windchill:Wind:
Aussen-T/F 2626 05-10-2020 02:45:00 9.3 C 8.72 g/m*3 9.3 C 0 km/h
2627 05-10-2020 02:50:00 9.3 C 8.72 g/m*3 9.3 C 0 km/h
2628 05-10-2020 02:55:00 9.4 C 8.77 g/m*3 9.4 C 3.2 km/h
2629 05-10-2020 03:00:00 9.5 C 8.83 g/m*3 9.5 C 1.6 km/h
2630 05-10-2020 03:05:00 9.5 C 8.83 g/m*3 9.5 C 3.2 km/h
2631 05-10-2020 03:10:00 9.4 C 8.77 g/m*3 9.4 C 3.2 km/h
2632 05-10-2020 03:15:00 9.4 C 8.68 g/m*3 9.4 C 4.8 km/h
2633 05-10-2020 03:20:00 9.3 C 8.72 g/m*3 9.3 C 3.2 km/h
2634 05-10-2020 03:25:00 9.2 C 8.57 g/m*3 9.2 C 0 km/h
2635 05-10-2020 03:30:00 9.1 C 8.52 g/m*3 9.1 C 0 km/h
2636 05-10-2020 03:35:00 8.9 C 8.41 g/m*3 8.9 C 0 km/h
2637 05-10-2020 03:40:00 8.8 C 8.36 g/m*3 8.8 C 0 km/h
2638 05-10-2020 03:45:00 8.8 C 8.36 g/m*3 8.8 C 0 km/h
2639 05-10-2020 03:50:00 8.8 C 8.36 g/m*3 8.8 C 0 km/h
2640 05-10-2020 03:55:00 8.7 C 8.3 g/m*3 8.7 C 0 km/h
2641 05-10-2020 04:00:00 8.7 C 8.3 g/m*3 8.7 C 0 km/h
2642 05-10-2020 04:05:00 8.8 C 8.36 g/m*3 8.8 C 4.8 km/h
2643 05-10-2020 04:10:00 8.8 C 8.44 g/m*3 8.8 C 3.2 km/h
2644 05-10-2020 04:15:00 8.8 C 8.36 g/m*3 8.8 C 3.2 km/h
2645 05-10-2020 04:20:00 8.9 C 8.41 g/m*3 8.9 C 1.6 km/h
2646 05-10-2020 04:25:00 8.9 C 8.41 g/m*3 8.9 C 3.2 km/h
2647 05-10-2020 04:30:00 9 C 8.55 g/m*3 9 C 3.2 km/h
2648 05-10-2020 04:35:00 9.1 C 8.61 g/m*3 9.1 C 3.2 km/h
2649 05-10-2020 04:40:00 9.1 C 8.61 g/m*3 9.1 C 4.8 km/h
2650 05-10-2020 04:45:00 9.1 C 8.61 g/m*3 9.1 C 1.6 km/h
Sensor: Nr:Datum:Temp:Abs-Feuchte:Windchill:Wind:
Aussen-T/F 2651 05-10-2020 04:50:00 9.1 C 8.61 g/m*3 9.1 C 0 km/h
2652 05-10-2020 04:55:00 9 C 8.46 g/m*3 9 C 3.2 km/h
2653 05-10-2020 05:00:00 8.9 C 8.41 g/m*3 8.9 C 3.2 km/h
2654 05-10-2020 05:05:00 8.9 C 8.41 g/m*3 8.9 C 4.8 km/h
2655 05-10-2020 05:10:00 8.8 C 8.36 g/m*3 8.8 C 4.8 km/h
2656 05-10-2020 05:15:00 8.7 C 8.39 g/m*3 8.7 C 3.2 km/h
2657 05-10-2020 05:20:00 8.7 C 8.39 g/m*3 8.7 C 0 km/h
2658 05-10-2020 05:25:00 8.6 C 8.25 g/m*3 8.6 C 3.2 km/h
2659 05-10-2020 05:30:00 8.5 C 8.2 g/m*3 8.5 C 3.2 km/h
2660 05-10-2020 05:35:00 8.4 C 8.14 g/m*3 8.4 C 4.8 km/h
2661 05-10-2020 05:40:00 8.4 C 8.14 g/m*3 8.4 C 3.2 km/h
2662 05-10-2020 05:45:00 8.4 C 8.23 g/m*3 8.4 C 4.8 km/h
2663 05-10-2020 05:50:00 8.4 C 8.23 g/m*3 8.4 C 3.2 km/h
2664 05-10-2020 05:55:00 8.4 C 8.23 g/m*3 8.4 C 1.6 km/h
2665 05-10-2020 06:00:00 8.3 C 8.18 g/m*3 8.3 C 0 km/h
2666 05-10-2020 06:05:00 8.3 C 8.18 g/m*3 8.3 C 4.8 km/h
2667 05-10-2020 06:10:00 8.4 C 8.23 g/m*3 8.4 C 3.2 km/h
2668 05-10-2020 06:15:00 8.4 C 8.23 g/m*3 8.4 C 3.2 km/h
2669 05-10-2020 06:20:00 8.6 C 8.34 g/m*3 8.6 C 3.2 km/h
2670 05-10-2020 06:25:00 8.6 C 8.34 g/m*3 8.6 C 3.2 km/h
2671 05-10-2020 06:30:00 8.6 C 8.34 g/m*3 8.6 C 4.8 km/h
2672 05-10-2020 06:35:00 8.6 C 8.34 g/m*3 8.6 C 4.8 km/h
2673 05-10-2020 06:40:00 8.6 C 8.34 g/m*3 8.6 C 4.8 km/h
2674 05-10-2020 06:45:00 8.6 C 8.34 g/m*3 8.6 C 0 km/h
2675 05-10-2020 06:50:00 8.6 C 8.34 g/m*3 8.6 C 3.2 km/h
Sensor: Nr:Datum:Temp:Abs-Feuchte:Windchill:Wind:
Aussen-T/F 2676 05-10-2020 06:55:00 8.6 C 8.34 g/m*3 8.6 C 4.8 km/h
2677 05-10-2020 07:00:00 8.6 C 8.34 g/m*3 8.6 C 4.8 km/h
2678 05-10-2020 07:05:00 8.6 C 8.34 g/m*3 8.6 C 1.6 km/h
2679 05-10-2020 07:10:00 8.7 C 8.39 g/m*3 8.7 C 3.2 km/h
2680 05-10-2020 07:15:00 8.7 C 8.39 g/m*3 8.7 C 4.8 km/h
2681 05-10-2020 07:20:00 8.8 C 8.44 g/m*3 8.8 C 0 km/h
2682 05-10-2020 07:25:00 8.8 C 8.44 g/m*3 8.8 C 0 km/h
2683 05-10-2020 07:30:00 8.8 C 8.44 g/m*3 8.8 C 0 km/h
2684 05-10-2020 07:35:00 8.9 C 8.5 g/m*3 8.9 C 0 km/h
2685 05-10-2020 07:40:00 8.9 C 8.5 g/m*3 8.9 C 0 km/h
2686 05-10-2020 07:45:00 8.8 C 8.44 g/m*3 8.8 C 0 km/h
2687 05-10-2020 07:50:00 8.8 C 8.44 g/m*3 8.8 C 4.8 km/h
2688 05-10-2020 07:55:00 8.8 C 8.44 g/m*3 8.8 C 3.2 km/h
2689 05-10-2020 08:00:00 8.9 C 8.5 g/m*3 8.9 C 4.8 km/h
2690 05-10-2020 08:05:00 9 C 8.55 g/m*3 9 C 4.8 km/h
2691 05-10-2020 08:10:00 9.1 C 8.61 g/m*3 9.1 C 3.2 km/h
2692 05-10-2020 08:15:00 9.1 C 8.61 g/m*3 9.1 C 3.2 km/h
2693 05-10-2020 08:20:00 9.1 C 8.61 g/m*3 9.1 C 3.2 km/h
2694 05-10-2020 08:25:00 9.2 C 8.66 g/m*3 9.2 C 3.2 km/h
2695 05-10-2020 08:30:00 9.2 C 8.66 g/m*3 9.2 C 1.6 km/h
2696 05-10-2020 08:35:00 9.3 C 8.72 g/m*3 9.3 C 0 km/h
2697 05-10-2020 08:40:00 9.3 C 8.72 g/m*3 9.3 C 4.8 km/h
2698 05-10-2020 08:45:00 9.4 C 8.77 g/m*3 9.4 C 0 km/h
2699 05-10-2020 08:50:00 9.6 C 8.89 g/m*3 9.6 C 3.2 km/h
2700 05-10-2020 08:55:00 9.6 C 8.89 g/m*3 9.6 C 1.6 km/h
Sensor: Nr:Datum:Temp:Abs-Feuchte:Windchill:Wind:
Aussen-T/F 2701 05-10-2020 09:00:00 9.7 C 8.94 g/m*3 9.7 C 1.6 km/h
2702 05-10-2020 09:05:00 9.8 C 9 g/m*3 9.8 C 1.6 km/h
2703 05-10-2020 09:10:00 9.9 C 9.06 g/m*3 9.9 C 0 km/h
2704 05-10-2020 09:15:00 10 C 9.11 g/m*3 10 C 1.6 km/h
2705 05-10-2020 09:20:00 10.1 C 9.17 g/m*3 10.1 C 4.8 km/h
2706 05-10-2020 09:25:00 10.2 C 9.23 g/m*3 10.2 C 1.6 km/h
2707 05-10-2020 09:30:00 10.3 C 9.29 g/m*3 10.3 C 4.8 km/h
2708 05-10-2020 09:35:00 10.3 C 9.29 g/m*3 10.3 C 1.6 km/h
2709 05-10-2020 09:40:00 10.3 C 9.29 g/m*3 10.3 C 3.2 km/h
2710 05-10-2020 09:45:00 10.3 C 9.29 g/m*3 10.3 C 3.2 km/h
2711 05-10-2020 09:50:00 10.3 C 9.29 g/m*3 10.3 C 4.8 km/h
2712 05-10-2020 09:55:00 10.3 C 9.29 g/m*3 9.72 C 6.4 km/h
2713 05-10-2020 10:00:00 10.2 C 9.23 g/m*3 10.2 C 1.6 km/h
2714 05-10-2020 10:05:00 10.1 C 9.17 g/m*3 8.8 C 9.7 km/h
2715 05-10-2020 10:10:00 10.1 C 9.17 g/m*3 10.1 C 4.8 km/h
2716 05-10-2020 10:15:00 10.2 C 9.14 g/m*3 10.2 C 1.6 km/h
2717 05-10-2020 10:20:00 10.2 C 9.14 g/m*3 10.2 C 3.2 km/h
2718 05-10-2020 10:25:00 10.2 C 9.14 g/m*3 10.2 C 1.6 km/h
2719 05-10-2020 10:30:00 10.3 C 9.19 g/m*3 10.3 C 3.2 km/h
2720 05-10-2020 10:35:00 10.3 C 9.19 g/m*3 9.72 C 6.4 km/h
2721 05-10-2020 10:40:00 10.3 C 9.1 g/m*3 10.3 C 4.8 km/h
2722 05-10-2020 10:45:00 10.4 C 9.16 g/m*3 10.4 C 3.2 km/h
2723 05-10-2020 10:50:00 10.4 C 9.06 g/m*3 9.16 C 9.7 km/h
2724 05-10-2020 10:55:00 10.6 C 9.08 g/m*3 9.14 C 11.3 km/h
2725 05-10-2020 11:00:00 10.7 C 9.13 g/m*3 9.81 C 8.1 km/h
Sensor: Nr:Datum:Temp:Abs-Feuchte:Windchill:Wind:
Aussen-T/F 2726 05-10-2020 11:05:00 10.8 C 9.19 g/m*3 10.8 C 1.6 km/h
2727 05-10-2020 11:10:00 11 C 9.11 g/m*3 9.63 C 11.3 km/h
2728 05-10-2020 11:15:00 11.2 C 9.22 g/m*3 11.2 C 4.8 km/h
2729 05-10-2020 11:20:00 11.3 C 9.08 g/m*3 11.3 C 8.1 km/h
2730 05-10-2020 11:25:00 11.5 C 9.19 g/m*3 11.5 C 9.7 km/h
2731 05-10-2020 11:30:00 11.7 C 8.99 g/m*3 11.7 C 8.1 km/h
2732 05-10-2020 11:35:00 11.9 C 9.11 g/m*3 11.9 C 9.7 km/h
2733 05-10-2020 11:40:00 12.1 C 9.12 g/m*3 12.1 C 14.5 km/h
2734 05-10-2020 11:45:00 12.3 C 9.12 g/m*3 12.3 C 14.5 km/h
2735 05-10-2020 11:50:00 12.4 C 9.29 g/m*3 12.4 C 6.4 km/h
2736 05-10-2020 11:55:00 12.4 C 9.18 g/m*3 12.4 C 4.8 km/h
2737 05-10-2020 12:00:00 12.6 C 9.29 g/m*3 12.6 C 9.7 km/h
2738 05-10-2020 12:05:00 12.7 C 9.24 g/m*3 12.7 C 12.9 km/h
2739 05-10-2020 12:10:00 12.8 C 9.3 g/m*3 12.8 C 16.1 km/h
2740 05-10-2020 12:15:00 12.9 C 9.24 g/m*3 12.9 C 4.8 km/h
2741 05-10-2020 12:20:00 12.9 C 9.24 g/m*3 12.9 C 9.7 km/h
2742 05-10-2020 12:25:00 12.9 C 9.24 g/m*3 12.9 C 8.1 km/h
2743 05-10-2020 12:30:00 12.9 C 9.24 g/m*3 12.9 C 4.8 km/h
2744 05-10-2020 12:35:00 12.9 C 9.13 g/m*3 12.9 C 9.7 km/h
2745 05-10-2020 12:40:00 13 C 9.3 g/m*3 13 C 6.4 km/h
2746 05-10-2020 12:45:00 13.1 C 9.36 g/m*3 13.1 C 8.1 km/h
2747 05-10-2020 12:50:00 13.1 C 9.36 g/m*3 13.1 C 4.8 km/h
2748 05-10-2020 12:55:00 13.1 C 9.36 g/m*3 13.1 C 4.8 km/h
2749 05-10-2020 13:00:00 13.1 C 9.36 g/m*3 13.1 C 9.7 km/h
2750 05-10-2020 13:05:00 12.9 C 9.35 g/m*3 12.9 C 11.3 km/h
Sensor: Nr:Datum:Temp:Abs-Feuchte:Windchill:Wind:
Aussen-T/F 2751 05-10-2020 13:10:00 12.9 C 9.47 g/m*3 12.9 C 0 km/h
2752 05-10-2020 13:15:00 12.9 C 9.58 g/m*3 12.9 C 4.8 km/h
2753 05-10-2020 13:20:00 12.9 C 9.58 g/m*3 12.9 C 3.2 km/h
2754 05-10-2020 13:25:00 13 C 9.53 g/m*3 13 C 11.3 km/h
2755 05-10-2020 13:30:00 12.9 C 9.35 g/m*3 12.9 C 12.9 km/h
2756 05-10-2020 13:35:00 12.9 C 9.35 g/m*3 12.9 C 3.2 km/h
2757 05-10-2020 13:40:00 12.9 C 9.58 g/m*3 12.9 C 6.4 km/h
2758 05-10-2020 13:45:00 12.8 C 9.63 g/m*3 12.8 C 3.2 km/h
2759 05-10-2020 13:50:00 12.7 C 9.57 g/m*3 12.7 C 4.8 km/h
2760 05-10-2020 13:55:00 12.6 C 9.51 g/m*3 12.6 C 3.2 km/h
2761 05-10-2020 14:00:00 12.5 C 9.57 g/m*3 12.5 C 1.6 km/h
2762 05-10-2020 14:05:00 12.6 C 9.85 g/m*3 12.6 C 0 km/h
2763 05-10-2020 14:10:00 12.6 C 9.96 g/m*3 12.6 C 0 km/h
2764 05-10-2020 14:15:00 12.7 C 10.02 g/m*3 12.7 C 1.6 km/h
2765 05-10-2020 14:20:00 12.8 C 10.08 g/m*3 12.8 C 1.6 km/h
2766 05-10-2020 14:25:00 12.9 C 10.14 g/m*3 12.9 C 4.8 km/h
2767 05-10-2020 14:30:00 13.2 C 10.33 g/m*3 13.2 C 3.2 km/h
2768 05-10-2020 14:35:00 13.2 C 9.99 g/m*3 13.2 C 12.9 km/h
2769 05-10-2020 14:40:00 13.4 C 10.23 g/m*3 13.4 C 3.2 km/h
2770 05-10-2020 14:45:00 13.6 C 10.24 g/m*3 13.6 C 4.8 km/h
2771 05-10-2020 14:50:00 13.8 C 10.25 g/m*3 13.8 C 9.7 km/h
2772 05-10-2020 14:55:00 13.9 C 10.19 g/m*3 13.9 C 8.1 km/h
2773 05-10-2020 15:00:00 13.9 C 10.19 g/m*3 13.9 C 8.1 km/h
2774 05-10-2020 15:05:00 13.9 C 10.19 g/m*3 13.9 C 14.5 km/h
2775 05-10-2020 15:10:00 14 C 10.25 g/m*3 14 C 3.2 km/h
Sensor: Nr:Datum:Temp:Abs-Feuchte:Windchill:Wind:
Aussen-T/F 2776 05-10-2020 15:15:00 14.1 C 10.32 g/m*3 14.1 C 6.4 km/h
2777 05-10-2020 15:20:00 14 C 10.13 g/m*3 14 C 8.1 km/h
2778 05-10-2020 15:25:00 14 C 10.25 g/m*3 14 C 1.6 km/h
2779 05-10-2020 15:30:00 14.1 C 10.07 g/m*3 14.1 C 9.7 km/h
2780 05-10-2020 15:35:00 14 C 10.01 g/m*3 14 C 11.3 km/h
2781 05-10-2020 15:40:00 14 C 10.01 g/m*3 14 C 11.3 km/h
2782 05-10-2020 15:45:00 14.1 C 10.07 g/m*3 14.1 C 12.9 km/h
2783 05-10-2020 15:50:00 14.2 C 10.01 g/m*3 14.2 C 8.1 km/h
2784 05-10-2020 15:55:00 14.2 C 10.01 g/m*3 14.2 C 19.3 km/h
2785 05-10-2020 16:00:00 14.2 C 10.01 g/m*3 14.2 C 8.1 km/h
2786 05-10-2020 16:05:00 14.2 C 10.01 g/m*3 14.2 C 8.1 km/h
2787 05-10-2020 16:10:00 14.2 C 10.01 g/m*3 14.2 C 14.5 km/h
2788 05-10-2020 16:15:00 14.1 C 9.95 g/m*3 14.1 C 9.7 km/h
2789 05-10-2020 16:20:00 14.1 C 9.83 g/m*3 14.1 C 14.5 km/h
2790 05-10-2020 16:25:00 14.3 C 10.07 g/m*3 14.3 C 9.7 km/h
2791 05-10-2020 16:30:00 14.4 C 10.14 g/m*3 14.4 C 9.7 km/h
2792 05-10-2020 16:35:00 14.6 C 10.14 g/m*3 14.6 C 6.4 km/h
2793 05-10-2020 16:40:00 14.5 C 9.95 g/m*3 14.5 C 11.3 km/h
2794 05-10-2020 16:45:00 14.4 C 9.89 g/m*3 14.4 C 9.7 km/h
2795 05-10-2020 16:50:00 14.2 C 9.77 g/m*3 14.2 C 11.3 km/h
2796 05-10-2020 16:55:00 14.1 C 9.83 g/m*3 14.1 C 8.1 km/h
2797 05-10-2020 17:00:00 13.9 C 9.71 g/m*3 13.9 C 11.3 km/h
2798 05-10-2020 17:05:00 13.8 C 9.65 g/m*3 13.8 C 12.9 km/h
2799 05-10-2020 17:10:00 13.7 C 9.71 g/m*3 13.7 C 9.7 km/h
2800 05-10-2020 17:15:00 13.7 C 9.83 g/m*3 13.7 C 6.4 km/h
Sensor: Nr:Datum:Temp:Abs-Feuchte:Windchill:Wind:
Aussen-T/F 2801 05-10-2020 17:20:00 13.6 C 9.77 g/m*3 13.6 C 11.3 km/h
2802 05-10-2020 17:25:00 13.6 C 9.77 g/m*3 13.6 C 14.5 km/h
2803 05-10-2020 17:30:00 13.6 C 9.77 g/m*3 13.6 C 12.9 km/h
2804 05-10-2020 17:35:00 13.6 C 9.65 g/m*3 13.6 C 8.1 km/h
2805 05-10-2020 17:40:00 13.6 C 9.65 g/m*3 13.6 C 8.1 km/h
2806 05-10-2020 17:45:00 13.6 C 9.65 g/m*3 13.6 C 16.1 km/h
2807 05-10-2020 17:50:00 13.6 C 9.77 g/m*3 13.6 C 6.4 km/h
2808 05-10-2020 17:55:00 13.6 C 9.89 g/m*3 13.6 C 4.8 km/h
2809 05-10-2020 18:00:00 13.6 C 9.77 g/m*3 13.6 C 3.2 km/h
2810 05-10-2020 18:05:00 13.5 C 9.71 g/m*3 13.5 C 4.8 km/h
2811 05-10-2020 18:10:00 13.5 C 9.71 g/m*3 13.5 C 0 km/h
2812 05-10-2020 18:15:00 13.4 C 9.76 g/m*3 13.4 C 1.6 km/h
2813 05-10-2020 18:20:00 13.4 C 9.76 g/m*3 13.4 C 4.8 km/h
2814 05-10-2020 18:25:00 13.4 C 9.76 g/m*3 13.4 C 4.8 km/h
2815 05-10-2020 18:30:00 13.3 C 9.7 g/m*3 13.3 C 1.6 km/h
2816 05-10-2020 18:35:00 13.3 C 9.7 g/m*3 13.3 C 8.1 km/h
2817 05-10-2020 18:40:00 13.3 C 9.82 g/m*3 13.3 C 0 km/h
2818 05-10-2020 18:45:00 13.3 C 9.7 g/m*3 13.3 C 3.2 km/h
2819 05-10-2020 18:50:00 13.3 C 9.82 g/m*3 13.3 C 1.6 km/h
2820 05-10-2020 18:55:00 13.2 C 9.76 g/m*3 13.2 C 6.4 km/h
2821 05-10-2020 19:00:00 13.2 C 9.76 g/m*3 13.2 C 3.2 km/h
2822 05-10-2020 19:05:00 13.1 C 9.81 g/m*3 13.1 C 0 km/h
2823 05-10-2020 19:10:00 13.1 C 9.81 g/m*3 13.1 C 0 km/h
2824 05-10-2020 19:15:00 13 C 9.75 g/m*3 13 C 0 km/h
2825 05-10-2020 19:20:00 12.9 C 9.69 g/m*3 12.9 C 0 km/h
Sensor: Nr:Datum:Temp:Abs-Feuchte:Windchill:Wind:
Aussen-T/F 2826 05-10-2020 19:25:00 12.8 C 9.74 g/m*3 12.8 C 3.2 km/h
2827 05-10-2020 19:30:00 12.8 C 9.74 g/m*3 12.8 C 3.2 km/h
2828 05-10-2020 19:35:00 12.7 C 9.68 g/m*3 12.7 C 0 km/h
2829 05-10-2020 19:40:00 12.7 C 9.8 g/m*3 12.7 C 0 km/h
2830 05-10-2020 19:45:00 12.6 C 9.74 g/m*3 12.6 C 3.2 km/h
2831 05-10-2020 19:50:00 12.6 C 9.85 g/m*3 12.6 C 0 km/h
2832 05-10-2020 19:55:00 12.4 C 9.72 g/m*3 12.4 C 4.8 km/h
2833 05-10-2020 20:00:00 12.4 C 9.72 g/m*3 12.4 C 8.1 km/h
2834 05-10-2020 20:05:00 12.4 C 9.72 g/m*3 12.4 C 3.2 km/h
2835 05-10-2020 20:10:00 12.3 C 9.66 g/m*3 12.3 C 1.6 km/h
2836 05-10-2020 20:15:00 12.2 C 9.6 g/m*3 12.2 C 3.2 km/h
2837 05-10-2020 20:20:00 12.2 C 9.6 g/m*3 12.2 C 0 km/h
2838 05-10-2020 20:25:00 12.1 C 9.54 g/m*3 12.1 C 1.6 km/h
2839 05-10-2020 20:30:00 12.1 C 9.65 g/m*3 12.1 C 4.8 km/h
2840 05-10-2020 20:35:00 12 C 9.59 g/m*3 12 C 6.4 km/h
2841 05-10-2020 20:40:00 11.9 C 9.53 g/m*3 11.9 C 1.6 km/h
2842 05-10-2020 20:45:00 11.9 C 9.53 g/m*3 11.9 C 1.6 km/h
2843 05-10-2020 20:50:00 11.8 C 9.58 g/m*3 11.8 C 3.2 km/h
2844 05-10-2020 20:55:00 11.8 C 9.58 g/m*3 11.8 C 6.4 km/h
2845 05-10-2020 21:00:00 11.9 C 9.64 g/m*3 11.9 C 3.2 km/h
2846 05-10-2020 21:05:00 11.9 C 9.64 g/m*3 11.9 C 0 km/h
2847 05-10-2020 21:10:00 11.9 C 9.64 g/m*3 11.9 C 0 km/h
2848 05-10-2020 21:15:00 12 C 9.8 g/m*3 12 C 0 km/h
2849 05-10-2020 21:20:00 12 C 9.8 g/m*3 12 C 0 km/h
2850 05-10-2020 21:25:00 12 C 9.8 g/m*3 12 C 1.6 km/h
Sensor: Nr:Datum:Temp:Abs-Feuchte:Windchill:Wind:
Aussen-T/F 2851 05-10-2020 21:30:00 11.9 C 9.74 g/m*3 11.9 C 0 km/h
2852 05-10-2020 21:35:00 11.9 C 9.74 g/m*3 11.9 C 0 km/h
2853 05-10-2020 21:40:00 11.9 C 9.74 g/m*3 11.9 C 0 km/h
2854 05-10-2020 21:45:00 11.9 C 9.74 g/m*3 11.9 C 3.2 km/h
2855 05-10-2020 21:50:00 11.8 C 9.79 g/m*3 11.8 C 1.6 km/h
2856 05-10-2020 21:55:00 11.8 C 9.79 g/m*3 11.8 C 0 km/h
2857 05-10-2020 22:00:00 11.8 C 9.79 g/m*3 11.8 C 1.6 km/h
2858 05-10-2020 22:05:00 11.8 C 9.79 g/m*3 11.8 C 0 km/h
2859 05-10-2020 22:10:00 11.8 C 9.79 g/m*3 11.8 C 0 km/h
2860 05-10-2020 22:15:00 11.8 C 9.79 g/m*3 11.8 C 0 km/h
2861 05-10-2020 22:20:00 11.8 C 9.79 g/m*3 11.8 C 0 km/h
2862 05-10-2020 22:25:00 11.7 C 9.73 g/m*3 11.7 C 3.2 km/h
2863 05-10-2020 22:30:00 11.7 C 9.73 g/m*3 11.7 C 0 km/h
2864 05-10-2020 22:35:00 11.6 C 9.67 g/m*3 11.6 C 0 km/h
2865 05-10-2020 22:40:00 11.4 C 9.55 g/m*3 11.4 C 0 km/h
2866 05-10-2020 22:45:00 11.3 C 9.49 g/m*3 11.3 C 0 km/h
2867 05-10-2020 22:50:00 11.2 C 9.53 g/m*3 11.2 C 1.6 km/h
2868 05-10-2020 22:55:00 11.2 C 9.53 g/m*3 11.2 C 0 km/h
2869 05-10-2020 23:00:00 11.3 C 9.59 g/m*3 11.3 C 0 km/h
2870 05-10-2020 23:05:00 11.3 C 9.69 g/m*3 11.3 C 4.8 km/h
2871 05-10-2020 23:10:00 11.4 C 9.75 g/m*3 11.4 C 0 km/h
2872 05-10-2020 23:15:00 11.4 C 9.75 g/m*3 11.4 C 0 km/h
2873 05-10-2020 23:20:00 11.5 C 9.81 g/m*3 11.5 C 1.6 km/h
2874 05-10-2020 23:25:00 11.6 C 9.87 g/m*3 11.6 C 0 km/h
2875 05-10-2020 23:30:00 11.6 C 9.87 g/m*3 11.6 C 6.4 km/h
Sensor: Nr:Datum:Temp:Abs-Feuchte:Windchill:Wind:
Aussen-T/F 2876 05-10-2020 23:35:00 11.6 C 9.87 g/m*3 11.6 C 0 km/h
2877 05-10-2020 23:40:00 11.6 C 9.87 g/m*3 11.6 C 1.6 km/h
2878 05-10-2020 23:45:00 11.7 C 9.94 g/m*3 11.7 C 1.6 km/h
2879 05-10-2020 23:50:00 11.7 C 9.94 g/m*3 11.7 C 1.6 km/h
2880 05-10-2020 23:55:00 11.7 C 9.94 g/m*3 11.7 C 0 km/h
2881 06-10-2020 00:00:00 11.8 C 10 g/m*3 11.8 C 0 km/h
2882 06-10-2020 00:05:00 11.8 C 10 g/m*3 11.8 C 0 km/h
2883 06-10-2020 00:10:00 11.8 C 10 g/m*3 11.8 C 0 km/h
2884 06-10-2020 00:15:00 11.8 C 10 g/m*3 11.8 C 3.2 km/h
2885 06-10-2020 00:20:00 11.8 C 10 g/m*3 11.8 C 0 km/h
2886 06-10-2020 00:25:00 11.8 C 10 g/m*3 11.8 C 0 km/h
2887 06-10-2020 00:30:00 11.7 C 9.94 g/m*3 11.7 C 1.6 km/h
2888 06-10-2020 00:35:00 11.8 C 10.1 g/m*3 11.8 C 0 km/h
2889 06-10-2020 00:40:00 11.8 C 10.1 g/m*3 11.8 C 0 km/h
2890 06-10-2020 00:45:00 11.8 C 10.1 g/m*3 11.8 C 0 km/h
2891 06-10-2020 00:50:00 11.8 C 10.1 g/m*3 11.8 C 3.2 km/h
2892 06-10-2020 00:55:00 11.8 C 10.1 g/m*3 11.8 C 0 km/h
2893 06-10-2020 01:00:00 11.8 C 10.1 g/m*3 11.8 C 0 km/h
2894 06-10-2020 01:05:00 11.8 C 10.1 g/m*3 11.8 C 0 km/h
2895 06-10-2020 01:10:00 11.8 C 10.1 g/m*3 11.8 C 1.6 km/h
2896 06-10-2020 01:15:00 11.8 C 10.1 g/m*3 11.8 C 0 km/h
2897 06-10-2020 01:20:00 11.8 C 10.1 g/m*3 11.8 C 1.6 km/h
2898 06-10-2020 01:25:00 11.8 C 10.1 g/m*3 11.8 C 0 km/h
2899 06-10-2020 01:30:00 11.8 C 10.1 g/m*3 11.8 C 4.8 km/h
2900 06-10-2020 01:35:00 11.8 C 10.1 g/m*3 11.8 C 4.8 km/h
Sensor: Nr:Datum:Temp:Abs-Feuchte:Windchill:Wind:
Aussen-T/F 2901 06-10-2020 01:40:00 11.8 C 10.1 g/m*3 11.8 C 1.6 km/h
2902 06-10-2020 01:45:00 11.8 C 10.1 g/m*3 11.8 C 0 km/h
2903 06-10-2020 01:50:00 11.8 C 10.1 g/m*3 11.8 C 3.2 km/h
2904 06-10-2020 01:55:00 11.8 C 10.1 g/m*3 11.8 C 8.1 km/h
2905 06-10-2020 02:00:00 11.8 C 10.1 g/m*3 11.8 C 9.7 km/h
2906 06-10-2020 02:05:00 11.8 C 10.1 g/m*3 11.8 C 9.7 km/h
2907 06-10-2020 02:10:00 11.8 C 10.1 g/m*3 11.8 C 0 km/h
2908 06-10-2020 02:15:00 11.8 C 10.1 g/m*3 11.8 C 0 km/h
2909 06-10-2020 02:20:00 11.8 C 10.1 g/m*3 11.8 C 1.6 km/h
2910 06-10-2020 02:25:00 11.8 C 10.1 g/m*3 11.8 C 1.6 km/h
2911 06-10-2020 02:30:00 11.8 C 10.1 g/m*3 11.8 C 1.6 km/h
2912 06-10-2020 02:35:00 11.8 C 10.1 g/m*3 11.8 C 3.2 km/h
2913 06-10-2020 02:40:00 11.8 C 10.1 g/m*3 11.8 C 1.6 km/h
2914 06-10-2020 02:45:00 11.8 C 10.1 g/m*3 11.8 C 0 km/h
2915 06-10-2020 02:50:00 11.8 C 10.1 g/m*3 11.8 C 1.6 km/h
2916 06-10-2020 02:55:00 11.8 C 10.1 g/m*3 11.8 C 1.6 km/h
2917 06-10-2020 03:00:00 11.8 C 10.1 g/m*3 11.8 C 1.6 km/h
2918 06-10-2020 03:05:00 11.8 C 10.1 g/m*3 11.8 C 3.2 km/h
2919 06-10-2020 03:10:00 11.9 C 10.17 g/m*3 11.9 C 3.2 km/h
2920 06-10-2020 03:15:00 11.8 C 10.1 g/m*3 11.8 C 3.2 km/h
2921 06-10-2020 03:20:00 11.8 C 10.1 g/m*3 11.8 C 0 km/h
2922 06-10-2020 03:25:00 11.9 C 10.17 g/m*3 11.9 C 6.4 km/h
2923 06-10-2020 03:30:00 11.9 C 10.17 g/m*3 11.9 C 3.2 km/h
2924 06-10-2020 03:35:00 11.9 C 10.17 g/m*3 11.9 C 4.8 km/h
2925 06-10-2020 03:40:00 12 C 10.23 g/m*3 12 C 8.1 km/h
Sensor: Nr:Datum:Temp:Abs-Feuchte:Windchill:Wind:
Aussen-T/F 2926 06-10-2020 03:45:00 12.1 C 10.4 g/m*3 12.1 C 8.1 km/h
2927 06-10-2020 03:50:00 12.1 C 10.4 g/m*3 12.1 C 12.9 km/h
2928 06-10-2020 03:55:00 12.2 C 10.36 g/m*3 12.2 C 3.2 km/h
2929 06-10-2020 04:00:00 12.2 C 10.36 g/m*3 12.2 C 16.1 km/h
2930 06-10-2020 04:05:00 12.3 C 10.42 g/m*3 12.3 C 19.3 km/h
2931 06-10-2020 04:10:00 12.3 C 10.42 g/m*3 12.3 C 19.3 km/h
2932 06-10-2020 04:15:00 12.3 C 10.42 g/m*3 12.3 C 20.9 km/h
2933 06-10-2020 04:20:00 12.3 C 10.32 g/m*3 12.3 C 12.9 km/h
2934 06-10-2020 04:25:00 12.3 C 10.32 g/m*3 12.3 C 8.1 km/h
2935 06-10-2020 04:30:00 12.3 C 10.32 g/m*3 12.3 C 16.1 km/h
2936 06-10-2020 04:35:00 12.3 C 10.32 g/m*3 12.3 C 20.9 km/h
2937 06-10-2020 04:40:00 12.3 C 10.32 g/m*3 12.3 C 14.5 km/h
2938 06-10-2020 04:45:00 12.3 C 10.32 g/m*3 12.3 C 16.1 km/h
2939 06-10-2020 04:50:00 12.2 C 10.14 g/m*3 12.2 C 16.1 km/h
2940 06-10-2020 04:55:00 12.2 C 10.14 g/m*3 12.2 C 14.5 km/h
2941 06-10-2020 05:00:00 12.2 C 10.14 g/m*3 12.2 C 30.6 km/h
2942 06-10-2020 05:05:00 12.3 C 10.21 g/m*3 12.3 C 22.5 km/h
2943 06-10-2020 05:10:00 12.3 C 10.1 g/m*3 12.3 C 29 km/h
2944 06-10-2020 05:15:00 12.2 C 10.04 g/m*3 12.2 C 27.4 km/h
2945 06-10-2020 05:20:00 12.2 C 10.04 g/m*3 12.2 C 17.7 km/h
2946 06-10-2020 05:25:00 12.1 C 9.87 g/m*3 12.1 C 17.7 km/h
2947 06-10-2020 05:30:00 12.1 C 9.87 g/m*3 12.1 C 17.7 km/h
2948 06-10-2020 05:35:00 12.1 C 9.76 g/m*3 12.1 C 29 km/h
2949 06-10-2020 05:40:00 12.1 C 9.76 g/m*3 12.1 C 17.7 km/h
2950 06-10-2020 05:45:00 12 C 9.7 g/m*3 12 C 16.1 km/h
Sensor: Nr:Datum:Temp:Abs-Feuchte:Windchill:Wind:
Aussen-T/F 2951 06-10-2020 05:50:00 11.9 C 9.64 g/m*3 11.9 C 25.7 km/h
2952 06-10-2020 05:55:00 11.9 C 9.53 g/m*3 11.9 C 22.5 km/h
2953 06-10-2020 06:00:00 11.9 C 9.53 g/m*3 11.9 C 16.1 km/h
2954 06-10-2020 06:05:00 11.8 C 9.47 g/m*3 11.8 C 16.1 km/h
2955 06-10-2020 06:10:00 11.8 C 9.47 g/m*3 11.8 C 16.1 km/h
2956 06-10-2020 06:15:00 11.8 C 9.37 g/m*3 11.8 C 16.1 km/h
2957 06-10-2020 06:20:00 11.8 C 9.37 g/m*3 11.8 C 16.1 km/h
2958 06-10-2020 06:25:00 11.8 C 9.37 g/m*3 11.8 C 16.1 km/h
2959 06-10-2020 06:30:00 11.8 C 9.37 g/m*3 11.8 C 16.1 km/h
2960 06-10-2020 06:35:00 11.7 C 9.31 g/m*3 11.7 C 24.1 km/h
2961 06-10-2020 06:40:00 11.8 C 9.37 g/m*3 11.8 C 16.1 km/h
2962 06-10-2020 06:45:00 11.8 C 9.37 g/m*3 11.8 C 12.9 km/h
2963 06-10-2020 06:50:00 11.8 C 9.37 g/m*3 11.8 C 17.7 km/h
2964 06-10-2020 06:55:00 11.8 C 9.37 g/m*3 11.8 C 16.1 km/h
2965 06-10-2020 07:00:00 11.8 C 9.37 g/m*3 11.8 C 16.1 km/h
2966 06-10-2020 07:05:00 11.8 C 9.37 g/m*3 11.8 C 12.9 km/h
2967 06-10-2020 07:10:00 11.7 C 9.31 g/m*3 11.7 C 9.7 km/h
2968 06-10-2020 07:15:00 11.7 C 9.2 g/m*3 11.7 C 17.7 km/h
2969 06-10-2020 07:20:00 11.7 C 9.2 g/m*3 11.7 C 11.3 km/h
2970 06-10-2020 07:25:00 11.7 C 9.2 g/m*3 11.7 C 9.7 km/h
2971 06-10-2020 07:30:00 11.7 C 9.2 g/m*3 11.7 C 11.3 km/h
2972 06-10-2020 07:35:00 11.6 C 9.15 g/m*3 11.6 C 8.1 km/h
2973 06-10-2020 07:40:00 11.6 C 9.15 g/m*3 11.6 C 17.7 km/h
2974 06-10-2020 07:45:00 11.7 C 9.2 g/m*3 11.7 C 4.8 km/h
2975 06-10-2020 07:50:00 11.7 C 9.2 g/m*3 11.7 C 9.7 km/h
Sensor: Nr:Datum:Temp:Abs-Feuchte:Windchill:Wind:
Aussen-T/F 2976 06-10-2020 07:55:00 11.8 C 9.26 g/m*3 11.8 C 9.7 km/h
2977 06-10-2020 08:00:00 11.8 C 9.26 g/m*3 11.8 C 8.1 km/h
2978 06-10-2020 08:05:00 11.8 C 9.16 g/m*3 11.8 C 14.5 km/h
2979 06-10-2020 08:10:00 11.8 C 9.16 g/m*3 11.8 C 8.1 km/h
2980 06-10-2020 08:15:00 11.8 C 9.16 g/m*3 11.8 C 11.3 km/h
2981 06-10-2020 08:20:00 11.9 C 9.21 g/m*3 11.9 C 14.5 km/h
2982 06-10-2020 08:25:00 11.9 C 9.21 g/m*3 11.9 C 6.4 km/h
2983 06-10-2020 08:30:00 11.9 C 9.21 g/m*3 11.9 C 8.1 km/h
2984 06-10-2020 08:35:00 12 C 9.27 g/m*3 12 C 6.4 km/h
2985 06-10-2020 08:40:00 12.1 C 9.33 g/m*3 12.1 C 12.9 km/h
2986 06-10-2020 08:45:00 12.1 C 9.33 g/m*3 12.1 C 1.6 km/h
2987 06-10-2020 08:50:00 12.1 C 9.44 g/m*3 12.1 C 4.8 km/h
2988 06-10-2020 08:55:00 12.2 C 9.39 g/m*3 12.2 C 8.1 km/h
2989 06-10-2020 09:00:00 12.2 C 9.39 g/m*3 12.2 C 3.2 km/h
2990 06-10-2020 09:05:00 12.3 C 9.34 g/m*3 12.3 C 6.4 km/h
2991 06-10-2020 09:10:00 12.4 C 9.4 g/m*3 12.4 C 6.4 km/h
2992 06-10-2020 09:15:00 12.5 C 9.46 g/m*3 12.5 C 6.4 km/h
2993 06-10-2020 09:20:00 12.6 C 9.51 g/m*3 12.6 C 4.8 km/h
2994 06-10-2020 09:25:00 12.6 C 9.62 g/m*3 12.6 C 6.4 km/h
2995 06-10-2020 09:30:00 12.7 C 9.46 g/m*3 12.7 C 8.1 km/h
2996 06-10-2020 09:35:00 12.7 C 9.57 g/m*3 12.7 C 3.2 km/h
2997 06-10-2020 09:40:00 12.8 C 9.63 g/m*3 12.8 C 3.2 km/h
2998 06-10-2020 09:45:00 12.8 C 9.63 g/m*3 12.8 C 6.4 km/h
2999 06-10-2020 09:50:00 12.8 C 9.52 g/m*3 12.8 C 4.8 km/h
3000 06-10-2020 09:55:00 12.9 C 9.69 g/m*3 12.9 C 1.6 km/h
Sensor: Nr:Datum:Temp:Abs-Feuchte:Windchill:Wind:
Aussen-T/F 3001 06-10-2020 10:00:00 12.8 C 9.41 g/m*3 12.8 C 9.7 km/h
3002 06-10-2020 10:05:00 12.9 C 9.58 g/m*3 12.9 C 1.6 km/h
3003 06-10-2020 10:10:00 12.9 C 9.58 g/m*3 12.9 C 3.2 km/h
3004 06-10-2020 10:15:00 13.1 C 9.81 g/m*3 13.1 C 1.6 km/h
3005 06-10-2020 10:20:00 13.1 C 9.81 g/m*3 13.1 C 3.2 km/h
3006 06-10-2020 10:25:00 13.2 C 9.76 g/m*3 13.2 C 9.7 km/h
3007 06-10-2020 10:30:00 13.3 C 9.94 g/m*3 13.3 C 9.7 km/h
3008 06-10-2020 10:35:00 13.4 C 9.88 g/m*3 13.4 C 8.1 km/h
3009 06-10-2020 10:40:00 13.5 C 9.94 g/m*3 13.5 C 9.7 km/h
3010 06-10-2020 10:45:00 13.7 C 9.95 g/m*3 13.7 C 6.4 km/h
3011 06-10-2020 10:50:00 13.8 C 10.01 g/m*3 13.8 C 9.7 km/h
3012 06-10-2020 10:55:00 13.9 C 9.95 g/m*3 13.9 C 11.3 km/h
3013 06-10-2020 11:00:00 13.9 C 9.95 g/m*3 13.9 C 16.1 km/h
3014 06-10-2020 11:05:00 13.9 C 9.95 g/m*3 13.9 C 11.3 km/h
3015 06-10-2020 11:10:00 13.9 C 10.07 g/m*3 13.9 C 11.3 km/h
3016 06-10-2020 11:15:00 13.8 C 10.01 g/m*3 13.8 C 11.3 km/h
3017 06-10-2020 11:20:00 13.8 C 10.01 g/m*3 13.8 C 12.9 km/h
3018 06-10-2020 11:25:00 13.8 C 10.01 g/m*3 13.8 C 12.9 km/h
3019 06-10-2020 11:30:00 13.9 C 10.07 g/m*3 13.9 C 8.1 km/h
3020 06-10-2020 11:35:00 13.9 C 10.07 g/m*3 13.9 C 11.3 km/h
3021 06-10-2020 11:40:00 13.9 C 10.19 g/m*3 13.9 C 12.9 km/h
3022 06-10-2020 11:45:00 13.9 C 10.31 g/m*3 13.9 C 8.1 km/h
3023 06-10-2020 11:50:00 13.9 C 10.31 g/m*3 13.9 C 9.7 km/h
3024 06-10-2020 11:55:00 14 C 10.49 g/m*3 14 C 9.7 km/h
3025 06-10-2020 12:00:00 14.2 C 10.62 g/m*3 14.2 C 3.2 km/h
Sensor: Nr:Datum:Temp:Abs-Feuchte:Windchill:Wind:
Aussen-T/F 3026 06-10-2020 12:05:00 14.3 C 10.57 g/m*3 14.3 C 11.3 km/h
3027 06-10-2020 12:10:00 14.5 C 10.57 g/m*3 14.5 C 8.1 km/h
3028 06-10-2020 12:15:00 14.7 C 10.58 g/m*3 14.7 C 19.3 km/h
3029 06-10-2020 12:20:00 14.8 C 10.64 g/m*3 14.8 C 12.9 km/h
3030 06-10-2020 12:25:00 14.9 C 10.58 g/m*3 14.9 C 19.3 km/h
3031 06-10-2020 12:30:00 14.9 C 10.58 g/m*3 14.9 C 11.3 km/h
3032 06-10-2020 12:35:00 15 C 10.64 g/m*3 15 C 9.7 km/h
3033 06-10-2020 12:40:00 15.1 C 10.71 g/m*3 15.1 C 9.7 km/h
3034 06-10-2020 12:45:00 15.1 C 10.58 g/m*3 15.1 C 17.7 km/h
3035 06-10-2020 12:50:00 15.1 C 10.58 g/m*3 15.1 C 6.4 km/h
3036 06-10-2020 12:55:00 15.1 C 10.58 g/m*3 15.1 C 8.1 km/h
3037 06-10-2020 13:00:00 15.1 C 10.58 g/m*3 15.1 C 4.8 km/h
3038 06-10-2020 13:05:00 15.1 C 10.71 g/m*3 15.1 C 8.1 km/h
3039 06-10-2020 13:10:00 15.1 C 10.58 g/m*3 15.1 C 9.7 km/h
3040 06-10-2020 13:15:00 15 C 10.51 g/m*3 15 C 9.7 km/h
3041 06-10-2020 13:20:00 14.9 C 10.58 g/m*3 14.9 C 6.4 km/h
3042 06-10-2020 13:25:00 15 C 10.64 g/m*3 15 C 11.3 km/h
3043 06-10-2020 13:30:00 15.1 C 10.58 g/m*3 15.1 C 6.4 km/h
3044 06-10-2020 13:35:00 15.1 C 10.71 g/m*3 15.1 C 8.1 km/h
3045 06-10-2020 13:40:00 15.1 C 10.71 g/m*3 15.1 C 8.1 km/h
3046 06-10-2020 13:45:00 15.1 C 10.71 g/m*3 15.1 C 6.4 km/h
3047 06-10-2020 13:50:00 15.1 C 10.71 g/m*3 15.1 C 8.1 km/h
3048 06-10-2020 13:55:00 14.9 C 10.83 g/m*3 14.9 C 9.7 km/h
3049 06-10-2020 14:00:00 15 C 11.03 g/m*3 15 C 6.4 km/h
3050 06-10-2020 14:05:00 15.1 C 10.97 g/m*3 15.1 C 4.8 km/h
Sensor: Nr:Datum:Temp:Abs-Feuchte:Windchill:Wind:
Aussen-T/F 3051 06-10-2020 14:10:00 15.1 C 11.09 g/m*3 15.1 C 6.4 km/h
3052 06-10-2020 14:15:00 15.1 C 11.09 g/m*3 15.1 C 11.3 km/h
3053 06-10-2020 14:20:00 14.8 C 11.15 g/m*3 14.8 C 9.7 km/h
3054 06-10-2020 14:25:00 14.7 C 11.21 g/m*3 14.7 C 9.7 km/h
3055 06-10-2020 14:30:00 14.7 C 11.21 g/m*3 14.7 C 6.4 km/h
3056 06-10-2020 14:35:00 14.8 C 11.27 g/m*3 14.8 C 14.5 km/h
3057 06-10-2020 14:40:00 15.1 C 11.35 g/m*3 15.1 C 11.3 km/h
3058 06-10-2020 14:45:00 15.2 C 11.29 g/m*3 15.2 C 12.9 km/h
3059 06-10-2020 14:50:00 15.4 C 11.3 g/m*3 15.4 C 9.7 km/h
3060 06-10-2020 14:55:00 15.6 C 11.17 g/m*3 15.6 C 14.5 km/h
3061 06-10-2020 15:00:00 15.6 C 11.04 g/m*3 15.6 C 16.1 km/h
3062 06-10-2020 15:05:00 15.6 C 10.91 g/m*3 15.6 C 17.7 km/h
3063 06-10-2020 15:10:00 15.5 C 10.84 g/m*3 15.5 C 12.9 km/h
3064 06-10-2020 15:15:00 15.4 C 10.64 g/m*3 15.4 C 20.9 km/h
3065 06-10-2020 15:20:00 15.2 C 10.77 g/m*3 15.2 C 16.1 km/h
3066 06-10-2020 15:25:00 15.1 C 10.84 g/m*3 15.1 C 16.1 km/h
3067 06-10-2020 15:30:00 15.1 C 10.84 g/m*3 15.1 C 17.7 km/h
3068 06-10-2020 15:35:00 15.2 C 11.03 g/m*3 15.2 C 9.7 km/h
3069 06-10-2020 15:40:00 15.2 C 10.9 g/m*3 15.2 C 16.1 km/h
3070 06-10-2020 15:45:00 15.3 C 10.84 g/m*3 15.3 C 9.7 km/h
3071 06-10-2020 15:50:00 15.5 C 11.1 g/m*3 15.5 C 14.5 km/h
3072 06-10-2020 15:55:00 15.6 C 11.17 g/m*3 15.6 C 9.7 km/h
3073 06-10-2020 16:00:00 15.7 C 10.84 g/m*3 15.7 C 14.5 km/h
3074 06-10-2020 16:05:00 15.6 C 10.77 g/m*3 15.6 C 12.9 km/h
3075 06-10-2020 16:10:00 15.6 C 10.77 g/m*3 15.6 C 16.1 km/h
Sensor: Nr:Datum:Temp:Abs-Feuchte:Windchill:Wind:
Aussen-T/F 3076 06-10-2020 16:15:00 15.6 C 10.91 g/m*3 15.6 C 16.1 km/h
3077 06-10-2020 16:20:00 15.6 C 10.77 g/m*3 15.6 C 12.9 km/h
3078 06-10-2020 16:25:00 15.4 C 10.64 g/m*3 15.4 C 11.3 km/h
3079 06-10-2020 16:30:00 15.4 C 10.64 g/m*3 15.4 C 6.4 km/h
3080 06-10-2020 16:35:00 15.3 C 10.71 g/m*3 15.3 C 9.7 km/h
3081 06-10-2020 16:40:00 15.3 C 10.71 g/m*3 15.3 C 8.1 km/h
3082 06-10-2020 16:45:00 15.2 C 10.64 g/m*3 15.2 C 16.1 km/h
3083 06-10-2020 16:50:00 15.2 C 10.77 g/m*3 15.2 C 9.7 km/h
3084 06-10-2020 16:55:00 15.2 C 10.64 g/m*3 15.2 C 11.3 km/h
3085 06-10-2020 17:00:00 15.2 C 10.64 g/m*3 15.2 C 11.3 km/h
3086 06-10-2020 17:05:00 15.1 C 10.58 g/m*3 15.1 C 11.3 km/h
3087 06-10-2020 17:10:00 15.1 C 10.71 g/m*3 15.1 C 12.9 km/h
3088 06-10-2020 17:15:00 15.1 C 10.58 g/m*3 15.1 C 11.3 km/h
3089 06-10-2020 17:20:00 15 C 10.64 g/m*3 15 C 8.1 km/h
3090 06-10-2020 17:25:00 14.9 C 10.58 g/m*3 14.9 C 8.1 km/h
3091 06-10-2020 17:30:00 14.8 C 10.51 g/m*3 14.8 C 11.3 km/h
3092 06-10-2020 17:35:00 14.8 C 10.77 g/m*3 14.8 C 6.4 km/h
3093 06-10-2020 17:40:00 14.7 C 10.83 g/m*3 14.7 C 8.1 km/h
3094 06-10-2020 17:45:00 14.4 C 10.75 g/m*3 14.4 C 9.7 km/h
3095 06-10-2020 17:50:00 14.2 C 10.75 g/m*3 14.2 C 9.7 km/h
3096 06-10-2020 17:55:00 14.1 C 10.8 g/m*3 14.1 C 14.5 km/h
3097 06-10-2020 18:00:00 13.9 C 10.79 g/m*3 13.9 C 9.7 km/h
3098 06-10-2020 18:05:00 13.8 C 10.72 g/m*3 13.8 C 8.1 km/h
3099 06-10-2020 18:10:00 13.7 C 10.66 g/m*3 13.7 C 8.1 km/h
3100 06-10-2020 18:15:00 13.6 C 10.59 g/m*3 13.6 C 9.7 km/h
Sensor: Nr:Datum:Temp:Abs-Feuchte:Windchill:Wind:
Aussen-T/F 3101 06-10-2020 18:20:00 13.4 C 10.46 g/m*3 13.4 C 8.1 km/h
3102 06-10-2020 18:25:00 13.3 C 10.4 g/m*3 13.3 C 8.1 km/h
3103 06-10-2020 18:30:00 13.2 C 10.45 g/m*3 13.2 C 9.7 km/h
3104 06-10-2020 18:35:00 13.2 C 10.33 g/m*3 13.2 C 12.9 km/h
3105 06-10-2020 18:40:00 13.1 C 10.27 g/m*3 13.1 C 14.5 km/h
3106 06-10-2020 18:45:00 13.1 C 10.27 g/m*3 13.1 C 3.2 km/h
3107 06-10-2020 18:50:00 13.1 C 10.27 g/m*3 13.1 C 8.1 km/h
3108 06-10-2020 18:55:00 13 C 10.32 g/m*3 13 C 6.4 km/h
3109 06-10-2020 19:00:00 12.9 C 10.26 g/m*3 12.9 C 4.8 km/h
3110 06-10-2020 19:05:00 12.9 C 10.26 g/m*3 12.9 C 9.7 km/h
3111 06-10-2020 19:10:00 12.9 C 10.14 g/m*3 12.9 C 12.9 km/h
3112 06-10-2020 19:15:00 12.9 C 10.14 g/m*3 12.9 C 4.8 km/h
3113 06-10-2020 19:20:00 12.9 C 10.03 g/m*3 12.9 C 8.1 km/h
3114 06-10-2020 19:25:00 12.8 C 9.97 g/m*3 12.8 C 6.4 km/h
3115 06-10-2020 19:30:00 12.8 C 9.97 g/m*3 12.8 C 16.1 km/h
3116 06-10-2020 19:35:00 12.9 C 10.03 g/m*3 12.9 C 11.3 km/h
3117 06-10-2020 19:40:00 13 C 10.09 g/m*3 13 C 14.5 km/h
3118 06-10-2020 19:45:00 13.1 C 10.04 g/m*3 13.1 C 12.9 km/h
3119 06-10-2020 19:50:00 13.1 C 10.16 g/m*3 13.1 C 6.4 km/h
3120 06-10-2020 19:55:00 13.1 C 10.16 g/m*3 13.1 C 6.4 km/h
3121 06-10-2020 20:00:00 13.1 C 10.16 g/m*3 13.1 C 9.7 km/h
3122 06-10-2020 20:05:00 13.1 C 10.16 g/m*3 13.1 C 16.1 km/h
3123 06-10-2020 20:10:00 12.9 C 9.92 g/m*3 12.9 C 11.3 km/h
3124 06-10-2020 20:15:00 12.9 C 9.92 g/m*3 12.9 C 9.7 km/h
3125 06-10-2020 20:20:00 12.9 C 9.92 g/m*3 12.9 C 17.7 km/h
Sensor: Nr:Datum:Temp:Abs-Feuchte:Windchill:Wind:
Aussen-T/F 3126 06-10-2020 20:25:00 12.9 C 9.92 g/m*3 12.9 C 0 km/h
3127 06-10-2020 20:30:00 12.9 C 10.03 g/m*3 12.9 C 4.8 km/h
3128 06-10-2020 20:35:00 12.8 C 9.97 g/m*3 12.8 C 1.6 km/h
3129 06-10-2020 20:40:00 12.8 C 9.97 g/m*3 12.8 C 4.8 km/h
3130 06-10-2020 20:45:00 12.7 C 9.91 g/m*3 12.7 C 6.4 km/h
3131 06-10-2020 20:50:00 12.7 C 10.02 g/m*3 12.7 C 3.2 km/h
3132 06-10-2020 20:55:00 12.7 C 10.02 g/m*3 12.7 C 3.2 km/h
3133 06-10-2020 21:00:00 12.7 C 10.02 g/m*3 12.7 C 1.6 km/h
3134 06-10-2020 21:05:00 12.6 C 9.85 g/m*3 12.6 C 6.4 km/h
3135 06-10-2020 21:10:00 12.6 C 9.85 g/m*3 12.6 C 4.8 km/h
3136 06-10-2020 21:15:00 12.6 C 9.85 g/m*3 12.6 C 8.1 km/h
3137 06-10-2020 21:20:00 12.6 C 9.85 g/m*3 12.6 C 1.6 km/h
3138 06-10-2020 21:25:00 12.6 C 9.85 g/m*3 12.6 C 12.9 km/h
3139 06-10-2020 21:30:00 12.6 C 9.85 g/m*3 12.6 C 8.1 km/h
3140 06-10-2020 21:35:00 12.7 C 9.91 g/m*3 12.7 C 4.8 km/h
3141 06-10-2020 21:40:00 12.7 C 9.8 g/m*3 12.7 C 4.8 km/h
3142 06-10-2020 21:45:00 12.8 C 9.86 g/m*3 12.8 C 12.9 km/h
3143 06-10-2020 21:50:00 12.8 C 9.86 g/m*3 12.8 C 11.3 km/h
3144 06-10-2020 21:55:00 12.8 C 9.86 g/m*3 12.8 C 1.6 km/h
3145 06-10-2020 22:00:00 12.8 C 9.86 g/m*3 12.8 C 14.5 km/h
3146 06-10-2020 22:05:00 12.8 C 9.86 g/m*3 12.8 C 9.7 km/h
3147 06-10-2020 22:10:00 12.8 C 9.86 g/m*3 12.8 C 11.3 km/h
3148 06-10-2020 22:15:00 12.8 C 9.86 g/m*3 12.8 C 9.7 km/h
3149 06-10-2020 22:20:00 12.7 C 9.8 g/m*3 12.7 C 12.9 km/h
3150 06-10-2020 22:25:00 12.7 C 9.8 g/m*3 12.7 C 11.3 km/h
Sensor: Nr:Datum:Temp:Abs-Feuchte:Windchill:Wind:
Aussen-T/F 3151 06-10-2020 22:30:00 12.7 C 9.8 g/m*3 12.7 C 14.5 km/h
3152 06-10-2020 22:35:00 12.8 C 9.86 g/m*3 12.8 C 9.7 km/h
3153 06-10-2020 22:40:00 12.8 C 9.86 g/m*3 12.8 C 16.1 km/h
3154 06-10-2020 22:45:00 12.8 C 9.74 g/m*3 12.8 C 9.7 km/h
3155 06-10-2020 22:50:00 12.8 C 9.74 g/m*3 12.8 C 14.5 km/h
3156 06-10-2020 22:55:00 12.8 C 9.74 g/m*3 12.8 C 16.1 km/h
3157 06-10-2020 23:00:00 12.8 C 9.74 g/m*3 12.8 C 12.9 km/h
3158 06-10-2020 23:05:00 12.8 C 9.74 g/m*3 12.8 C 11.3 km/h
3159 06-10-2020 23:10:00 12.7 C 9.68 g/m*3 12.7 C 9.7 km/h
3160 06-10-2020 23:15:00 12.7 C 9.68 g/m*3 12.7 C 9.7 km/h
3161 06-10-2020 23:20:00 12.7 C 9.68 g/m*3 12.7 C 17.7 km/h
3162 06-10-2020 23:25:00 12.7 C 9.68 g/m*3 12.7 C 16.1 km/h
3163 06-10-2020 23:30:00 12.7 C 9.68 g/m*3 12.7 C 11.3 km/h
3164 06-10-2020 23:35:00 12.6 C 9.62 g/m*3 12.6 C 14.5 km/h
3165 06-10-2020 23:40:00 12.6 C 9.62 g/m*3 12.6 C 12.9 km/h
3166 06-10-2020 23:45:00 12.6 C 9.62 g/m*3 12.6 C 9.7 km/h
3167 06-10-2020 23:50:00 12.6 C 9.62 g/m*3 12.6 C 8.1 km/h
3168 06-10-2020 23:55:00 12.5 C 9.57 g/m*3 12.5 C 16.1 km/h
3169 07-10-2020 00:00:00 12.4 C 9.62 g/m*3 12.4 C 14.5 km/h
3170 07-10-2020 00:05:00 12.4 C 9.62 g/m*3 12.4 C 14.5 km/h
3171 07-10-2020 00:10:00 12.3 C 9.45 g/m*3 12.3 C 6.4 km/h
3172 07-10-2020 00:15:00 12.3 C 9.56 g/m*3 12.3 C 8.1 km/h
3173 07-10-2020 00:20:00 12.2 C 9.5 g/m*3 12.2 C 12.9 km/h
3174 07-10-2020 00:25:00 12.2 C 9.5 g/m*3 12.2 C 9.7 km/h
3175 07-10-2020 00:30:00 12.2 C 9.5 g/m*3 12.2 C 9.7 km/h
Sensor: Nr:Datum:Temp:Abs-Feuchte:Windchill:Wind:
Aussen-T/F 3176 07-10-2020 00:35:00 12.2 C 9.5 g/m*3 12.2 C 11.3 km/h
3177 07-10-2020 00:40:00 12.2 C 9.5 g/m*3 12.2 C 11.3 km/h
3178 07-10-2020 00:45:00 12.2 C 9.5 g/m*3 12.2 C 3.2 km/h
3179 07-10-2020 00:50:00 12.2 C 9.5 g/m*3 12.2 C 8.1 km/h
3180 07-10-2020 00:55:00 12.2 C 9.6 g/m*3 12.2 C 3.2 km/h
3181 07-10-2020 01:00:00 12.2 C 9.6 g/m*3 12.2 C 1.6 km/h
3182 07-10-2020 01:05:00 12.2 C 9.6 g/m*3 12.2 C 6.4 km/h
3183 07-10-2020 01:10:00 12.2 C 9.6 g/m*3 12.2 C 8.1 km/h
3184 07-10-2020 01:15:00 12.3 C 9.56 g/m*3 12.3 C 6.4 km/h
3185 07-10-2020 01:20:00 12.3 C 9.56 g/m*3 12.3 C 9.7 km/h
3186 07-10-2020 01:25:00 12.3 C 9.56 g/m*3 12.3 C 6.4 km/h
3187 07-10-2020 01:30:00 12.4 C 9.62 g/m*3 12.4 C 16.1 km/h
3188 07-10-2020 01:35:00 12.4 C 9.62 g/m*3 12.4 C 9.7 km/h
3189 07-10-2020 01:40:00 12.5 C 9.68 g/m*3 12.5 C 14.5 km/h
3190 07-10-2020 01:45:00 12.4 C 9.62 g/m*3 12.4 C 14.5 km/h
3191 07-10-2020 01:50:00 12.4 C 9.72 g/m*3 12.4 C 11.3 km/h
3192 07-10-2020 01:55:00 12.3 C 9.66 g/m*3 12.3 C 8.1 km/h
3193 07-10-2020 02:00:00 12.3 C 9.77 g/m*3 12.3 C 14.5 km/h
3194 07-10-2020 02:05:00 12.2 C 9.71 g/m*3 12.2 C 12.9 km/h
3195 07-10-2020 02:10:00 12.1 C 9.65 g/m*3 12.1 C 11.3 km/h
3196 07-10-2020 02:15:00 12 C 9.7 g/m*3 12 C 12.9 km/h
3197 07-10-2020 02:20:00 11.9 C 9.64 g/m*3 11.9 C 8.1 km/h
3198 07-10-2020 02:25:00 11.9 C 9.64 g/m*3 11.9 C 6.4 km/h
3199 07-10-2020 02:30:00 11.8 C 9.58 g/m*3 11.8 C 9.7 km/h
3200 07-10-2020 02:35:00 11.8 C 9.58 g/m*3 11.8 C 14.5 km/h
Sensor: Nr:Datum:Temp:Abs-Feuchte:Windchill:Wind:
Aussen-T/F 3201 07-10-2020 02:40:00 11.8 C 9.58 g/m*3 11.8 C 8.1 km/h
3202 07-10-2020 02:45:00 11.7 C 9.52 g/m*3 11.7 C 8.1 km/h
3203 07-10-2020 02:50:00 11.7 C 9.62 g/m*3 11.7 C 16.1 km/h
3204 07-10-2020 02:55:00 11.7 C 9.52 g/m*3 11.7 C 19.3 km/h
3205 07-10-2020 03:00:00 11.7 C 9.52 g/m*3 11.7 C 12.9 km/h
3206 07-10-2020 03:05:00 11.7 C 9.52 g/m*3 11.7 C 11.3 km/h
3207 07-10-2020 03:10:00 11.7 C 9.52 g/m*3 11.7 C 12.9 km/h
3208 07-10-2020 03:15:00 11.8 C 9.58 g/m*3 11.8 C 17.7 km/h
3209 07-10-2020 03:20:00 11.8 C 9.58 g/m*3 11.8 C 11.3 km/h
3210 07-10-2020 03:25:00 11.8 C 9.47 g/m*3 11.8 C 12.9 km/h
3211 07-10-2020 03:30:00 11.9 C 9.53 g/m*3 11.9 C 9.7 km/h
3212 07-10-2020 03:35:00 11.9 C 9.53 g/m*3 11.9 C 8.1 km/h
3213 07-10-2020 03:40:00 11.9 C 9.53 g/m*3 11.9 C 8.1 km/h
3214 07-10-2020 03:45:00 11.9